Provisional Data: Conodoguinet Creek near Schlusser, PA


Please select a monitoring station.
Please select start date.
Please select start date.

Toggle Unit: C/F Toggle Unit: C/F
Sample Time Temperature (C) Temperature (F) Specific Conductivity (mS/cm) pH   Turbidity (NTU+) DO (mg/L)
12/23/2022 12:00:00 AM 2.16 35.888 0.337 7.63 10.98 13.13
12/23/2022 12:15:00 AM 2.19 35.942 0.336 7.62 10.9 13.12
12/23/2022 12:30:00 AM 2.23 36.014 0.334 7.62 9.16 13.1
12/23/2022 12:45:00 AM 2.26 36.068 0.332 7.48 10.85 13.08
12/23/2022 1:00:00 AM 2.3 36.14 0.33 7.49 9.94 13.07
12/23/2022 1:15:00 AM 2.34 36.212 0.329 7.48 10.08 13.04
12/23/2022 1:30:00 AM 2.38 36.284 0.328 7.51 13.76 13.03
12/23/2022 1:45:00 AM 2.41 36.338 0.327 7.5 13.84 13
12/23/2022 2:00:00 AM 2.45 36.41 0.326 7.51 15.63 12.98
12/23/2022 2:15:00 AM 2.48 36.464 0.325 7.51 22.44 12.95
12/23/2022 2:30:00 AM 2.52 36.536 0.322 7.5 24.89 12.95
12/23/2022 2:45:00 AM 2.54 36.572 0.32 7.5 31.46 12.93
12/23/2022 3:00:00 AM 2.56 36.608 0.319 7.47 37.86 12.9
12/23/2022 3:15:00 AM 2.58 36.644 0.315 7.48 45.14 12.88
12/23/2022 3:30:00 AM 2.6 36.68 0.312 7.47 49.74 12.85
12/23/2022 3:45:00 AM 2.62 36.716 0.306 7.46 73.03 12.84
12/23/2022 4:00:00 AM 2.65 36.77 0.301 7.44 80.25 12.81
12/23/2022 4:15:00 AM 2.69 36.842 0.297 7.43 64.37 12.78
12/23/2022 4:30:00 AM 2.73 36.914 0.295 7.43 86.55 12.76
12/23/2022 4:45:00 AM 2.79 37.022 0.292 7.42 62.76 12.74
12/23/2022 5:00:00 AM 2.84 37.112 0.289 7.41 79.51 12.71
12/23/2022 5:15:00 AM 2.88 37.184 0.285 7.41 80.06 12.7
12/23/2022 5:30:00 AM 2.92 37.256 0.281 7.41 68.69 12.69
12/23/2022 5:45:00 AM 2.95 37.31 0.277 7.4 58.13 12.68
12/23/2022 6:00:00 AM 2.97 37.346 0.273 7.41 55.75 12.67
12/23/2022 6:15:00 AM 2.98 37.364 0.269 7.39 85.99 12.67
12/23/2022 6:30:00 AM 2.99 37.382 0.267 7.37 92 12.64
12/23/2022 6:45:00 AM 2.99 37.382 0.266 7.39 77.77 12.67
12/23/2022 7:00:00 AM 2.99 37.382 0.265 7.37 82.11 12.66
12/23/2022 7:15:00 AM 2.99 37.382 0.266 7.37 78.38 12.64
12/23/2022 7:30:00 AM 2.98 37.364 0.267 7.36 87.86 12.67
12/23/2022 7:45:00 AM 2.98 37.364 0.269 7.35 88.12 12.65
12/23/2022 8:00:00 AM 2.98 37.364 0.271 7.33 94.99 12.65
12/23/2022 8:15:00 AM 2.98 37.364 0.272 7.42 96.03 12.67
12/23/2022 8:30:00 AM 2.98 37.364 0.273 7.42 94.09 12.67
12/23/2022 8:45:00 AM 2.97 37.346 0.274 7.41 104.2 12.67
12/23/2022 9:00:00 AM 2.97 37.346 0.275 7.41 108.7 12.67
12/23/2022 9:15:00 AM 2.96 37.328 0.275 7.4 95.74 12.69
12/23/2022 9:30:00 AM 2.95 37.31 0.274 7.39 115.4 12.7
12/23/2022 9:45:00 AM 2.94 37.292 0.272 7.39 119.1 12.69
12/23/2022 10:00:00 AM 2.92 37.256 0.27 7.41 118.9 12.71
12/23/2022 10:15:00 AM 2.9 37.22 0.267 7.41 114.9 12.71
12/23/2022 10:30:00 AM 2.87 37.166 0.263 7.39 135.4 12.72
12/23/2022 10:45:00 AM 2.85 37.13 0.26 7.39 120.6 12.73
12/23/2022 11:00:00 AM 2.85 37.13 0.257 7.4 105.7 12.74
12/23/2022 11:15:00 AM 2.84 37.112 0.253 7.27 106.3 12.73
12/23/2022 11:30:00 AM 2.84 37.112 0.252 7.4 102.8 12.74
12/23/2022 11:45:00 AM 2.85 37.13 0.251 7.39 107.5 12.73
12/23/2022 12:00:00 PM 2.86 37.148 0.25 7.38 163.2 12.72
12/23/2022 12:15:00 PM 2.85 37.13 0.252 7.37 141.4 12.71
12/23/2022 12:30:00 PM 2.87 37.166 0.255 7.39 157.7 12.68
12/23/2022 12:45:00 PM 2.88 37.184 0.258 7.29 151.2 12.66
12/23/2022 1:00:00 PM 2.87 37.166 0.262 7.26 187.1 12.66
12/23/2022 1:15:00 PM 2.86 37.148 0.264 7.28 162.8 12.65
12/23/2022 1:30:00 PM 2.84 37.112 0.267 7.33 127 12.64
12/23/2022 1:45:00 PM 2.82 37.076 0.27 7.33 118.8 12.65
12/23/2022 2:00:00 PM 2.82 37.076 0.271 7.41 150.5 12.64
12/23/2022 2:15:00 PM 2.81 37.058 0.272 7.38 157.9 12.66
12/23/2022 2:30:00 PM 2.79 37.022 0.272 7.39 114.5 12.65
12/23/2022 2:45:00 PM 2.78 37.004 0.271 7.39 169.9 12.66
12/23/2022 3:00:00 PM 2.75 36.95 0.268 7.38 133.6 12.66
12/23/2022 3:15:00 PM 2.74 36.932 0.266 7.37 147.4 12.66
12/23/2022 3:30:00 PM 2.72 36.896 0.263 7.36 117.3 12.68
12/23/2022 3:45:00 PM 2.7 36.86 0.26 7.37 139.2 12.68
12/23/2022 4:00:00 PM 2.68 36.824 0.255 7.26 161.2 12.66
12/23/2022 4:15:00 PM 2.66 36.788 0.253 7.25 167 12.68
12/23/2022 4:30:00 PM 2.64 36.752 0.25 7.25 177.3 12.67
12/23/2022 4:45:00 PM 2.62 36.716 0.246 7.29 170.9 12.67
12/23/2022 5:00:00 PM 2.61 36.698 0.244 7.27 191.9 12.69
12/23/2022 5:15:00 PM 2.59 36.662 0.242 7.27 171.7 12.68
12/23/2022 5:30:00 PM 2.57 36.626 0.24 7.25 162.6 12.69
12/23/2022 5:45:00 PM 2.55 36.59 0.237 7.26 171.9 12.69
12/23/2022 6:00:00 PM 2.52 36.536 0.235 7.26 136.5 12.71
12/23/2022 6:15:00 PM 2.48 36.464 0.232 7.26 171.2 12.71
12/23/2022 6:30:00 PM 2.45 36.41 0.23 7.26 130 12.72
12/23/2022 6:45:00 PM 2.41 36.338 0.227 7.25 160.3 12.74
12/23/2022 7:00:00 PM 2.38 36.284 0.225 7.21 153.1 12.74
12/23/2022 7:15:00 PM 2.34 36.212 0.223 7.17 153.5 12.77
12/23/2022 7:30:00 PM 2.31 36.158 0.221 7.17 154.1 12.77
12/23/2022 7:45:00 PM 2.27 36.086 0.219 7.19 140.8 12.79
12/23/2022 8:00:00 PM 2.23 36.014 0.217 7.2 151.7 12.81
12/23/2022 8:15:00 PM 2.19 35.942 0.216 7.19 163.5 12.82
12/23/2022 8:30:00 PM 2.15 35.87 0.215 7.2 167.4 12.84
12/23/2022 8:45:00 PM 2.12 35.816 0.213 7.2 160.4 12.85
12/23/2022 9:00:00 PM 2.08 35.744 0.212 7.2 118 12.85
12/23/2022 9:15:00 PM 2.04 35.672 0.211 7.19 130.6 12.89
12/23/2022 9:30:00 PM 2 35.6 0.21 7.19 149.6 12.89
12/23/2022 9:45:00 PM 1.97 35.546 0.209 7.28 169.2 12.91
12/23/2022 10:00:00 PM 1.93 35.474 0.208 7.28 124 12.94
12/23/2022 10:15:00 PM 1.89 35.402 0.207 7.24 124.2 12.95
12/23/2022 10:30:00 PM 1.86 35.348 0.206 7.24 190.7 12.97
12/23/2022 10:45:00 PM 1.82 35.276 0.204 7.26 126.5 12.99
12/23/2022 11:00:00 PM 1.78 35.204 0.203 7.09 106.2 12.98
12/23/2022 11:15:00 PM 1.75 35.15 0.203 7.13 126.9 13.03
12/23/2022 11:30:00 PM 1.71 35.078 0.202 7.19 126.4 13.04
12/23/2022 11:45:00 PM 1.67 35.006 0.201 7.3 133.6 13.05
12/24/2022 12:00:00 AM 1.62 34.916 0.2 7.26 121.1 13.08
12/24/2022 12:15:00 AM 1.58 34.844 0.199 7.25 125.9 13.09
12/24/2022 12:30:00 AM 1.54 34.772 0.199 7.24 98.47 13.08
12/24/2022 12:45:00 AM 1.5 34.7 0.198 7.24 116.6 13.12
12/24/2022 1:00:00 AM 1.45 34.61 0.198 7.22 103 13.13
12/24/2022 1:15:00 AM 1.4 34.52 0.197 7.08 106.7 13.14
12/24/2022 1:30:00 AM 1.35 34.43 0.197 7.08 105.8 13.17
12/24/2022 1:45:00 AM 1.31 34.358 0.196 7.08 112.5 13.2
12/24/2022 2:00:00 AM 1.25 34.25 0.195 7.09 102.2 13.24
12/24/2022 2:15:00 AM 1.2 34.16 0.195 7.09 116.4 13.27
12/24/2022 2:30:00 AM 1.16 34.088 0.195 7.11 130.5 13.29
12/24/2022 2:45:00 AM 1.11 33.998 0.195 7.11 92.37 13.31
12/24/2022 3:00:00 AM 1.05 33.89 0.195 7.09 96.53 13.34
12/24/2022 3:15:00 AM 1 33.8 0.194 7.1 89.3 13.36
12/24/2022 3:30:00 AM 0.95 33.71 0.194 7.09 96.83 13.39
12/24/2022 3:45:00 AM 0.9 33.62 0.194 7.1 85.69 13.41
12/24/2022 4:00:00 AM 0.85 33.53 0.195 7.1 73.57 13.43
12/24/2022 4:15:00 AM 0.8 33.44 0.195 7.09 87.56 13.46
12/24/2022 4:30:00 AM 0.75 33.35 0.195 7.07 73.01 13.48
12/24/2022 4:45:00 AM 0.71 33.278 0.195 7.08 72.51 13.48
12/24/2022 5:00:00 AM 0.66 33.188 0.195 7.08 71.44 13.52
12/24/2022 5:15:00 AM 0.61 33.098 0.195 7.07 63.67 13.52
12/24/2022 5:30:00 AM 0.57 33.026 0.195 7.07 56.75 13.54
12/24/2022 5:45:00 AM 0.52 32.936 0.196 7.07 70.72 13.55
12/24/2022 6:00:00 AM 0.47 32.846 0.196 7.05 65.07 13.57
12/24/2022 6:15:00 AM 0.42 32.756 0.196 7.06 71.15 13.6
12/24/2022 6:30:00 AM 0.38 32.684 0.197 7.05 62.57 13.62
12/24/2022 6:45:00 AM 0.33 32.594 0.197 7.06 58.59 13.62
12/24/2022 7:00:00 AM 0.29 32.522 0.197 7.05 60.99 13.66
12/24/2022 7:15:00 AM 0.24 32.432 0.198 7.05 50.17 13.68
12/24/2022 7:30:00 AM 0.2 32.36 0.198 7.04 57.96 13.7
12/24/2022 7:45:00 AM 0.16 32.288 0.199 7.05 60.97 13.7
12/24/2022 8:00:00 AM 0.12 32.216 0.199 7.05 49.31 13.74
12/24/2022 8:15:00 AM 0.09 32.162 0.2 7.05 49.97 13.75
12/24/2022 8:30:00 AM 0.06 32.108 0.2 7.05 2413 13.76
12/24/2022 8:45:00 AM 0.03 32.054 0.201 7.04 50.24 13.79
12/24/2022 9:00:00 AM 0.01 32.018 0.201 7.03 48.3 13.81
12/24/2022 9:15:00 AM 0 32 0.202 7.04 47.53 13.82
12/24/2022 9:30:00 AM -0.03 31.946 0.202 7.04 55.69 13.85
12/24/2022 9:45:00 AM -0.05 31.91 0.203 7.05 47.29 13.86
12/24/2022 10:00:00 AM -0.07 31.874 0.204 7.03 43.44 13.88
12/24/2022 10:15:00 AM -0.08 31.856 0.205 7.05 49.76 13.92
12/24/2022 10:30:00 AM -0.09 31.838 0.205 7.04 49.92 13.92
12/24/2022 10:45:00 AM -0.11 31.802 0.206 7.04 48.57 13.94
12/24/2022 11:00:00 AM -0.11 31.802 0.207 7.04 52.35 13.97
12/24/2022 11:15:00 AM -0.11 31.802 0.207 7.05 53.95 13.99
12/24/2022 11:30:00 AM -0.11 31.802 0.208 7.05 69.49 14.01
12/24/2022 11:45:00 AM -0.1 31.82 0.208 7.05 1074 14.03
12/24/2022 12:00:00 PM -0.09 31.838 0.209 7.05 682.6 14.05
12/24/2022 12:15:00 PM -0.08 31.856 0.21 7.05 683.3 14.06
12/24/2022 12:30:00 PM -0.07 31.874 0.21 7.05 40.24 14.05
12/24/2022 12:45:00 PM -0.06 31.892 0.211 7.07 49.17 14.09
12/24/2022 1:00:00 PM -0.06 31.892 0.212 7.07 45.26 14.08
12/24/2022 1:15:00 PM -0.05 31.91 0.212 7.07 42.76 14.1
12/24/2022 1:30:00 PM -0.07 31.874 0.213 7.07 40.65 14.12
12/24/2022 1:45:00 PM -0.07 31.874 0.214 7.07 34.38 14.13
12/24/2022 2:00:00 PM -0.07 31.874 0.214 7.07 36.13 14.13
12/24/2022 2:15:00 PM -0.07 31.874 0.215 7.08 39.39 14.13
12/24/2022 2:30:00 PM -0.07 31.874 0.215 7.08 41.43 14.15
12/24/2022 2:45:00 PM -0.09 31.838 0.216 7.08 41.6 14.16
12/24/2022 3:00:00 PM -0.09 31.838 0.217 7.09 36.31 14.15
12/24/2022 3:15:00 PM -0.09 31.838 0.217 7.09 36.58 14.18
12/24/2022 3:30:00 PM -0.1 31.82 0.218 7.09 33.69 14.18
12/24/2022 3:45:00 PM -0.1 31.82 0.218 7.09 33.5 14.19
12/24/2022 4:00:00 PM -0.1 31.82 0.219 7.11 35.31 14.2
12/24/2022 4:15:00 PM -0.11 31.802 0.22 7.11 32.91 14.22
12/24/2022 4:30:00 PM -0.13 31.766 0.22 7.12 31.93 14.21
12/24/2022 4:45:00 PM -0.14 31.748 0.221 7.12 33.32 14.2
12/24/2022 5:00:00 PM -0.15 31.73 0.222 7.11 29.29 14.24
12/24/2022 5:15:00 PM -0.16 31.712 0.222 7.12 29.66 14.24
12/24/2022 5:30:00 PM -0.17 31.694 0.216 7.11 32.27 14.26
12/24/2022 5:45:00 PM -0.17 31.694 0.208 7.12 33.23 14.25
12/24/2022 6:00:00 PM -0.17 31.694 0.202 7.11 28.56 14.28
12/24/2022 6:15:00 PM -0.16 31.712 0.196 7.11 32.22 14.27
12/24/2022 6:30:00 PM -0.16 31.712 0.193 7.12 28.36 14.28
12/24/2022 6:45:00 PM -0.16 31.712 0.19 7.12 27.76 14.29
12/24/2022 7:00:00 PM -0.16 31.712 0.19 7.12 24.26 14.3
12/24/2022 7:15:00 PM -0.16 31.712 0.187 7.12 24.23 14.27
12/24/2022 7:30:00 PM -0.16 31.712 0.187 7.13 23.83 14.29
12/24/2022 7:45:00 PM -0.15 31.73 0.184 7.12 22.92 14.3
12/24/2022 8:00:00 PM -0.15 31.73 0.184 7.14 23.33 14.29
12/24/2022 8:15:00 PM -0.15 31.73 0.183 7.13 27.39 14.27
12/24/2022 8:30:00 PM -0.15 31.73 0.183 7.13 27.05 14.29
12/24/2022 8:45:00 PM -0.15 31.73 0.185 6.98 23.6 14.29
12/24/2022 9:00:00 PM -0.15 31.73 0.183 7.14 22.75 14.29
12/24/2022 9:15:00 PM -0.15 31.73 0.183 7.13 20.95 14.28
12/24/2022 9:30:00 PM -0.15 31.73 0.185 7.13 24.06 14.29
12/24/2022 9:45:00 PM -0.15 31.73 0.185 7.13 24.05 14.29
12/24/2022 10:00:00 PM -0.15 31.73 0.184 7.13 26.33 14.29
12/24/2022 10:15:00 PM -0.15 31.73 0.185 7.14 24.63 14.29
12/24/2022 10:30:00 PM -0.15 31.73 0.186 7.12 23.32 14.29
12/24/2022 10:45:00 PM -0.15 31.73 0.185 7.12 24.05 14.28
12/24/2022 11:00:00 PM -0.15 31.73 0.185 7.13 21.82 14.28
12/24/2022 11:15:00 PM -0.15 31.73 0.186 7.12 23.96 14.3
12/24/2022 11:30:00 PM -0.15 31.73 0.187 7.13 22.07 14.29
12/24/2022 11:45:00 PM -0.15 31.73 0.187 7.11 23.73 14.28
12/25/2022 12:00:00 AM -0.15 31.73 0.187 7.12 24.3 14.29
12/25/2022 12:15:00 AM -0.15 31.73 0.188 7.12 23.86 14.28
12/25/2022 12:30:00 AM -0.15 31.73 0.188 7.13 27.39 14.29
12/25/2022 12:45:00 AM -0.15 31.73 0.189 7.13 28.75 14.27
12/25/2022 1:00:00 AM -0.15 31.73 0.19 7.12 28.35 14.29
12/25/2022 1:15:00 AM -0.15 31.73 0.191 7.12 34.89 14.27
12/25/2022 1:30:00 AM -0.15 31.73 0.19 7.14 81.26 14.26
12/25/2022 1:45:00 AM -0.14 31.748 0.193 7.14 83.84 14.24
12/25/2022 2:00:00 AM -0.15 31.73 0.194 7.14 80.01 14.22
12/25/2022 2:15:00 AM -0.14 31.748 0.196 7.14 66.75 14.21
12/25/2022 2:30:00 AM -0.15 31.73 0.197 7.15 25.71 14.2
12/25/2022 2:45:00 AM -0.14 31.748 0.197 7.15 25.06 14.23
12/25/2022 3:00:00 AM -0.14 31.748 0.198 7.15 21.11 14.2
12/25/2022 3:15:00 AM -0.15 31.73 0.199 7.26 20.05 14.22
12/25/2022 3:30:00 AM -0.14 31.748 0.2 7.25 20.95 14.18
12/25/2022 3:45:00 AM -0.14 31.748 0.202 7.23 20.64 14.2
12/25/2022 4:00:00 AM -0.14 31.748 0.204 7.22 18.7 14.19
12/25/2022 4:15:00 AM -0.14 31.748 0.205 7.23 18.98 14.2
12/25/2022 4:30:00 AM -0.14 31.748 0.206 7.23 19.45 14.17
12/25/2022 4:45:00 AM -0.14 31.748 0.207 7.23 19.6 14.14
12/25/2022 5:00:00 AM -0.14 31.748 0.208 7.26 18.04 14.22
12/25/2022 5:15:00 AM -0.14 31.748 0.21 7.24 19.54 14.18
12/25/2022 5:30:00 AM -0.14 31.748 0.211 7.25 18.47 14.19
12/25/2022 5:45:00 AM -0.14 31.748 0.212 7.27 19.33 14.19
12/25/2022 6:00:00 AM -0.14 31.748 0.213 7.23 19.37 14.2
12/25/2022 6:15:00 AM -0.15 31.73 0.214 7.09 17.16 14.2
12/25/2022 6:30:00 AM -0.15 31.73 0.214 7.1 16.6 14.23
12/25/2022 6:45:00 AM -0.15 31.73 0.215 7.11 18.31 14.24
12/25/2022 7:00:00 AM -0.15 31.73 0.217 7.11 15.69 14.23
12/25/2022 7:15:00 AM -0.15 31.73 0.217 7.15 15.72 14.24
12/25/2022 7:30:00 AM -0.15 31.73 0.219 7.15 19.16 14.25
12/25/2022 7:45:00 AM -0.15 31.73 0.218 7.15 15.29 14.22
12/25/2022 8:00:00 AM -0.15 31.73 0.219 7.11 14.31 14.23
12/25/2022 8:15:00 AM -0.15 31.73 0.219 7.12 14.96 14.25
12/25/2022 8:30:00 AM -0.15 31.73 0.22 7.08 17.96 14.26
12/25/2022 8:45:00 AM -0.14 31.748 0.22 7.08 16.38 14.24
12/25/2022 9:00:00 AM -0.15 31.73 0.221 7.14 16.73 14.27
12/25/2022 9:15:00 AM -0.15 31.73 0.223 7.08 15.5 14.28
12/25/2022 9:30:00 AM -0.14 31.748 0.224 7.1 14.72 14.26
12/25/2022 9:45:00 AM -0.14 31.748 0.224 7.13 15.83 14.27
12/25/2022 10:00:00 AM -0.14 31.748 0.227 7.14 20.71 14.27
12/25/2022 10:15:00 AM -0.14 31.748 0.228 7.13 15.4 14.28
12/25/2022 10:30:00 AM -0.14 31.748 0.229 7.12 17.42 14.27
12/25/2022 10:45:00 AM -0.14 31.748 0.233 7.14 14.35 14.32
12/25/2022 11:00:00 AM -0.14 31.748 0.233 7.14 13.32 14.31
12/25/2022 11:15:00 AM -0.13 31.766 0.236 7.15 14.86 14.26
12/25/2022 11:30:00 AM -0.12 31.784 0.239 7.14 14.29 14.29
12/25/2022 11:45:00 AM -0.11 31.802 0.243 7.14 15.73 14.29
12/25/2022 12:00:00 PM -0.1 31.82 0.249 7.17 13.21 14.25
12/25/2022 12:15:00 PM -0.08 31.856 0.253 7.16 14.04 14.28
12/25/2022 12:30:00 PM -0.1 31.82 0.256 7.13 15.12 14.3
12/25/2022 12:45:00 PM -0.11 31.802 0.257 7.11 15.73 14.29
12/25/2022 1:00:00 PM -0.09 31.838 0.257 7.11 18.5 14.29
12/25/2022 1:15:00 PM -0.06 31.892 0.257 7.12 17.83 14.32
12/25/2022 1:30:00 PM -0.01 31.982 0.257 7.11 17.28 14.32
12/25/2022 1:45:00 PM 0.01 32.018 0.257 7.12 14.71 14.31
12/25/2022 2:00:00 PM 0.04 32.072 0.258 7.13 15.9 14.32
12/25/2022 2:15:00 PM 0.06 32.108 0.258 7.15 14.38 14.32
12/25/2022 2:30:00 PM 0.08 32.144 0.258 7.16 15.72 14.33
12/25/2022 2:45:00 PM 0.07 32.126 0.259 7.18 13.17 14.33
12/25/2022 3:00:00 PM 0.05 32.09 0.259 7.18 14.05 14.33
12/25/2022 3:15:00 PM 0.04 32.072 0.26 7.21 13.77 14.33
12/25/2022 3:30:00 PM 0.03 32.054 0.26 7.22 13.23 14.32
12/25/2022 3:45:00 PM 0.01 32.018 0.261 7.23 15.75 14.32
12/25/2022 4:00:00 PM 0 32 0.261 7.24 20.15 14.34
12/25/2022 4:15:00 PM 0 32 0.261 7.25 16.82 14.35
12/25/2022 4:30:00 PM -0.01 31.982 0.261 7.25 15.84 14.33
12/25/2022 4:45:00 PM -0.03 31.946 0.262 7.25 16.05 14.37
12/25/2022 5:00:00 PM -0.03 31.946 0.262 7.25 14.67 14.35
12/25/2022 5:15:00 PM -0.03 31.946 0.262 7.27 14.2 14.35
12/25/2022 5:30:00 PM -0.02 31.964 0.262 7.27 16.31 14.35
12/25/2022 5:45:00 PM -0.02 31.964 0.262 7.27 15.88 14.35
12/25/2022 6:00:00 PM -0.02 31.964 0.262 7.27 16.62 14.35
12/25/2022 6:15:00 PM -0.03 31.946 0.263 7.28 15.16 14.35
12/25/2022 6:30:00 PM -0.04 31.928 0.263 7.27 15.76 14.36
12/25/2022 6:45:00 PM -0.05 31.91 0.263 7.27 14.14 14.36
12/25/2022 7:00:00 PM -0.06 31.892 0.263 7.29 15.52 14.37
12/25/2022 7:15:00 PM -0.07 31.874 0.264 7.26 17.73 14.35
12/25/2022 7:30:00 PM -0.08 31.856 0.264 7.23 16.33 14.35
12/25/2022 7:45:00 PM -0.09 31.838 0.263 7.28 17.23 14.36
12/25/2022 8:00:00 PM -0.1 31.82 0.264 7.31 14.64 14.34
12/25/2022 8:15:00 PM -0.11 31.802 0.264 7.31 16.01 14.37
12/25/2022 8:30:00 PM -0.12 31.784 0.264 7.31 13.88 14.38
12/25/2022 8:45:00 PM -0.13 31.766 0.264 7.31 18.04 14.35
12/25/2022 9:00:00 PM -0.14 31.748 0.264 7.31 15.26 14.36
12/25/2022 9:15:00 PM -0.15 31.73 0.264 7.31 17.13 14.38
12/25/2022 9:30:00 PM -0.16 31.712 0.265 7.31 16.07 14.37
12/25/2022 9:45:00 PM -0.16 31.712 0.265 7.32 16.57 14.38
12/25/2022 10:00:00 PM -0.17 31.694 0.265 7.32 17.51 14.38
12/25/2022 10:15:00 PM -0.17 31.694 0.266 7.32 17.28 14.39
12/25/2022 10:30:00 PM -0.16 31.712 0.266 7.32 15.89 14.37
12/25/2022 10:45:00 PM -0.16 31.712 0.266 7.33 18.07 14.39
12/25/2022 11:00:00 PM -0.16 31.712 0.266 7.33 15.37 14.38
12/25/2022 11:15:00 PM -0.16 31.712 0.267 7.34 16.84 14.37
12/25/2022 11:30:00 PM -0.16 31.712 0.267 7.32 16.54 14.37
12/25/2022 11:45:00 PM -0.16 31.712 0.267 7.33 17.47 14.39
12/26/2022 12:00:00 AM -0.16 31.712 0.268 7.33 16.67 14.38
12/26/2022 12:15:00 AM -0.17 31.694 0.268 7.33 13.79 14.37
12/26/2022 12:30:00 AM -0.17 31.694 0.269 7.32 16.89 14.39
12/26/2022 12:45:00 AM -0.17 31.694 0.269 7.31 16.72 14.36
12/26/2022 1:00:00 AM -0.17 31.694 0.27 7.33 15.22 14.37
12/26/2022 1:15:00 AM -0.17 31.694 0.27 7.41 13.52 14.36
12/26/2022 1:30:00 AM -0.17 31.694 0.27 7.4 14.11 14.36
12/26/2022 1:45:00 AM -0.17 31.694 0.27 7.39 14.91 14.36
12/26/2022 2:00:00 AM -0.16 31.712 0.271 7.38 13.95 14.37
12/26/2022 2:15:00 AM -0.16 31.712 0.271 7.39 14.72 14.36
12/26/2022 2:30:00 AM -0.16 31.712 0.271 7.4 14.3 14.34
12/26/2022 2:45:00 AM -0.16 31.712 0.271 7.4 13.62 14.35
12/26/2022 3:00:00 AM -0.16 31.712 0.271 7.37 12.09 14.34
12/26/2022 3:15:00 AM -0.16 31.712 0.271 7.26 12.21 14.37
12/26/2022 3:30:00 AM -0.16 31.712 0.271 7.28 14.24 14.34
12/26/2022 3:45:00 AM -0.16 31.712 0.271 7.28 11.93 14.35
12/26/2022 4:00:00 AM -0.16 31.712 0.271 7.29 12.68 14.35
12/26/2022 4:15:00 AM -0.16 31.712 0.272 7.28 12.19 14.35
12/26/2022 4:30:00 AM -0.16 31.712 0.272 7.29 11.45 14.36
12/26/2022 4:45:00 AM -0.16 31.712 0.273 7.28 10.66 14.34
12/26/2022 5:00:00 AM -0.16 31.712 0.273 7.29 13.66 14.33
12/26/2022 5:15:00 AM -0.16 31.712 0.272 7.29 10.88 14.33
12/26/2022 5:30:00 AM -0.16 31.712 0.272 7.29 12.54 14.29
12/26/2022 5:45:00 AM -0.16 31.712 0.271 7.29 11.53 14.27
12/26/2022 6:00:00 AM -0.15 31.73 0.271 7.3 10.85 14.25
12/26/2022 6:15:00 AM -0.16 31.712 0.271 7.3 12.54 14.25
12/26/2022 6:30:00 AM -0.15 31.73 0.271 7.31 11.6 14.24
12/26/2022 6:45:00 AM -0.15 31.73 0.271 7.3 11.83 14.23
12/26/2022 7:00:00 AM -0.15 31.73 0.272 7.29 11.2 14.22
12/26/2022 7:15:00 AM -0.14 31.748 0.272 7.29 10.82 14.14
12/26/2022 7:30:00 AM -0.15 31.73 0.273 7.3 14.18 14.13
12/26/2022 7:45:00 AM -0.14 31.748 0.274 7.3 13.36 14.1
12/26/2022 8:00:00 AM -0.14 31.748 0.273 7.3 14.78 14.09
12/26/2022 8:15:00 AM -0.13 31.766 0.275 7.3 12.52 14.01
12/26/2022 8:30:00 AM -0.14 31.748 0.275 7.3 15.47 14.09
12/26/2022 8:45:00 AM -0.14 31.748 0.275 7.29 11.51 14.14
12/26/2022 9:00:00 AM -0.14 31.748 0.275 7.31 13.63 14.14
12/26/2022 9:15:00 AM -0.14 31.748 0.276 7.3 12.59 14.14
12/26/2022 9:30:00 AM -0.13 31.766 0.276 7.29 13.59 14.19
12/26/2022 9:45:00 AM -0.13 31.766 0.276 7.3 12.74 14.19
12/26/2022 10:00:00 AM -0.13 31.766 0.276 7.3 15.56 14.12
12/26/2022 10:15:00 AM -0.13 31.766 0.277 7.3 14.26 13.9
12/26/2022 10:30:00 AM -0.12 31.784 0.277 7.31 14.99 13.38
12/26/2022 10:45:00 AM -0.11 31.802 0.277 7.32 14.8 12.94
12/26/2022 11:00:00 AM -0.1 31.82 0.277 7.33 15.45 12.21
12/26/2022 11:15:00 AM -0.08 31.856 0.277 7.32 15.89 12.13
12/26/2022 11:30:00 AM -0.04 31.928 0.277 7.32 17.64 12.73
12/26/2022 11:45:00 AM 0.02 32.036 0.277 7.32 17.43 12.82
12/26/2022 12:00:00 PM 0.09 32.162 0.277 7.33 19.6 12.83
12/26/2022 12:15:00 PM 0.15 32.27 0.277 7.34 18.07 13.94
12/26/2022 12:30:00 PM 0.21 32.378 0.277 7.34 25.01 13.97
12/26/2022 12:45:00 PM 0.26 32.468 0.278 7.35 39.25 14.17
12/26/2022 1:00:00 PM 0.29 32.522 0.278 7.37 48.14 14.31
12/26/2022 1:15:00 PM 0.32 32.576 0.278 7.37 56.84 14.19
12/26/2022 1:30:00 PM 0.34 32.612 0.278 7.38 70.54 13.95
12/26/2022 1:45:00 PM 0.35 32.63 0.278 7.37 14.61 14
12/26/2022 2:00:00 PM 0.32 32.576 0.278 7.39 11.96 14.11
12/26/2022 2:15:00 PM 0.29 32.522 0.278 7.4 13.36 14.09
12/26/2022 2:30:00 PM 0.27 32.486 0.278 7.4 12.15 14.08
12/26/2022 2:45:00 PM 0.26 32.468 0.279 7.4 18.41 14.07
12/26/2022 3:00:00 PM 0.25 32.45 0.279 7.4 19.52 14.06
12/26/2022 3:15:00 PM 0.25 32.45 0.279 7.39 18.78 14.02
12/26/2022 3:30:00 PM 0.25 32.45 0.279 7.47 18.44 13.99
12/26/2022 3:45:00 PM 0.25 32.45 0.279 7.47 13.51 13.9
12/26/2022 4:00:00 PM 0.26 32.468 0.28 7.47 14.3 13.88
12/26/2022 4:15:00 PM 0.26 32.468 0.28 7.47 13.83 13.94
12/26/2022 4:30:00 PM 0.28 32.504 0.28 7.47 15.6 13.97
12/26/2022 4:45:00 PM 0.29 32.522 0.28 7.46 14.88 14.08
12/26/2022 5:00:00 PM 0.31 32.558 0.281 7.39 15.37 14.07
12/26/2022 5:15:00 PM 0.32 32.576 0.281 7.37 13.7 13.9
12/26/2022 5:30:00 PM 0.33 32.594 0.281 7.5 14.24 13.89
12/26/2022 5:45:00 PM 0.33 32.594 0.281 7.5 13.86 13.91
12/26/2022 6:00:00 PM 0.33 32.594 0.282 7.47 14.04 14
12/26/2022 6:15:00 PM 0.33 32.594 0.282 7.47 14.84 14
12/26/2022 6:30:00 PM 0.33 32.594 0.282 7.47 14.31 14.03
12/26/2022 6:45:00 PM 0.32 32.576 0.282 7.47 13.74 14.02
12/26/2022 7:00:00 PM 0.31 32.558 0.283 7.47 15.74 14.08
12/26/2022 7:15:00 PM 0.3 32.54 0.283 7.34 14.49 14
12/26/2022 7:30:00 PM 0.3 32.54 0.283 7.35 14.19 14.02
12/26/2022 7:45:00 PM 0.3 32.54 0.283 7.34 15.59 14.05
12/26/2022 8:00:00 PM 0.31 32.558 0.283 7.37 15.26 14.1
12/26/2022 8:15:00 PM 0.32 32.576 0.284 7.39 14.04 14.02
12/26/2022 8:30:00 PM 0.35 32.63 0.284 7.38 13.31 13.94
12/26/2022 8:45:00 PM 0.37 32.666 0.285 7.39 13.84 14.01
12/26/2022 9:00:00 PM 0.38 32.684 0.285 7.39 14.78 13.94
12/26/2022 9:15:00 PM 0.39 32.702 0.285 7.39 13.82 13.94
12/26/2022 9:30:00 PM 0.39 32.702 0.286 7.39 15.31 13.96
12/26/2022 9:45:00 PM 0.39 32.702 0.286 7.39 13.61 14
12/26/2022 10:00:00 PM 0.4 32.72 0.286 7.39 16.12 14.02
12/26/2022 10:15:00 PM 0.4 32.72 0.287 7.39 14.74 14.01
12/26/2022 10:30:00 PM 0.4 32.72 0.287 7.39 14.62 13.99
12/26/2022 10:45:00 PM 0.4 32.72 0.287 7.4 14.19 13.98
12/26/2022 11:00:00 PM 0.41 32.738 0.288 7.4 13.26 13.97
12/26/2022 11:15:00 PM 0.42 32.756 0.288 7.4 14.01 13.9
12/26/2022 11:30:00 PM 0.43 32.774 0.288 7.39 15.01 13.95
12/26/2022 11:45:00 PM 0.44 32.792 0.288 7.39 14.29 13.96
12/27/2022 12:00:00 AM 0.45 32.81 0.288 7.39 14.56 13.81
12/27/2022 12:15:00 AM 0.46 32.828 0.288 7.39 14.51 13.78
12/27/2022 12:30:00 AM 0.47 32.846 0.288 7.39 14.08 13.75
12/27/2022 12:45:00 AM 0.48 32.864 0.289 7.39 14.35 13.78
12/27/2022 1:00:00 AM 0.49 32.882 0.289 7.39 13.42 13.84
12/27/2022 1:15:00 AM 0.5 32.9 0.289 7.44 15.63 13.94
12/27/2022 1:30:00 AM 0.5 32.9 0.289 7.42 14.84 13.95
12/27/2022 1:45:00 AM 0.51 32.918 0.289 7.41 14.84 13.96
12/27/2022 2:00:00 AM 0.52 32.936 0.289 7.41 13.89 13.91
12/27/2022 2:15:00 AM 0.53 32.954 0.29 7.41 14.25 13.82
12/27/2022 2:30:00 AM 0.53 32.954 0.29 7.41 16.31 13.79
12/27/2022 2:45:00 AM 0.54 32.972 0.29 7.43 15.08 13.83
12/27/2022 3:00:00 AM 0.54 32.972 0.29 7.42 13.5 13.89
12/27/2022 3:15:00 AM 0.54 32.972 0.29 7.39 13.68 13.86
12/27/2022 3:30:00 AM 0.55 32.99 0.29 7.49 13.55 13.85
12/27/2022 3:45:00 AM 0.54 32.972 0.29 7.46 17.7 13.77
12/27/2022 4:00:00 AM 0.55 32.99 0.29 7.48 15.97 13.76
12/27/2022 4:15:00 AM 0.55 32.99 0.29 7.48 13.51 13.73
12/27/2022 4:30:00 AM 0.55 32.99 0.29 7.46 15.91 13.68
12/27/2022 4:45:00 AM 0.55 32.99 0.29 7.33 13.36 13.72
12/27/2022 5:00:00 AM 0.54 32.972 0.29 7.35 14.25 13.84
12/27/2022 5:15:00 AM 0.54 32.972 0.29 7.49 14.64 13.81
12/27/2022 5:30:00 AM 0.54 32.972 0.29 7.49 14.69 13.78
12/27/2022 5:45:00 AM 0.53 32.954 0.29 7.46 13.72 13.84
12/27/2022 6:00:00 AM 0.53 32.954 0.29 7.45 15.88 13.86
12/27/2022 6:15:00 AM 0.53 32.954 0.29 7.46 14.56 13.86
12/27/2022 6:30:00 AM 0.53 32.954 0.29 7.45 12.69 13.75
12/27/2022 6:45:00 AM 0.53 32.954 0.29 7.32 14.11 13.78
12/27/2022 7:00:00 AM 0.54 32.972 0.29 7.33 15.26 13.8
12/27/2022 7:15:00 AM 0.54 32.972 0.29 7.39 14.18 13.75
12/27/2022 7:30:00 AM 0.54 32.972 0.29 7.4 15.97 13.85
12/27/2022 7:45:00 AM 0.55 32.99 0.289 7.48 14.44 13.85
12/27/2022 8:00:00 AM 0.55 32.99 0.29 7.49 14.9 13.85
12/27/2022 8:15:00 AM 0.56 33.008 0.29 7.48 13.37 13.8
12/27/2022 8:30:00 AM 0.57 33.026 0.289 7.48 13.37 13.7
12/27/2022 8:45:00 AM 0.58 33.044 0.29 7.47 11.56 13.8
12/27/2022 9:00:00 AM 0.6 33.08 0.289 7.45 12.31 13.76
12/27/2022 9:15:00 AM 0.62 33.116 0.289 7.45 11.65 13.78
12/27/2022 9:30:00 AM 0.64 33.152 0.29 7.46 15.24 13.82
12/27/2022 9:45:00 AM 0.66 33.188 0.29 7.46 12.63 13.87
12/27/2022 10:00:00 AM 0.69 33.242 0.29 7.48 12.79 13.83
12/27/2022 10:15:00 AM 0.71 33.278 0.29 7.5 12.3 13.89
12/27/2022 10:30:00 AM 0.73 33.314 0.29 7.48 12.67 13.89
12/27/2022 10:45:00 AM 0.76 33.368 0.29 7.49 12.07 13.91
12/27/2022 11:00:00 AM 0.78 33.404 0.29 7.47 11.39 13.93
12/27/2022 11:15:00 AM 0.81 33.458 0.29 7.47 11.76 13.87
12/27/2022 11:30:00 AM 0.84 33.512 0.29 7.48 11.28 13.86
12/27/2022 11:45:00 AM 0.88 33.584 0.291 7.47 13.53 13.82
12/27/2022 12:00:00 PM 0.92 33.656 0.291 7.36 12.34 13.86
12/27/2022 12:15:00 PM 0.95 33.71 0.291 7.37 12.25 13.85
12/27/2022 12:30:00 PM 0.98 33.764 0.291 7.41 12.22 13.8
12/27/2022 12:45:00 PM 1.01 33.818 0.292 7.43 13.22 13.75
12/27/2022 1:00:00 PM 1.03 33.854 0.292 7.44 13.47 13.84
12/27/2022 1:15:00 PM 1.06 33.908 0.292 7.44 12.81 13.85
12/27/2022 1:30:00 PM 1.09 33.962 0.292 7.44 11.79 13.86
12/27/2022 1:45:00 PM 1.12 34.016 0.292 7.44 14.3 13.75
12/27/2022 2:00:00 PM 1.15 34.07 0.292 7.45 11.4 13.79
12/27/2022 2:15:00 PM 1.17 34.106 0.293 7.54 11.49 13.82
12/27/2022 2:30:00 PM 1.21 34.178 0.293 7.54 12.3 13.85
12/27/2022 2:45:00 PM 1.22 34.196 0.293 7.53 12.14 13.86
12/27/2022 3:00:00 PM 1.23 34.214 0.293 7.55 12.28 13.85
12/27/2022 3:15:00 PM 1.25 34.25 0.294 7.54 11.23 13.82
12/27/2022 3:30:00 PM 1.26 34.268 0.294 7.54 11.58 13.86
12/27/2022 3:45:00 PM 1.28 34.304 0.294 7.46 10.51 13.85
12/27/2022 4:00:00 PM 1.3 34.34 0.294 7.55 11.98 13.85
12/27/2022 4:15:00 PM 1.32 34.376 0.294 7.52 10.53 13.84
12/27/2022 4:30:00 PM 1.33 34.394 0.295 7.56 10.66 13.83
12/27/2022 4:45:00 PM 1.35 34.43 0.295 7.55 11.17 13.79
12/27/2022 5:00:00 PM 1.37 34.466 0.295 7.55 10.78 13.76
12/27/2022 5:15:00 PM 1.39 34.502 0.295 7.51 13.33 13.72
12/27/2022 5:30:00 PM 1.41 34.538 0.295 7.42 11.63 13.73
12/27/2022 5:45:00 PM 1.43 34.574 0.295 7.43 12.29 13.74
12/27/2022 6:00:00 PM 1.45 34.61 0.296 7.49 13.01 13.71
12/27/2022 6:15:00 PM 1.48 34.664 0.296 7.55 12.52 13.69
12/27/2022 6:30:00 PM 1.49 34.682 0.296 7.55 12.36 13.68
12/27/2022 6:45:00 PM 1.52 34.736 0.296 7.57 12.54 13.69
12/27/2022 7:00:00 PM 1.54 34.772 0.296 7.57 11.49 13.68
12/27/2022 7:15:00 PM 1.56 34.808 0.296 7.55 13.05 13.68
12/27/2022 7:30:00 PM 1.58 34.844 0.296 7.55 13.65 13.7
12/27/2022 7:45:00 PM 1.59 34.862 0.297 7.57 10.85 13.69
12/27/2022 8:00:00 PM 1.61 34.898 0.297 7.46 12.73 13.72
12/27/2022 8:15:00 PM 1.62 34.916 0.297 7.48 11.42 13.67
12/27/2022 8:30:00 PM 1.63 34.934 0.297 7.59 11.45 13.63
12/27/2022 8:45:00 PM 1.64 34.952 0.297 7.59 11.56 13.62
12/27/2022 9:00:00 PM 1.65 34.97 0.297 7.58 12.79 13.64
12/27/2022 9:15:00 PM 1.66 34.988 0.297 7.58 10.94 13.63
12/27/2022 9:30:00 PM 1.68 35.024 0.297 7.57 12.03 13.6
12/27/2022 9:45:00 PM 1.69 35.042 0.298 7.57 12.27 13.61
12/27/2022 10:00:00 PM 1.71 35.078 0.298 7.47 11.6 13.63
12/27/2022 10:15:00 PM 1.72 35.096 0.298 7.44 11.41 13.59
12/27/2022 10:30:00 PM 1.73 35.114 0.298 7.47 12.51 13.57
12/27/2022 10:45:00 PM 1.74 35.132 0.298 7.51 12.34 13.57
12/27/2022 11:00:00 PM 1.75 35.15 0.299 7.6 12.62 13.59
12/27/2022 11:15:00 PM 1.76 35.168 0.299 7.59 12.5 13.57
12/27/2022 11:30:00 PM 1.77 35.186 0.299 7.59 11.62 13.56
12/27/2022 11:45:00 PM 1.78 35.204 0.299 7.58 12.97 13.52
12/28/2022 12:00:00 AM 1.78 35.204 0.299 7.58 10.99 13.49
12/28/2022 12:15:00 AM 1.79 35.222 0.299 7.59 11.52 13.51
12/28/2022 12:30:00 AM 1.8 35.24 0.3 7.59 10.97 13.52
12/28/2022 12:45:00 AM 1.8 35.24 0.3 7.44 11.08 13.46
12/28/2022 1:00:00 AM 1.82 35.276 0.3 7.43 11.31 13.51
12/28/2022 1:15:00 AM 1.82 35.276 0.3 7.44 11.7 13.47
12/28/2022 1:30:00 AM 1.83 35.294 0.3 7.44 11.6 13.46
12/28/2022 1:45:00 AM 1.83 35.294 0.3 7.47 11.4 13.44
12/28/2022 2:00:00 AM 1.84 35.312 0.3 7.46 11.04 13.44
12/28/2022 2:15:00 AM 1.84 35.312 0.3 7.47 11.11 13.43
12/28/2022 2:30:00 AM 1.83 35.294 0.3 7.48 12.32 13.42
12/28/2022 2:45:00 AM 1.82 35.276 0.3 7.49 11.96 13.42
12/28/2022 3:00:00 AM 1.82 35.276 0.3 7.49 11.24 13.41
12/28/2022 3:15:00 AM 1.8 35.24 0.301 7.58 12.89 13.39
12/28/2022 3:30:00 AM 1.79 35.222 0.3 7.57 11.66 13.36
12/28/2022 3:45:00 AM 1.79 35.222 0.3 7.57 13.63 13.36
12/28/2022 4:00:00 AM 1.79 35.222 0.3 7.57 12.41 13.38
12/28/2022 4:15:00 AM 1.78 35.204 0.3 7.58 12.61 13.41
12/28/2022 4:30:00 AM 1.78 35.204 0.3 7.57 11.32 13.38
12/28/2022 4:45:00 AM 1.77 35.186 0.3 7.57 13.73 13.4
12/28/2022 5:00:00 AM 1.77 35.186 0.3 7.57 12.03 13.41
12/28/2022 5:15:00 AM 1.76 35.168 0.3 7.57 17.75 13.35
12/28/2022 5:30:00 AM 1.76 35.168 0.3 7.57 12.45 13.39
12/28/2022 5:45:00 AM 1.76 35.168 0.3 7.49 11.94 13.36
12/28/2022 6:00:00 AM 1.75 35.15 0.3 7.43 11.43 13.35
12/28/2022 6:15:00 AM 1.75 35.15 0.3 7.42 13.14 13.35
12/28/2022 6:30:00 AM 1.74 35.132 0.3 7.42 13.89 13.35
12/28/2022 6:45:00 AM 1.74 35.132 0.3 7.45 11.53 13.3
12/28/2022 7:00:00 AM 1.74 35.132 0.301 7.46 12.54 13.38
12/28/2022 7:15:00 AM 1.73 35.114 0.3 7.48 14.41 13.32
12/28/2022 7:30:00 AM 1.72 35.096 0.3 7.5 17.62 13.38
12/28/2022 7:45:00 AM 1.72 35.096 0.3 7.51 13.9 13.37
12/28/2022 8:00:00 AM 1.71 35.078 0.301 7.49 11.23 13.42
12/28/2022 8:15:00 AM 1.71 35.078 0.301 7.49 12.76 13.41
12/28/2022 8:30:00 AM 1.71 35.078 0.301 7.5 12.42 13.39
12/28/2022 8:45:00 AM 1.71 35.078 0.301 7.57 12.45 13.42
12/28/2022 9:00:00 AM 1.73 35.114 0.301 7.57 11.68 13.41
12/28/2022 9:15:00 AM 1.74 35.132 0.301 7.57 11.02 13.42
12/28/2022 9:30:00 AM 1.76 35.168 0.301 7.57 11.52 13.45
12/28/2022 9:45:00 AM 1.79 35.222 0.302 7.58 13.62 13.47
12/28/2022 10:00:00 AM 1.81 35.258 0.302 7.45 12.18 13.48
12/28/2022 10:15:00 AM 1.85 35.33 0.302 7.58 11.2 13.46
12/28/2022 10:30:00 AM 1.88 35.384 0.302 7.59 12 13.48
12/28/2022 10:45:00 AM 1.92 35.456 0.302 7.59 11.29 13.5
12/28/2022 11:00:00 AM 1.98 35.564 0.303 7.59 11.86 13.5
12/28/2022 11:15:00 AM 2.03 35.654 0.302 7.6 11.02 13.48
12/28/2022 11:30:00 AM 2.09 35.762 0.303 7.58 10.89 13.49
12/28/2022 11:45:00 AM 2.16 35.888 0.303 7.59 11.95 13.48
12/28/2022 12:00:00 PM 2.24 36.032 0.303 7.59 11.71 13.47
12/28/2022 12:15:00 PM 2.32 36.176 0.303 7.58 11.19 13.41
12/28/2022 12:30:00 PM 2.41 36.338 0.303 7.61 13.16 13.42
12/28/2022 12:45:00 PM 2.49 36.482 0.303 7.62 10.88 13.37
12/28/2022 1:00:00 PM 2.55 36.59 0.303 7.59 13.19 13.37
12/28/2022 1:15:00 PM 2.61 36.698 0.303 7.6 10.73 13.41
12/28/2022 1:30:00 PM 2.67 36.806 0.303 7.61 14.36 13.38
12/28/2022 1:45:00 PM 2.72 36.896 0.303 7.54 13.14 13.35
12/28/2022 2:00:00 PM 2.75 36.95 0.303 7.63 11.82 13.31
12/28/2022 2:15:00 PM 2.79 37.022 0.303 7.61 11.03 13.3
12/28/2022 2:30:00 PM 2.78 37.004 0.304 7.63 13.94 13.3
12/28/2022 2:45:00 PM 2.77 36.986 0.304 7.64 13.41 13.27
12/28/2022 3:00:00 PM 2.79 37.022 0.303 7.63 11.91 13.31
12/28/2022 3:15:00 PM 2.76 36.968 0.304 7.64 11.84 13.31
12/28/2022 3:30:00 PM 2.72 36.896 0.304 7.63 13.21 13.31
12/28/2022 3:45:00 PM 2.7 36.86 0.304 7.58 13.13 13.3
12/28/2022 4:00:00 PM 2.7 36.86 0.304 7.64 13.46 13.25
12/28/2022 4:15:00 PM 2.68 36.824 0.304 7.64 10.63 13.26
12/28/2022 4:30:00 PM 2.68 36.824 0.304 7.65 10.89 13.24
12/28/2022 4:45:00 PM 2.67 36.806 0.304 7.64 11.86 13.22
12/28/2022 5:00:00 PM 2.66 36.788 0.304 7.55 11.01 13.28
12/28/2022 5:15:00 PM 2.66 36.788 0.304 7.53 10.78 13.27
12/28/2022 5:30:00 PM 2.66 36.788 0.305 7.55 11.37 13.2
12/28/2022 5:45:00 PM 2.67 36.806 0.305 7.55 11.49 13.14
12/28/2022 6:00:00 PM 2.67 36.806 0.305 7.56 11.59 13.16
12/28/2022 6:15:00 PM 2.68 36.824 0.305 7.55 14.61 13.17
12/28/2022 6:30:00 PM 2.69 36.842 0.305 7.55 13.69 13.11
12/28/2022 6:45:00 PM 2.7 36.86 0.305 7.55 12.04 13.15
12/28/2022 7:00:00 PM 2.72 36.896 0.305 7.55 12.08 13.17
12/28/2022 7:15:00 PM 2.74 36.932 0.306 7.56 12.78 13.16
12/28/2022 7:30:00 PM 2.75 36.95 0.305 7.54 11.25 13.16
12/28/2022 7:45:00 PM 2.76 36.968 0.306 7.56 12.39 13.19
12/28/2022 8:00:00 PM 2.77 36.986 0.306 7.54 13.84 13.18
12/28/2022 8:15:00 PM 2.77 36.986 0.306 7.5 10.97 13.18
12/28/2022 8:30:00 PM 2.78 37.004 0.306 7.47 12.26 13.21
12/28/2022 8:45:00 PM 2.78 37.004 0.306 7.48 13.39 13.2
12/28/2022 9:00:00 PM 2.78 37.004 0.306 7.48 14.72 13.21
12/28/2022 9:15:00 PM 2.78 37.004 0.306 7.5 15.79 13.22
12/28/2022 9:30:00 PM 2.77 36.986 0.306 7.5 11.45 13.21
12/28/2022 9:45:00 PM 2.77 36.986 0.306 7.51 14.53 13.2
12/28/2022 10:00:00 PM 2.76 36.968 0.306 7.51 14.51 13.2
12/28/2022 10:15:00 PM 2.76 36.968 0.307 7.52 15.96 13.2
12/28/2022 10:30:00 PM 2.75 36.95 0.307 7.54 14.52 13.19
12/28/2022 10:45:00 PM 2.73 36.914 0.307 7.56 14.43 13.2
12/28/2022 11:00:00 PM 2.73 36.914 0.307 7.58 15.68 13.16
12/28/2022 11:15:00 PM 2.71 36.878 0.307 7.57 12.17 13.18
12/28/2022 11:30:00 PM 2.7 36.86 0.307 7.58 12.14 13.17
12/28/2022 11:45:00 PM 2.69 36.842 0.307 7.58 12.63 13.18
12/29/2022 12:00:00 AM 2.68 36.824 0.307 7.57 14.57 13.16
12/29/2022 12:15:00 AM 2.67 36.806 0.307 7.62 14.41 13.15
12/29/2022 12:30:00 AM 2.65 36.77 0.277 7.61 11.64 13.15
12/29/2022 12:45:00 AM 2.64 36.752 0.305 7.61 12.95 13.14
12/29/2022 1:00:00 AM 2.62 36.716 0.308 7.61 12.57 13.15
12/29/2022 1:15:00 AM 2.6 36.68 0.308 7.61 12.41 13.16
12/29/2022 1:30:00 AM 2.59 36.662 0.308 7.61 17.45 13.14
12/29/2022 1:45:00 AM 2.57 36.626 0.308 7.59 18.56 13.13
12/29/2022 2:00:00 AM 2.55 36.59 0.308 7.57 15.44 13.14
12/29/2022 2:15:00 AM 2.53 36.554 0.308 7.58 15.71 13.14
12/29/2022 2:30:00 AM 2.52 36.536 0.3 7.59 13.6 13.13
12/29/2022 2:45:00 AM 2.5 36.5 0.303 7.58 13.98 13.13
12/29/2022 3:00:00 AM 2.48 36.464 0.305 7.57 18.16 13.15
12/29/2022 3:15:00 AM 2.47 36.446 0.305 7.58 11.39 13.13
12/29/2022 3:30:00 AM 2.45 36.41 0.304 7.56 14.5 13.12
12/29/2022 3:45:00 AM 2.43 36.374 0.309 7.59 12.58 13.13
12/29/2022 4:00:00 AM 2.41 36.338 0.31 7.57 11.48 13.12
12/29/2022 4:15:00 AM 2.39 36.302 0.309 7.59 10.39 13.12
12/29/2022 4:30:00 AM 2.38 36.284 0.31 7.6 14.1 13.12
12/29/2022 4:45:00 AM 2.36 36.248 0.31 7.5 15.46 13.14
12/29/2022 5:00:00 AM 2.33 36.194 0.31 7.6 14.37 13.14
12/29/2022 5:15:00 AM 2.31 36.158 0.31 7.6 14.76 13.15
12/29/2022 5:30:00 AM 2.29 36.122 0.31 7.6 13.52 13.14
12/29/2022 5:45:00 AM 2.27 36.086 0.31 7.58 14.34 13.15
12/29/2022 6:00:00 AM 2.24 36.032 0.31 7.57 11.24 13.17
12/29/2022 6:15:00 AM 2.22 35.996 0.31 7.6 17.55 13.15
12/29/2022 6:30:00 AM 2.2 35.96 0.31 7.59 15.48 13.18
12/29/2022 6:45:00 AM 2.17 35.906 0.31 7.59 13.39 13.18
12/29/2022 7:00:00 AM 2.15 35.87 0.31 7.62 13.43 13.19
12/29/2022 7:15:00 AM 2.12 35.816 0.31 7.6 10.9 13.22
12/29/2022 7:30:00 AM 2.09 35.762 0.31 7.6 18.47 13.22
12/29/2022 7:45:00 AM 2.08 35.744 0.31 7.58 15.21 13.23
12/29/2022 8:00:00 AM 2.06 35.708 0.31 7.58 13.29 13.25
12/29/2022 8:15:00 AM 2.04 35.672 0.311 7.58 15.18 13.26
12/29/2022 8:30:00 AM 2.02 35.636 0.311 7.5 9.15 13.26
12/29/2022 8:45:00 AM 2.02 35.636 0.311 7.5 11.01 13.29
12/29/2022 9:00:00 AM 2.01 35.618 0.311 7.5 12.52 13.32
12/29/2022 9:15:00 AM 2.02 35.636 0.311 7.49 15.24 13.33
12/29/2022 9:30:00 AM 2.03 35.654 0.311 7.49 10.55 13.36
12/29/2022 9:45:00 AM 2.04 35.672 0.311 7.5 10.17 13.36
12/29/2022 10:00:00 AM 2.05 35.69 0.312 7.49 10.86 13.39
12/29/2022 10:15:00 AM 2.07 35.726 0.312 7.5 8.73 13.39
12/29/2022 10:30:00 AM 2.1 35.78 0.312 7.49 12.74 13.41
12/29/2022 10:45:00 AM 2.14 35.852 0.312 7.5 8.46 13.39
12/29/2022 11:00:00 AM 2.19 35.942 0.312 7.52 11.14 13.41
12/29/2022 11:15:00 AM 2.25 36.05 0.307 7.51 8.5 13.41
12/29/2022 11:30:00 AM 2.33 36.194 0.306 7.52 11.98 13.43
12/29/2022 11:45:00 AM 2.4 36.32 0.312 7.52 12.01 13.44
12/29/2022 12:00:00 PM 2.49 36.482 0.313 7.52 9.16 13.42
12/29/2022 12:15:00 PM 2.58 36.644 0.313 7.53 11.88 13.45
12/29/2022 12:30:00 PM 2.67 36.806 0.313 7.54 9 13.43
12/29/2022 12:45:00 PM 2.74 36.932 0.313 7.55 8.67 13.42
12/29/2022 1:00:00 PM 2.82 37.076 0.313 7.55 12.71 13.4
12/29/2022 1:15:00 PM 2.88 37.184 0.314 7.55 8.73 13.39
12/29/2022 1:30:00 PM 2.93 37.274 0.314 7.56 9.14 13.41
12/29/2022 1:45:00 PM 2.98 37.364 0.314 7.57 8.82 13.39
12/29/2022 2:00:00 PM 3.02 37.436 0.314 7.57 14.34 13.4
12/29/2022 2:15:00 PM 3.03 37.454 0.314 7.58 14.24 13.38
12/29/2022 2:30:00 PM 3.04 37.472 0.314 7.58 9.72 13.37
12/29/2022 2:45:00 PM 3.04 37.472 0.315 7.59 14.22 13.35
12/29/2022 3:00:00 PM 3.01 37.418 0.315 7.58 9.58 13.37
12/29/2022 3:15:00 PM 2.97 37.346 0.315 7.58 8.51 13.35
12/29/2022 3:30:00 PM 2.93 37.274 0.315 7.59 11.09 13.32
12/29/2022 3:45:00 PM 2.89 37.202 0.316 7.6 9.98 13.33
12/29/2022 4:00:00 PM 2.85 37.13 0.316 7.62 10.55 13.3
12/29/2022 4:15:00 PM 2.82 37.076 0.316 7.62 10.45 13.3
12/29/2022 4:30:00 PM 2.8 37.04 0.316 7.61 12.18 13.28
12/29/2022 4:45:00 PM 2.78 37.004 0.316 7.62 8.52 13.27
12/29/2022 5:00:00 PM 2.77 36.986 0.316 7.62 9.36 13.28
12/29/2022 5:15:00 PM 2.76 36.968 0.317 7.63 15.61 13.24
12/29/2022 5:30:00 PM 2.76 36.968 0.317 7.63 15.25 13.23
12/29/2022 5:45:00 PM 2.76 36.968 0.317 7.63 10.97 13.24
12/29/2022 6:00:00 PM 2.77 36.986 0.317 7.63 10.69 13.22
12/29/2022 6:15:00 PM 2.78 37.004 0.318 7.62 20.7 13.2
12/29/2022 6:30:00 PM 2.79 37.022 0.317 7.63 11.49 13.2
12/29/2022 6:45:00 PM 2.81 37.058 0.318 7.66 11.65 13.21
12/29/2022 7:00:00 PM 2.82 37.076 0.318 7.66 11.08 13.22
12/29/2022 7:15:00 PM 2.84 37.112 0.318 7.67 9.29 13.21
12/29/2022 7:30:00 PM 2.85 37.13 0.318 7.67 8.85 13.22
12/29/2022 7:45:00 PM 2.86 37.148 0.318 7.68 9.02 13.23
12/29/2022 8:00:00 PM 2.88 37.184 0.318 7.68 9.51 13.23
12/29/2022 8:15:00 PM 2.88 37.184 0.318 7.68 10.57 13.21
12/29/2022 8:30:00 PM 2.91 37.238 0.317 7.68 9.66 13.21
12/29/2022 8:45:00 PM 2.91 37.238 0.319 7.67 8.98 13.21
12/29/2022 9:00:00 PM 2.95 37.31 0.317 7.67 9.05 13.22
12/29/2022 9:15:00 PM 2.97 37.346 0.319 7.69 8.02 13.22
12/29/2022 9:30:00 PM 2.98 37.364 0.32 7.68 8.76 13.21
12/29/2022 9:45:00 PM 3 37.4 0.319 7.69 9.47 13.22
12/29/2022 10:00:00 PM 3.01 37.418 0.32 7.68 9.32 13.22
12/29/2022 10:15:00 PM 3.01 37.418 0.32 7.66 15.8 13.21
12/29/2022 10:30:00 PM 3.02 37.436 0.32 7.69 8.86 13.22
12/29/2022 10:45:00 PM 3.02 37.436 0.321 7.68 10.89 13.2
12/29/2022 11:00:00 PM 3.03 37.454 0.321 7.69 11.63 13.2
12/29/2022 11:15:00 PM 3.03 37.454 0.321 7.67 12.08 13.2
12/29/2022 11:30:00 PM 3.04 37.472 0.321 7.68 8.71 13.19
12/29/2022 11:45:00 PM 3.04 37.472 0.321 7.68 8.78 13.17
12/30/2022 12:00:00 AM 3.04 37.472 0.322 7.67 13.65 13.17
12/30/2022 12:15:00 AM 3.04 37.472 0.322 7.59 8.97 13.17
12/30/2022 12:30:00 AM 3.03 37.454 0.322 7.57 8.82 13.16
12/30/2022 12:45:00 AM 3.02 37.436 0.323 7.63 11.22 13.16
12/30/2022 1:00:00 AM 3.01 37.418 0.323 7.64 10.01 13.16
12/30/2022 1:15:00 AM 3 37.4 0.323 7.64 16.08 13.16
12/30/2022 1:30:00 AM 3 37.4 0.323 7.64 11.83 13.15
12/30/2022 1:45:00 AM 3 37.4 0.324 7.65 8.44 13.13
12/30/2022 2:00:00 AM 3 37.4 0.324 7.66 9.43 13.14
12/30/2022 2:15:00 AM 3 37.4 0.324 7.65 11.03 13.13
12/30/2022 2:30:00 AM 2.99 37.382 0.324 7.65 9.11 13.1
12/30/2022 2:45:00 AM 2.98 37.364 0.324 7.65 7.91 13.13
12/30/2022 3:00:00 AM 2.97 37.346 0.325 7.65 7.75 13.12
12/30/2022 3:15:00 AM 2.97 37.346 0.325 7.63 7.69 13.07
12/30/2022 3:30:00 AM 2.97 37.346 0.325 7.63 7.57 13.09
12/30/2022 3:45:00 AM 2.97 37.346 0.325 7.63 7.43 13.1
12/30/2022 4:00:00 AM 2.97 37.346 0.325 7.64 8.14 13.09
12/30/2022 4:15:00 AM 2.98 37.364 0.325 7.65 7.64 13.09
12/30/2022 4:30:00 AM 2.99 37.382 0.325 7.61 8.71 13.07
12/30/2022 4:45:00 AM 3 37.4 0.325 7.62 7.73 13.05
12/30/2022 5:00:00 AM 3 37.4 0.325 7.54 9.21 13.06
12/30/2022 5:15:00 AM 3.01 37.418 0.325 7.55 10.09 13.06
12/30/2022 5:30:00 AM 3.02 37.436 0.326 7.64 10.31 13.06
12/30/2022 5:45:00 AM 3.03 37.454 0.325 7.65 10.85 13.04
12/30/2022 6:00:00 AM 3.04 37.472 0.326 7.65 8.8 13.04
12/30/2022 6:15:00 AM 3.04 37.472 0.326 7.63 9.76 13.03
12/30/2022 6:30:00 AM 3.05 37.49 0.326 7.63 7.53 13.03
12/30/2022 6:45:00 AM 3.05 37.49 0.326 7.65 9.67 13.03
12/30/2022 7:00:00 AM 3.05 37.49 0.326 7.64 8.96 13.02
12/30/2022 7:15:00 AM 3.05 37.49 0.326 7.63 10.33 13.01
12/30/2022 7:30:00 AM 3.05 37.49 0.326 7.63 9.43 13.01
12/30/2022 7:45:00 AM 3.06 37.508 0.326 7.62 9.51 12.99
12/30/2022 8:00:00 AM 3.07 37.526 0.326 7.62 9.16 13
12/30/2022 8:15:00 AM 3.08 37.544 0.326 7.63 9.07 13.01
12/30/2022 8:30:00 AM 3.1 37.58 0.326 7.63 9.03 13.01
12/30/2022 8:45:00 AM 3.12 37.616 0.326 7.61 9.24 13.02
12/30/2022 9:00:00 AM 3.14 37.652 0.326 7.63 8.33 13.03
12/30/2022 9:15:00 AM 3.17 37.706 0.327 7.62 8.8 13.02
12/30/2022 9:30:00 AM 3.19 37.742 0.327 7.59 9.18 13.05
12/30/2022 9:45:00 AM 3.21 37.778 0.327 7.53 10.38 13.04
12/30/2022 10:00:00 AM 3.24 37.832 0.327 7.54 9.52 13.06
12/30/2022 10:15:00 AM 3.28 37.904 0.327 7.55 9.31 13.04
12/30/2022 10:30:00 AM 3.32 37.976 0.327 7.54 9.85 13.08
12/30/2022 10:45:00 AM 3.37 38.066 0.327 7.55 10.84 13.08
12/30/2022 11:00:00 AM 3.42 38.156 0.327 7.56 9.62 13.09
12/30/2022 11:15:00 AM 3.46 38.228 0.327 7.55 10.39 13.1
12/30/2022 11:30:00 AM 3.51 38.318 0.328 7.56 10.47 13.09
12/30/2022 11:45:00 AM 3.54 38.372 0.328 7.57 10.6 13.09
12/30/2022 12:00:00 PM 3.57 38.426 0.328 7.57 12.42 13.08
12/30/2022 12:15:00 PM 3.61 38.498 0.328 7.57 11.08 13.08
12/30/2022 12:30:00 PM 3.65 38.57 0.328 7.57 10.63 13.07
12/30/2022 12:45:00 PM 3.7 38.66 0.328 7.57 9.03 13.05
12/30/2022 1:00:00 PM 3.74 38.732 0.329 7.58 10.17 13.06
12/30/2022 1:15:00 PM 3.78 38.804 0.329 7.59 10.66 13.03
12/30/2022 1:30:00 PM 3.84 38.912 0.329 7.59 9.63 13.04
12/30/2022 1:45:00 PM 3.87 38.966 0.329 7.59 15.55 13.02
12/30/2022 2:00:00 PM 3.92 39.056 0.329 7.6 15.71 13.03
12/30/2022 2:15:00 PM 4 39.2 0.329 7.62 9.87 12.99
12/30/2022 2:30:00 PM 4.05 39.29 0.33 7.62 10.76 12.99
12/30/2022 2:45:00 PM 4.11 39.398 0.33 7.65 10.83 12.96
12/30/2022 3:00:00 PM 4.11 39.398 0.33 7.66 10.22 12.97
12/30/2022 3:15:00 PM 4.1 39.38 0.33 7.7 10.58 12.93
12/30/2022 3:30:00 PM 4.08 39.344 0.33 7.69 12.69 12.93
12/30/2022 3:45:00 PM 4.08 39.344 0.33 7.69 13.02 12.9
12/30/2022 4:00:00 PM 4.06 39.308 0.331 7.68 10.55 12.89
12/30/2022 4:15:00 PM 4.03 39.254 0.331 7.69 11.2 12.86
12/30/2022 4:30:00 PM 4.02 39.236 0.331 7.69 10.67 12.84
12/30/2022 4:45:00 PM 4 39.2 0.331 7.68 11.08 12.82
12/30/2022 5:00:00 PM 3.98 39.164 0.331 7.68 12.32 12.79
12/30/2022 5:15:00 PM 3.97 39.146 0.332 7.67 32.34 12.75
12/30/2022 5:30:00 PM 3.96 39.128 0.332 7.69 10.97 12.75
12/30/2022 5:45:00 PM 3.96 39.128 0.3 7.69 9.14 12.74
12/30/2022 6:00:00 PM 3.97 39.146 0.315 7.69 8.95 12.72
12/30/2022 6:15:00 PM 3.97 39.146 0.326 7.68 7.61 12.72
12/30/2022 6:30:00 PM 3.99 39.182 0.329 7.68 6.89 12.7
12/30/2022 6:45:00 PM 4 39.2 0.329 7.68 97.56 12.7
12/30/2022 7:00:00 PM 4.01 39.218 0.329 7.67 7.43 12.7
12/30/2022 7:15:00 PM 4.02 39.236 0.329 7.67 14.3 12.71
12/30/2022 7:30:00 PM 4.04 39.272 0.33 7.68 9.18 12.7
12/30/2022 7:45:00 PM 4.06 39.308 0.33 7.67 9.09 12.7
12/30/2022 8:00:00 PM 4.07 39.326 0.33 7.66 7.65 12.67
12/30/2022 8:15:00 PM 4.09 39.362 0.33 7.68 11.19 12.67
12/30/2022 8:30:00 PM 4.11 39.398 0.329 7.67 8.53 12.68
12/30/2022 8:45:00 PM 4.12 39.416 0.329 7.68 8.95 12.68
12/30/2022 9:00:00 PM 4.14 39.452 0.33 7.67 13.05 12.67
12/30/2022 9:15:00 PM 4.16 39.488 0.33 7.68 11.15 12.68
12/30/2022 9:30:00 PM 4.17 39.506 0.33 7.68 10.5 12.66
12/30/2022 9:45:00 PM 4.18 39.524 0.33 7.68 10.84 12.66
12/30/2022 10:00:00 PM 4.19 39.542 0.33 7.68 8.96 12.66
12/30/2022 10:15:00 PM 4.2 39.56 0.33 7.67 8.02 12.65
12/30/2022 10:30:00 PM 4.21 39.578 0.33 7.69 8.23 12.66
12/30/2022 10:45:00 PM 4.21 39.578 0.33 7.68 7.24 12.65
12/30/2022 11:00:00 PM 4.21 39.578 0.33 7.67 11.83 12.64
12/30/2022 11:15:00 PM 4.21 39.578 0.33 7.68 7.17 12.61
12/30/2022 11:30:00 PM 4.21 39.578 0.33 7.68 12.4 12.64
12/30/2022 11:45:00 PM 4.21 39.578 0.331 7.69 11.72 12.64
12/31/2022 12:00:00 AM 4.21 39.578 0.33 7.68 15.51 12.63
12/31/2022 12:15:00 AM 4.21 39.578 0.33 7.69 19.26 12.63
12/31/2022 12:30:00 AM 4.21 39.578 0.33 7.68 8.28 12.59
12/31/2022 12:45:00 AM 4.2 39.56 0.331 7.69 10.14 12.6
12/31/2022 1:00:00 AM 4.2 39.56 0.33 7.69 9.17 12.6
12/31/2022 1:15:00 AM 4.19 39.542 0.333 7.69 11.26 12.59
12/31/2022 1:30:00 AM 4.19 39.542 0.321 7.69 11.58 12.58
12/31/2022 1:45:00 AM 4.18 39.524 0.333 7.68 9.39 12.59
12/31/2022 2:00:00 AM 4.17 39.506 0.334 7.69 9.93 12.57
12/31/2022 2:15:00 AM 4.16 39.488 0.334 7.69 15.15 12.57
12/31/2022 2:30:00 AM 4.16 39.488 0.334 7.68 18.87 12.56
12/31/2022 2:45:00 AM 4.16 39.488 0.334 7.7 10.06 12.56
12/31/2022 3:00:00 AM 4.14 39.452 0.335 7.68 15.54 12.54
12/31/2022 3:15:00 AM 4.13 39.434 0.335 7.68 15.37 12.53
12/31/2022 3:30:00 AM 4.13 39.434 0.335 7.68 12.02 12.51
12/31/2022 3:45:00 AM 4.12 39.416 0.335 7.68 14.45 12.52
12/31/2022 4:00:00 AM 4.11 39.398 0.335 7.67 13.48 12.51
12/31/2022 4:15:00 AM 4.1 39.38 0.335 7.67 12.27 12.51
12/31/2022 4:30:00 AM 4.08 39.344 0.335 7.59 14.66 12.52
12/31/2022 4:45:00 AM 4.08 39.344 0.335 7.62 17.07 12.48
12/31/2022 5:00:00 AM 4.08 39.344 0.336 7.67 13.41 12.51
12/31/2022 5:15:00 AM 4.07 39.326 0.336 7.68 15.53 12.49
12/31/2022 5:30:00 AM 4.08 39.344 0.336 7.68 15.54 12.5
12/31/2022 5:45:00 AM 4.08 39.344 0.336 7.67 14.78 12.49
12/31/2022 6:00:00 AM 4.09 39.362 0.336 7.68 17.2 12.47
12/31/2022 6:15:00 AM 4.09 39.362 0.336 7.67 16.16 12.48
12/31/2022 6:30:00 AM 4.09 39.362 0.336 7.66 14.47 12.47
12/31/2022 6:45:00 AM 4.09 39.362 0.336 7.66 14.24 12.46
12/31/2022 7:00:00 AM 4.1 39.38 0.336 7.66 17.3 12.47
12/31/2022 7:15:00 AM 4.1 39.38 0.336 7.65 9.4 12.44
12/31/2022 7:30:00 AM 4.1 39.38 0.336 7.65 10.93 12.44
12/31/2022 7:45:00 AM 4.1 39.38 0.336 7.65 7.61 12.43
12/31/2022 8:00:00 AM 4.11 39.398 0.336 7.63 8.33 12.42
12/31/2022 8:15:00 AM 4.12 39.416 0.336 7.6 7.76 12.42
12/31/2022 8:30:00 AM 4.13 39.434 0.336 7.62 7.8 12.44
12/31/2022 8:45:00 AM 4.14 39.452 0.336 7.56 7.36 12.43
12/31/2022 9:00:00 AM 4.16 39.488 0.336 7.55 8.2 12.43
12/31/2022 9:15:00 AM 4.18 39.524 0.336 7.63 9.8 12.43
12/31/2022 9:30:00 AM 4.2 39.56 0.336 7.63 15.22 12.44
12/31/2022 9:45:00 AM 4.22 39.596 0.336 7.63 9.33 12.44
12/31/2022 10:00:00 AM 4.25 39.65 0.336 7.61 17.75 12.46
12/31/2022 10:15:00 AM 4.27 39.686 0.336 7.63 8.14 12.45
12/31/2022 10:30:00 AM 4.3 39.74 0.336 7.55 38.8 12.46
12/31/2022 10:45:00 AM 4.32 39.776 0.335 7.55 13.81 12.47
12/31/2022 11:00:00 AM 4.35 39.83 0.335 7.56 11.16 12.46
12/31/2022 11:15:00 AM 4.37 39.866 0.335 7.56 21.66 12.49
12/31/2022 11:30:00 AM 4.4 39.92 0.335 7.58 10.67 12.48
12/31/2022 11:45:00 AM 4.43 39.974 0.336 7.58 8.08 12.47
12/31/2022 12:00:00 PM 4.45 40.01 0.335 7.57 9.27 12.46
12/31/2022 12:15:00 PM 4.46 40.028 0.335 7.59 9.18 12.47
12/31/2022 12:30:00 PM 4.49 40.082 0.336 7.59 9.04 12.44
12/31/2022 12:45:00 PM 4.5 40.1 0.335 7.58 11.84 12.41
12/31/2022 1:00:00 PM 4.52 40.136 0.336 7.6 10.15 12.41
12/31/2022 1:15:00 PM 4.55 40.19 0.336 7.6 11.1 12.4
12/31/2022 1:30:00 PM 4.58 40.244 0.336 7.6 9.24 12.39
12/31/2022 1:45:00 PM 4.6 40.28 0.336 7.6 25.29 12.39
12/31/2022 2:00:00 PM 4.63 40.334 0.336 7.61 42.11 12.38
12/31/2022 2:15:00 PM 4.65 40.37 0.336 7.61 26.62 12.37
12/31/2022 2:30:00 PM 4.67 40.406 0.336 7.62 33.51 12.34
12/31/2022 2:45:00 PM 4.68 40.424 0.336 7.62 19.66 12.32
12/31/2022 3:00:00 PM 4.7 40.46 0.337 7.64 32.54 12.31
12/31/2022 3:15:00 PM 4.71 40.478 0.337 7.66 2705 12.28
12/31/2022 3:30:00 PM 4.73 40.514 0.337 7.66 14.36 12.26
12/31/2022 3:45:00 PM 4.75 40.55 0.337 7.71 17.58 12.23
12/31/2022 4:00:00 PM 4.76 40.568 0.337 7.7 12.1 12.24
12/31/2022 4:15:00 PM 4.78 40.604 0.337 7.71 188.4 12.23
12/31/2022 4:30:00 PM 4.79 40.622 0.337 7.71 1647 12.21
12/31/2022 4:45:00 PM 4.81 40.658 0.337 7.71 10.2 12.18
12/31/2022 5:00:00 PM 4.83 40.694 0.337 7.71 17.64 12.18
12/31/2022 5:15:00 PM 4.85 40.73 0.337 7.71 17.5 12.16
12/31/2022 5:30:00 PM 4.87 40.766 0.336 7.69 16.75 12.16
12/31/2022 5:45:00 PM 4.89 40.802 0.336 7.7 21.52 12.15
12/31/2022 6:00:00 PM 4.91 40.838 0.336 7.7 21.77 12.14
12/31/2022 6:15:00 PM 4.94 40.892 0.336 7.71 23.77 12.12
12/31/2022 6:30:00 PM 4.96 40.928 0.336 7.71 12.77 12.14
12/31/2022 6:45:00 PM 4.99 40.982 0.335 7.71 19.1 12.13
12/31/2022 7:00:00 PM 5.01 41.018 0.335 7.71 13.37 12.11
12/31/2022 7:15:00 PM 5.03 41.054 0.336 7.71 14.49 12.12
12/31/2022 7:30:00 PM 5.05 41.09 0.335 7.71 16.69 12.12
12/31/2022 7:45:00 PM 5.07 41.126 0.336 7.71 21.33 12.1
12/31/2022 8:00:00 PM 5.09 41.162 0.336 7.71 20.61 12.11
12/31/2022 8:15:00 PM 5.11 41.198 0.336 7.71 28.84 12.11
12/31/2022 8:30:00 PM 5.12 41.216 0.336 7.69 14.11 12.11
12/31/2022 8:45:00 PM 5.14 41.252 0.336 7.7 15.78 12.09
12/31/2022 9:00:00 PM 5.16 41.288 0.337 7.7 21.99 12.09
12/31/2022 9:15:00 PM 5.17 41.306 0.337 7.69 23.22 12.08
12/31/2022 9:30:00 PM 5.19 41.342 0.337 7.68 28.18 12.07
12/31/2022 9:45:00 PM 5.21 41.378 0.337 7.67 48.65 12.09
12/31/2022 10:00:00 PM 5.23 41.414 0.338 7.68 12.54 12.06
12/31/2022 10:15:00 PM 5.24 41.432 0.338 7.69 22.04 12.07
12/31/2022 10:30:00 PM 5.26 41.468 0.337 7.69 33.11 12.05
12/31/2022 10:45:00 PM 5.27 41.486 0.337 7.69 18.69 12.04
12/31/2022 11:00:00 PM 5.28 41.504 0.337 7.67 27.12 12.02
12/31/2022 11:15:00 PM 5.29 41.522 0.337 7.68 24.85 12.04
12/31/2022 11:30:00 PM 5.31 41.558 0.337 7.68 20.74 12.03
12/31/2022 11:45:00 PM 5.32 41.576 0.336 7.68 17.84 12.02
1/1/2023 12:00:00 AM 5.33 41.594 0.336 7.66 23.26 12.01
1/1/2023 12:15:00 AM 5.34 41.612 0.336 7.67 24.5 12.01
1/1/2023 12:30:00 AM 5.35 41.63 0.336 7.68 12.48 12
1/1/2023 12:45:00 AM 5.36 41.648 0.336 7.68 13.94 11.98
1/1/2023 1:00:00 AM 5.37 41.666 0.336 7.68 14.86 11.98
1/1/2023 1:15:00 AM 5.37 41.666 0.335 7.69 15.37 11.96
1/1/2023 1:30:00 AM 5.38 41.684 0.335 7.68 34.83 11.95
1/1/2023 1:45:00 AM 5.38 41.684 0.335 7.68 16.26 11.96
1/1/2023 2:00:00 AM 5.38 41.684 0.335 7.68 21.34 11.95
1/1/2023 2:15:00 AM 5.38 41.684 0.335 7.67 23.39 11.93
1/1/2023 2:30:00 AM 5.38 41.684 0.335 7.67 15.75 11.92
1/1/2023 2:45:00 AM 5.36 41.648 0.335 7.67 30.4 11.93
1/1/2023 3:00:00 AM 5.34 41.612 0.335 7.68 21.5 11.91
1/1/2023 3:15:00 AM 5.33 41.594 0.335 7.67 12.68 11.92
1/1/2023 3:30:00 AM 5.31 41.558 0.335 7.68 25.93 11.92
1/1/2023 3:45:00 AM 5.29 41.522 0.335 7.67 15.24 11.92
1/1/2023 4:00:00 AM 5.27 41.486 0.334 7.66 20.67 11.91
1/1/2023 4:15:00 AM 5.25 41.45 0.335 7.67 38.01 11.91
1/1/2023 4:30:00 AM 5.23 41.414 0.334 7.67 30.04 11.91
1/1/2023 4:45:00 AM 5.22 41.396 0.334 7.54 21.88 11.91
1/1/2023 5:00:00 AM 5.2 41.36 0.334 7.58 29.15 11.92
1/1/2023 5:15:00 AM 5.19 41.342 0.334 7.59 30.43 11.92
1/1/2023 5:30:00 AM 5.18 41.324 0.334 7.68 29.82 11.9
1/1/2023 5:45:00 AM 5.17 41.306 0.334 7.66 20.78 11.91
1/1/2023 6:00:00 AM 5.16 41.288 0.334 7.66 39.51 11.92
1/1/2023 6:15:00 AM 5.15 41.27 0.333 7.67 20.6 11.9
1/1/2023 6:30:00 AM 5.14 41.252 0.333 7.65 20.19 11.92
1/1/2023 6:45:00 AM 5.12 41.216 0.333 7.65 31.53 11.92
1/1/2023 7:00:00 AM 5.11 41.198 0.333 7.65 25.09 11.92
1/1/2023 7:15:00 AM 5.1 41.18 0.333 7.56 33.53 11.92
1/1/2023 7:30:00 AM 5.09 41.162 0.333 7.53 17.9 11.93
1/1/2023 7:45:00 AM 5.08 41.144 0.333 7.57 16.32 11.93
1/1/2023 8:00:00 AM 5.07 41.126 0.333 7.66 16.69 11.94
1/1/2023 8:15:00 AM 5.06 41.108 0.333 7.65 11.88 11.94
1/1/2023 8:30:00 AM 5.05 41.09 0.333 7.64 10.74 11.97
1/1/2023 8:45:00 AM 5.07 41.126 0.333 7.65 12.4 11.96
1/1/2023 9:00:00 AM 5.06 41.108 0.333 7.65 19.13 11.98
1/1/2023 9:15:00 AM 5.06 41.108 0.333 7.65 33.91 12.01
1/1/2023 9:30:00 AM 5.08 41.144 0.333 7.65 13.04 12.01
1/1/2023 9:45:00 AM 5.1 41.18 0.333 7.55 16.78 12.04
1/1/2023 10:00:00 AM 5.11 41.198 0.334 7.67 16.16 12.07
1/1/2023 10:15:00 AM 5.13 41.234 0.333 7.66 16.21 12.09
1/1/2023 10:30:00 AM 5.17 41.306 0.334 7.65 15.02 12.1
1/1/2023 10:45:00 AM 5.22 41.396 0.334 7.66 15.56 12.12
1/1/2023 11:00:00 AM 5.28 41.504 0.333 7.65 16.51 12.12
1/1/2023 11:15:00 AM 5.34 41.612 0.333 7.66 17.78 12.14
1/1/2023 11:30:00 AM 5.42 41.756 0.333 7.65 16.5 12.15
1/1/2023 11:45:00 AM 5.5 41.9 0.333 7.6 15.89 12.15
1/1/2023 12:00:00 PM 5.6 42.08 0.333 7.48 17.39 12.16
1/1/2023 12:15:00 PM 5.7 42.26 0.333 7.64 17 12.16
1/1/2023 12:30:00 PM 5.73 42.314 0.332 7.66 16.5 12.16
1/1/2023 12:45:00 PM 5.74 42.332 0.332 7.68 16.76 12.16
1/1/2023 1:00:00 PM 5.73 42.314 0.332 7.68 18.51 12.15
1/1/2023 1:15:00 PM 5.7 42.26 0.332 7.69 17.38 12.14
1/1/2023 1:30:00 PM 5.67 42.206 0.332 7.69 34.11 12.11
1/1/2023 1:45:00 PM 5.7 42.26 0.332 7.68 22.1 12.12
1/1/2023 2:00:00 PM 5.78 42.404 0.331 7.7 19.03 12.12
1/1/2023 2:15:00 PM 5.86 42.548 0.331 7.62 18.52 12.12
1/1/2023 2:30:00 PM 5.93 42.674 0.331 7.71 20.08 12.12
1/1/2023 2:45:00 PM 5.97 42.746 0.33 7.69 23.66 12.12
1/1/2023 3:00:00 PM 6 42.8 0.33 7.7 20 12.11
1/1/2023 3:15:00 PM 5.98 42.764 0.33 7.72 61.04 12.12
1/1/2023 3:30:00 PM 5.94 42.692 0.33 7.72 29.33 12.09
1/1/2023 3:45:00 PM 5.91 42.638 0.33 7.72 38.35 12.06
1/1/2023 4:00:00 PM 5.88 42.584 0.329 7.7 18.79 12.06
1/1/2023 4:15:00 PM 5.86 42.548 0.329 7.63 20.07 12.05
1/1/2023 4:30:00 PM 5.84 42.512 0.329 7.62 24.01 12.02
1/1/2023 4:45:00 PM 5.82 42.476 0.329 7.73 26.06 12
1/1/2023 5:00:00 PM 5.8 42.44 0.329 7.7 41.99 11.99
1/1/2023 5:15:00 PM 5.8 42.44 0.329 7.65 57.44 11.97
1/1/2023 5:30:00 PM 5.79 42.422 0.329 7.64 73.16 11.96
1/1/2023 5:45:00 PM 5.8 42.44 0.329 7.69 61.48 11.93
1/1/2023 6:00:00 PM 5.81 42.458 0.33 7.7 32.91 11.94
1/1/2023 6:15:00 PM 5.82 42.476 0.33 7.72 26.14 11.93
1/1/2023 6:30:00 PM 5.85 42.53 0.33 7.72 31.73 11.93
1/1/2023 6:45:00 PM 5.87 42.566 0.33 7.72 30.1 11.93
1/1/2023 7:00:00 PM 5.89 42.602 0.331 7.72 48.37 11.93
1/1/2023 7:15:00 PM 5.9 42.62 0.331 7.73 56.96 11.93
1/1/2023 7:30:00 PM 5.9 42.62 0.331 7.72 51.96 11.94
1/1/2023 7:45:00 PM 5.91 42.638 0.331 7.66 26.02 11.94
1/1/2023 8:00:00 PM 5.91 42.638 0.331 7.65 21.28 11.95
1/1/2023 8:15:00 PM 5.92 42.656 0.331 7.74 32.13 11.95
1/1/2023 8:30:00 PM 5.95 42.71 0.331 7.74 26.67 11.92
1/1/2023 8:45:00 PM 5.96 42.728 0.331 7.73 23 11.93
1/1/2023 9:00:00 PM 5.98 42.764 0.331 7.74 56.24 11.95
1/1/2023 9:15:00 PM 5.99 42.782 0.331 7.74 41.73 11.94
1/1/2023 9:30:00 PM 6 42.8 0.331 7.73 45.09 11.95
1/1/2023 9:45:00 PM 6.01 42.818 0.331 7.74 32.32 11.95
1/1/2023 10:00:00 PM 6.01 42.818 0.331 7.74 29.79 11.95
1/1/2023 10:15:00 PM 6.02 42.836 0.331 7.75 31.88 11.95
1/1/2023 10:30:00 PM 6.02 42.836 0.33 7.75 32.78 11.94
1/1/2023 10:45:00 PM 6.02 42.836 0.33 7.75 49.28 11.94
1/1/2023 11:00:00 PM 6.02 42.836 0.33 7.73 29.53 11.93
1/1/2023 11:15:00 PM 6.01 42.818 0.33 7.65 39.66 11.92
1/1/2023 11:30:00 PM 6 42.8 0.329 7.74 62.36 11.92
1/1/2023 11:45:00 PM 5.99 42.782 0.329 7.73 66.2 11.92
1/2/2023 12:00:00 AM 5.99 42.782 0.328 7.72 41.34 11.89
1/2/2023 12:15:00 AM 5.98 42.764 0.328 7.7 39.29 11.89
1/2/2023 12:30:00 AM 5.97 42.746 0.328 7.69 61.32 11.91
1/2/2023 12:45:00 AM 5.96 42.728 0.328 7.69 44.95 11.89
1/2/2023 1:00:00 AM 5.96 42.728 0.328 7.68 33.28 11.89
1/2/2023 1:15:00 AM 5.96 42.728 0.327 7.69 45.81 11.87
1/2/2023 1:30:00 AM 5.95 42.71 0.327 7.69 54.62 11.86
1/2/2023 1:45:00 AM 5.95 42.71 0.327 7.69 38.66 11.87
1/2/2023 2:00:00 AM 5.95 42.71 0.326 7.68 39.41 11.85
1/2/2023 2:15:00 AM 5.94 42.692 0.326 7.62 40.53 11.86
1/2/2023 2:30:00 AM 5.94 42.692 0.325 7.68 38.31 11.86
1/2/2023 2:45:00 AM 5.93 42.674 0.325 7.68 70.23 11.84
1/2/2023 3:00:00 AM 5.93 42.674 0.325 7.67 52.19 11.85
1/2/2023 3:15:00 AM 5.93 42.674 0.324 7.68 39.29 11.83
1/2/2023 3:30:00 AM 5.92 42.656 0.324 7.68 43.88 11.82
1/2/2023 3:45:00 AM 5.91 42.638 0.324 7.6 52.34 11.82
1/2/2023 4:00:00 AM 5.91 42.638 0.323 7.6 71.19 11.82
1/2/2023 4:15:00 AM 5.9 42.62 0.323 7.61 53.95 11.83
1/2/2023 4:30:00 AM 5.9 42.62 0.323 7.64 47.74 11.81
1/2/2023 4:45:00 AM 5.9 42.62 0.323 7.65 59.75 11.82
1/2/2023 5:00:00 AM 5.9 42.62 0.319 7.56 56.01 11.8
1/2/2023 5:15:00 AM 5.89 42.602 0.316 7.65 53.53 11.82
1/2/2023 5:30:00 AM 5.89 42.602 0.314 7.64 61.16 11.82
1/2/2023 5:45:00 AM 5.88 42.584 0.31 7.65 49.82 11.8
1/2/2023 6:00:00 AM 5.88 42.584 0.299 7.65 53.91 11.82
1/2/2023 6:15:00 AM 5.87 42.566 0.285 7.64 59.28 11.81
1/2/2023 6:30:00 AM 5.86 42.548 0.303 7.65 31.94 11.81
1/2/2023 6:45:00 AM 5.85 42.53 0.296 7.65 62.79 11.8
1/2/2023 7:00:00 AM 5.84 42.512 0.317 7.64 54.49 11.8
1/2/2023 7:15:00 AM 5.84 42.512 0.318 7.64 27.58 11.82
1/2/2023 7:30:00 AM 5.83 42.494 0.319 7.54 88.48 11.8
1/2/2023 7:45:00 AM 5.83 42.494 0.319 7.54 29.71 11.82
1/2/2023 8:00:00 AM 5.83 42.494 0.318 7.64 54.37 11.82
1/2/2023 8:15:00 AM 5.83 42.494 0.32 7.65 95.01 11.83
1/2/2023 8:30:00 AM 5.82 42.476 0.32 7.65 103.9 11.81
1/2/2023 8:45:00 AM 5.83 42.494 0.32 7.63 66.78 11.83
1/2/2023 9:00:00 AM 5.84 42.512 0.32 7.63 67.22 11.84
1/2/2023 9:15:00 AM 5.84 42.512 0.32 7.63 80.35 11.85
1/2/2023 9:30:00 AM 5.86 42.548 0.32 7.56 139.6 11.86
1/2/2023 9:45:00 AM 5.88 42.584 0.32 7.47 144.4 11.89
1/2/2023 10:00:00 AM 5.9 42.62 0.32 7.6 108.4 11.9
1/2/2023 10:15:00 AM 5.92 42.656 0.32 7.61 89.13 11.92
1/2/2023 10:30:00 AM 5.95 42.71 0.321 7.61 130.8 11.94
1/2/2023 10:45:00 AM 5.99 42.782 0.321 7.62 79.38 11.96
1/2/2023 11:00:00 AM 6.02 42.836 0.321 7.62 105 11.97
1/2/2023 11:15:00 AM 6.04 42.872 0.322 7.63 41.37 11.97
1/2/2023 11:30:00 AM 6.07 42.926 0.321 7.64 33.29 11.99
1/2/2023 11:45:00 AM 6.09 42.962 0.322 7.64 133.9 11.97
1/2/2023 12:00:00 PM 6.1 42.98 0.322 7.63 75.98 11.98
1/2/2023 12:15:00 PM 6.12 43.016 0.322 7.56 99.69 11.97
1/2/2023 12:30:00 PM 6.13 43.034 0.323 7.6 63.96 11.95
1/2/2023 12:45:00 PM 6.14 43.052 0.322 7.61 109.6 11.95
1/2/2023 1:00:00 PM 6.15 43.07 0.322 7.63 50.17 11.94
1/2/2023 1:15:00 PM 6.16 43.088 0.323 7.62 60.78 11.92
1/2/2023 1:30:00 PM 6.15 43.07 0.323 7.62 179.5 11.9
1/2/2023 1:45:00 PM 6.16 43.088 0.323 7.63 51.63 11.88
1/2/2023 2:00:00 PM 6.17 43.106 0.323 7.64 142.3 11.86
1/2/2023 2:15:00 PM 6.18 43.124 0.323 7.64 62.52 11.85
1/2/2023 2:30:00 PM 6.19 43.142 0.323 7.58 154.5 11.82
1/2/2023 2:45:00 PM 6.21 43.178 0.323 7.64 52.42 11.82
1/2/2023 3:00:00 PM 6.22 43.196 0.323 7.63 46.76 11.82
1/2/2023 3:15:00 PM 6.23 43.214 0.324 7.59 75.02 11.81
1/2/2023 3:30:00 PM 6.24 43.232 0.323 7.64 59.79 11.8
1/2/2023 3:45:00 PM 6.26 43.268 0.324 7.61 166.7 11.78
1/2/2023 4:00:00 PM 6.27 43.286 0.323 7.62 106.7 11.79
1/2/2023 4:15:00 PM 6.27 43.286 0.324 7.61 139 11.76
1/2/2023 4:30:00 PM 6.28 43.304 0.324 7.64 41.16 11.75
1/2/2023 4:45:00 PM 6.29 43.322 0.324 7.56 50.7 11.71
1/2/2023 5:00:00 PM 6.31 43.358 0.324 7.63 83.07 11.72
1/2/2023 5:15:00 PM 6.32 43.376 0.324 7.65 109.7 11.72
1/2/2023 5:30:00 PM 6.33 43.394 0.325 7.64 44.57 11.72
1/2/2023 5:45:00 PM 6.34 43.412 0.324 7.64 93.26 11.72
1/2/2023 6:00:00 PM 6.36 43.448 0.325 7.63 45.26 11.7
1/2/2023 6:15:00 PM 6.38 43.484 0.324 7.63 63.33 11.7
1/2/2023 6:30:00 PM 6.39 43.502 0.325 7.64 50.77 11.71
1/2/2023 6:45:00 PM 6.41 43.538 0.325 7.63 33.32 11.71
1/2/2023 7:00:00 PM 6.42 43.556 0.323 7.52 34.79 11.7
1/2/2023 7:15:00 PM 6.43 43.574 0.288 7.55 58.33 11.72
1/2/2023 7:30:00 PM 6.44 43.592 0.287 7.63 55.43 11.7
1/2/2023 7:45:00 PM 6.45 43.61 0.31 7.63 40.78 11.72
1/2/2023 8:00:00 PM 6.46 43.628 0.316 7.64 118.8 11.71
1/2/2023 8:15:00 PM 6.47 43.646 0.315 7.62 66.33 11.71
1/2/2023 8:30:00 PM 6.48 43.664 0.306 7.63 145.3 11.72
1/2/2023 8:45:00 PM 6.48 43.664 0.308 7.62 97.93 11.71
1/2/2023 9:00:00 PM 6.49 43.682 0.312 7.61 125.5 11.71
1/2/2023 9:15:00 PM 6.49 43.682 0.318 7.62 129.6 11.7
1/2/2023 9:30:00 PM 6.49 43.682 0.319 7.62 139.3 11.7
1/2/2023 9:45:00 PM 6.49 43.682 0.307 7.61 57.7 11.69
1/2/2023 10:00:00 PM 6.49 43.682 0.283 7.62 82.69 11.7
1/2/2023 10:15:00 PM 6.5 43.7 0.308 7.61 102.8 11.7
1/2/2023 10:30:00 PM 6.5 43.7 0.325 7.6 136.8 11.67
1/2/2023 10:45:00 PM 6.51 43.718 0.303 7.54 84.38 11.69
1/2/2023 11:00:00 PM 6.52 43.736 0.321 7.51 105 11.68
1/2/2023 11:15:00 PM 6.53 43.754 0.299 7.61 164.3 11.67
1/2/2023 11:30:00 PM 6.53 43.754 0.28 7.6 98.76 11.66
1/2/2023 11:45:00 PM 6.53 43.754 0.307 7.59 135.3 11.66
1/3/2023 12:00:00 AM 6.54 43.772 0.323 7.59 171.3 11.65
1/3/2023 12:15:00 AM 6.54 43.772 0.313 7.59 117.2 11.64
1/3/2023 12:30:00 AM 6.54 43.772 0.292 7.58 142.4 11.64
1/3/2023 12:45:00 AM 6.55 43.79 0.283 7.59 157 11.62
1/3/2023 1:00:00 AM 6.55 43.79 0.305 7.59 130.8 11.61
1/3/2023 1:15:00 AM 6.56 43.808 0.308 7.49 162.6 11.61
1/3/2023 1:30:00 AM 6.57 43.826 0.325 7.55 115.6 11.59
1/3/2023 1:45:00 AM 6.57 43.826 0.325 7.58 164.9 11.58
1/3/2023 2:00:00 AM 6.58 43.844 0.324 7.58 141.8 11.59
1/3/2023 2:15:00 AM 6.58 43.844 0.325 7.58 154.2 11.57
1/3/2023 2:30:00 AM 6.59 43.862 0.325 7.59 101.1 11.58
1/3/2023 2:45:00 AM 6.59 43.862 0.325 7.57 175.4 11.57
1/3/2023 3:00:00 AM 6.59 43.862 0.323 7.48 198.5 11.57
1/3/2023 3:15:00 AM 6.6 43.88 0.324 7.58 200.4 11.56
1/3/2023 3:30:00 AM 6.6 43.88 0.324 7.58 187.1 11.55
1/3/2023 3:45:00 AM 6.61 43.898 0.324 7.57 111.7 11.55
1/3/2023 4:00:00 AM 6.61 43.898 0.324 7.55 123 11.54
1/3/2023 4:15:00 AM 6.61 43.898 0.323 7.56 197.9 11.53
1/3/2023 4:30:00 AM 6.61 43.898 0.323 7.57 140.2 11.53
1/3/2023 4:45:00 AM 6.61 43.898 0.323 7.56 124.9 11.52
1/3/2023 5:00:00 AM 6.61 43.898 0.323 7.46 181.3 11.51
1/3/2023 5:15:00 AM 6.61 43.898 0.323 7.48 100.2 11.49
1/3/2023 5:30:00 AM 6.61 43.898 0.323 7.56 149.5 11.51
1/3/2023 5:45:00 AM 6.61 43.898 0.323 7.57 175.8 11.49
1/3/2023 6:00:00 AM 6.61 43.898 0.322 7.56 233.2 11.48
1/3/2023 6:15:00 AM 6.62 43.916 0.322 7.54 207.8 11.48
1/3/2023 6:30:00 AM 6.62 43.916 0.322 7.54 141.1 11.47
1/3/2023 6:45:00 AM 6.62 43.916 0.322 7.55 160.7 11.48
1/3/2023 7:00:00 AM 6.63 43.934 0.322 7.55 167.2 11.46
1/3/2023 7:15:00 AM 6.63 43.934 0.322 7.55 112.1 11.46
1/3/2023 7:30:00 AM 6.64 43.952 0.322 7.55 82.7 11.46
1/3/2023 7:45:00 AM 6.66 43.988 0.321 7.55 390 11.46
1/3/2023 8:00:00 AM 6.67 44.006 0.319 7.56 118.3 11.45
1/3/2023 8:15:00 AM 6.69 44.042 0.319 7.55 98.54 11.43
1/3/2023 8:30:00 AM 6.71 44.078 0.317 7.56 192.5 11.44
1/3/2023 8:45:00 AM 6.72 44.096 0.314 7.57 88.11 11.44
1/3/2023 9:00:00 AM 6.73 44.114 0.314 7.58 112.9 11.44
1/3/2023 9:15:00 AM 6.74 44.132 0.314 7.57 193.9 11.43
1/3/2023 9:30:00 AM 6.75 44.15 0.314 7.58 171.6 11.43
1/3/2023 9:45:00 AM 6.76 44.168 0.315 7.58 87.89 11.43
1/3/2023 10:00:00 AM 6.78 44.204 0.315 7.53 88.23 11.44
1/3/2023 10:15:00 AM 6.79 44.222 0.315 7.52 117.1 11.45
1/3/2023 10:30:00 AM 6.8 44.24 0.315 7.6 89.5 11.44
1/3/2023 10:45:00 AM 6.81 44.258 0.315 7.59 151.6 11.47
1/3/2023 11:00:00 AM 6.83 44.294 0.315 7.59 186.7 11.46
1/3/2023 11:15:00 AM 6.85 44.33 0.316 7.6 141.9 11.47
1/3/2023 11:30:00 AM 6.87 44.366 0.316 7.59 179.9 11.48
1/3/2023 11:45:00 AM 6.9 44.42 0.317 7.59 179.4 11.49
1/3/2023 12:00:00 PM 6.93 44.474 0.318 7.59 80.86 11.49
1/3/2023 12:15:00 PM 6.96 44.528 0.318 7.58 165.3 11.5
1/3/2023 12:30:00 PM 6.99 44.582 0.318 7.52 99.81 11.53
1/3/2023 12:45:00 PM 7.02 44.636 0.319 7.59 138 11.52
1/3/2023 1:00:00 PM 7.07 44.726 0.319 7.6 112.1 11.52
1/3/2023 1:15:00 PM 7.1 44.78 0.319 7.61 120.9 11.52
1/3/2023 1:30:00 PM 7.12 44.816 0.319 7.61 128 11.51
1/3/2023 1:45:00 PM 7.15 44.87 0.319 7.61 118 11.49
1/3/2023 2:00:00 PM 7.18 44.924 0.319 7.61 139 11.5
1/3/2023 2:15:00 PM 7.22 44.996 0.319 7.61 147.6 11.49
1/3/2023 2:30:00 PM 7.24 45.032 0.319 7.61 80.41 11.49
1/3/2023 2:45:00 PM 7.27 45.086 0.319 7.61 61.78 11.47
1/3/2023 3:00:00 PM 7.29 45.122 0.319 7.62 71.85 11.46
1/3/2023 3:15:00 PM 7.31 45.158 0.318 7.61 96.64 11.46
1/3/2023 3:30:00 PM 7.31 45.158 0.318 7.64 206.4 11.43
1/3/2023 3:45:00 PM 7.32 45.176 0.317 7.63 77.86 11.41
1/3/2023 4:00:00 PM 7.33 45.194 0.317 7.63 72.04 11.4
1/3/2023 4:15:00 PM 7.34 45.212 0.317 7.64 68.67 11.37
1/3/2023 4:30:00 PM 7.34 45.212 0.316 7.63 69.67 11.35
1/3/2023 4:45:00 PM 7.35 45.23 0.316 7.63 77.82 11.35
1/3/2023 5:00:00 PM 7.36 45.248 0.316 7.62 87.61 11.34
1/3/2023 5:15:00 PM 7.37 45.266 0.315 7.61 76.45 11.32
1/3/2023 5:30:00 PM 7.37 45.266 0.315 7.61 105.5 11.33
1/3/2023 5:45:00 PM 7.38 45.284 0.314 7.61 85.91 11.32
1/3/2023 6:00:00 PM 7.39 45.302 0.288 7.62 94.19 11.33
1/3/2023 6:15:00 PM 7.4 45.32 0.275 7.61 90.92 11.33
1/3/2023 6:30:00 PM 7.41 45.338 0.308 7.6 101 11.35
1/3/2023 6:45:00 PM 7.43 45.374 0.298 7.59 91.58 11.35
1/3/2023 7:00:00 PM 7.43 45.374 0.307 7.58 85.5 11.37
1/3/2023 7:15:00 PM 7.44 45.392 0.303 7.6 93.82 11.37
1/3/2023 7:30:00 PM 7.45 45.41 0.294 7.61 86.56 11.38
1/3/2023 7:45:00 PM 7.45 45.41 0.279 7.6 251.3 11.37
1/3/2023 8:00:00 PM 7.45 45.41 0.297 7.6 93.09 11.38
1/3/2023 8:15:00 PM 7.45 45.41 0.301 7.61 91.76 11.39
1/3/2023 8:30:00 PM 7.45 45.41 0.28 7.51 85.64 11.38
1/3/2023 8:45:00 PM 7.45 45.41 0.265 7.6 86.13 11.38
1/3/2023 9:00:00 PM 7.44 45.392 0.305 7.59 67.68 11.38
1/3/2023 9:15:00 PM 7.44 45.392 0.285 7.57 68.16 11.38
1/3/2023 9:30:00 PM 7.43 45.374 0.306 7.57 67.45 11.36
1/3/2023 9:45:00 PM 7.42 45.356 0.303 7.58 69 11.37
1/3/2023 10:00:00 PM 7.4 45.32 0.302 7.58 50.78 11.37
1/3/2023 10:15:00 PM 7.39 45.302 0.296 7.58 61.92 11.36
1/3/2023 10:30:00 PM 7.37 45.266 0.298 7.57 48.53 11.36
1/3/2023 10:45:00 PM 7.35 45.23 0.295 7.58 52.36 11.35
1/3/2023 11:00:00 PM 7.34 45.212 0.293 7.56 42.37 11.33
1/3/2023 11:15:00 PM 7.32 45.176 0.291 7.56 65.75 11.34
1/3/2023 11:30:00 PM 7.31 45.158 0.292 7.56 63.31 11.34
1/3/2023 11:45:00 PM 7.3 45.14 0.269 7.57 102.6 11.33
1/4/2023 12:00:00 AM 7.28 45.104 0.278 7.56 81.26 11.34
1/4/2023 12:15:00 AM 7.27 45.086 0.284 7.55 50.46 11.33
1/4/2023 12:30:00 AM 7.26 45.068 0.282 7.56 49.23 11.34
1/4/2023 12:45:00 AM 7.25 45.05 0.284 7.54 52.7 11.33
1/4/2023 1:00:00 AM 7.24 45.032 0.284 7.46 53.18 11.34
1/4/2023 1:15:00 AM 7.23 45.014 0.26 7.54 55.18 11.33
1/4/2023 1:30:00 AM 7.22 44.996 0.254 7.54 59.84 11.32
1/4/2023 1:45:00 AM 7.21 44.978 0.24 7.54 58.7 11.33
1/4/2023 2:00:00 AM 7.2 44.96 0.276 7.55 84.26 11.32
1/4/2023 2:15:00 AM 7.19 44.942 0.277 7.53 57.81 11.32
1/4/2023 2:30:00 AM 7.18 44.924 0.276 7.51 62.93 11.32
1/4/2023 2:45:00 AM 7.17 44.906 0.275 7.5 62.1 11.34
1/4/2023 3:00:00 AM 7.16 44.888 0.233 7.51 69.84 11.33
1/4/2023 3:15:00 AM 7.15 44.87 0.237 7.44 65.79 11.32
1/4/2023 3:30:00 AM 7.14 44.852 0.265 7.44 69.63 11.33
1/4/2023 3:45:00 AM 7.13 44.834 0.266 7.51 74.01 11.32
1/4/2023 4:00:00 AM 7.12 44.816 0.27 7.5 69.65 11.33
1/4/2023 4:15:00 AM 7.1 44.78 0.268 7.5 70.78 11.33
1/4/2023 4:30:00 AM 7.08 44.744 0.267 7.49 123.2 11.33
1/4/2023 4:45:00 AM 7.06 44.708 0.267 7.49 129.6 11.34
1/4/2023 5:00:00 AM 7.05 44.69 0.264 7.49 71.89 11.34
1/4/2023 5:15:00 AM 7.03 44.654 0.27 7.48 96.44 11.33
1/4/2023 5:30:00 AM 7.01 44.618 0.251 7.46 75.33 11.35
1/4/2023 5:45:00 AM 6.99 44.582 0.258 7.47 76.49 11.35
1/4/2023 6:00:00 AM 6.97 44.546 0.266 7.47 79.76 11.37
1/4/2023 6:15:00 AM 6.95 44.51 0.265 7.45 77.43 11.37
1/4/2023 6:30:00 AM 6.94 44.492 0.265 7.45 101.4 11.35
1/4/2023 6:45:00 AM 6.93 44.474 0.265 7.46 91.07 11.37
1/4/2023 7:00:00 AM 6.92 44.456 0.266 7.35 95.51 11.36
1/4/2023 7:15:00 AM 6.91 44.438 0.265 7.37 73.21 11.36
1/4/2023 7:30:00 AM 6.9 44.42 0.265 7.45 63.4 11.36
1/4/2023 7:45:00 AM 6.9 44.42 0.265 7.45 61.89 11.36
1/4/2023 8:00:00 AM 6.89 44.402 0.265 7.44 62.24 11.35
1/4/2023 8:15:00 AM 6.89 44.402 0.265 7.43 63.54 11.37
1/4/2023 8:30:00 AM 6.89 44.402 0.264 7.42 64.38 11.37
1/4/2023 8:45:00 AM 6.89 44.402 0.264 7.41 61.69 11.38
1/4/2023 9:00:00 AM 6.9 44.42 0.264 7.4 60.87 11.37
1/4/2023 9:15:00 AM 6.9 44.42 0.264 7.41 58.65 11.39
1/4/2023 9:30:00 AM 6.91 44.438 0.264 7.41 57.6 11.4
1/4/2023 9:45:00 AM 6.93 44.474 0.264 7.38 60.82 11.4
1/4/2023 10:00:00 AM 6.94 44.492 0.264 7.32 54.99 11.41
1/4/2023 10:15:00 AM 6.96 44.528 0.264 7.43 57.88 11.41
1/4/2023 10:30:00 AM 6.97 44.546 0.263 7.45 58.93 11.43
1/4/2023 10:45:00 AM 6.99 44.582 0.263 7.44 58.02 11.43
1/4/2023 11:00:00 AM 7.01 44.618 0.263 7.45 59.59 11.41
1/4/2023 11:15:00 AM 7.02 44.636 0.263 7.45 58.89 11.42
1/4/2023 11:30:00 AM 7.05 44.69 0.263 7.45 56.1 11.42
1/4/2023 11:45:00 AM 7.07 44.726 0.263 7.44 100.5 11.42
1/4/2023 12:00:00 PM 7.1 44.78 0.263 7.44 59.24 11.43
1/4/2023 12:15:00 PM 7.13 44.834 0.263 7.4 60.72 11.43
1/4/2023 12:30:00 PM 7.15 44.87 0.263 7.35 59.54 11.43
1/4/2023 12:45:00 PM 7.17 44.906 0.263 7.45 62.81 11.42
1/4/2023 1:00:00 PM 7.18 44.924 0.263 7.44 61.16 11.4
1/4/2023 1:15:00 PM 7.2 44.96 0.264 7.44 61 11.41
1/4/2023 1:30:00 PM 7.22 44.996 0.264 7.45 65.59 11.39
1/4/2023 1:45:00 PM 7.24 45.032 0.264 7.46 62.42 11.4
1/4/2023 2:00:00 PM 7.26 45.068 0.264 7.44 117 11.4
1/4/2023 2:15:00 PM 7.26 45.068 0.265 7.45 62.16 11.39
1/4/2023 2:30:00 PM 7.27 45.086 0.265 7.44 63.22 11.38
1/4/2023 2:45:00 PM 7.29 45.122 0.265 7.44 60.97 11.37
1/4/2023 3:00:00 PM 7.3 45.14 0.265 7.44 62.88 11.34
1/4/2023 3:15:00 PM 7.31 45.158 0.266 7.46 63.62 11.36
1/4/2023 3:30:00 PM 7.33 45.194 0.266 7.47 62.12 11.35
1/4/2023 3:45:00 PM 7.34 45.212 0.266 7.45 61.34 11.34
1/4/2023 4:00:00 PM 7.36 45.248 0.267 7.37 64.73 11.32
1/4/2023 4:15:00 PM 7.38 45.284 0.267 7.46 61.17 11.32
1/4/2023 4:30:00 PM 7.39 45.302 0.267 7.47 64.67 11.32
1/4/2023 4:45:00 PM 7.41 45.338 0.267 7.47 62.84 11.33
1/4/2023 5:00:00 PM 7.42 45.356 0.26 7.47 62.16 11.3
1/4/2023 5:15:00 PM 7.44 45.392 0.266 7.47 62.6 11.31
1/4/2023 5:30:00 PM 7.45 45.41 0.263 7.47 85.7 11.3
1/4/2023 5:45:00 PM 7.46 45.428 0.267 7.44 62.93 11.3
1/4/2023 6:00:00 PM 7.47 45.446 0.259 7.48 65.97 11.3
1/4/2023 6:15:00 PM 7.48 45.464 0.243 7.47 60.45 11.3
1/4/2023 6:30:00 PM 7.49 45.482 0.265 7.47 60.81 11.3
1/4/2023 6:45:00 PM 7.5 45.5 0.267 7.47 60.09 11.3
1/4/2023 7:00:00 PM 7.5 45.5 0.267 7.47 59.11 11.3
1/4/2023 7:15:00 PM 7.51 45.518 0.229 7.48 58.44 11.29
1/4/2023 7:30:00 PM 7.52 45.536 0.263 7.48 57.59 11.28
1/4/2023 7:45:00 PM 7.53 45.554 0.24 7.47 56.24 11.27
1/4/2023 8:00:00 PM 7.53 45.554 0.258 7.4 57.43 11.27
1/4/2023 8:15:00 PM 7.54 45.572 0.263 7.48 55.89 11.28
1/4/2023 8:30:00 PM 7.54 45.572 0.228 7.47 56.22 11.28
1/4/2023 8:45:00 PM 7.55 45.59 0.263 7.49 57.62 11.26
1/4/2023 9:00:00 PM 7.54 45.572 0.261 7.49 57.19 11.26
1/4/2023 9:15:00 PM 7.54 45.572 0.263 7.48 72.54 11.26
1/4/2023 9:30:00 PM 7.53 45.554 0.26 7.5 55.54 11.25
1/4/2023 9:45:00 PM 7.52 45.536 0.261 7.47 162.1 11.25
1/4/2023 10:00:00 PM 7.53 45.554 0.26 7.49 54.09 11.24
1/4/2023 10:15:00 PM 7.53 45.554 0.26 7.48 56.63 11.25
1/4/2023 10:30:00 PM 7.53 45.554 0.26 7.46 54.97 11.24
1/4/2023 10:45:00 PM 7.54 45.572 0.251 7.48 55.03 11.24
1/4/2023 11:00:00 PM 7.54 45.572 0.258 7.48 53.89 11.24
1/4/2023 11:15:00 PM 7.54 45.572 0.26 7.46 54.15 11.24
1/4/2023 11:30:00 PM 7.53 45.554 0.259 7.48 55.11 11.24
1/4/2023 11:45:00 PM 7.52 45.536 0.257 7.47 58.25 11.23
1/5/2023 12:00:00 AM 7.51 45.518 0.253 7.47 58.79 11.23
1/5/2023 12:15:00 AM 7.5 45.5 0.252 7.46 56.76 11.24
1/5/2023 12:30:00 AM 7.48 45.464 0.253 7.46 57.63 11.23
1/5/2023 12:45:00 AM 7.48 45.464 0.256 7.45 57.12 11.23
1/5/2023 1:00:00 AM 7.47 45.446 0.251 7.44 57.37 11.22
1/5/2023 1:15:00 AM 7.47 45.446 0.242 7.4 61.01 11.24
1/5/2023 1:30:00 AM 7.46 45.428 0.24 7.43 57.71 11.24
1/5/2023 1:45:00 AM 7.44 45.392 0.255 7.45 58.94 11.24
1/5/2023 2:00:00 AM 7.43 45.374 0.256 7.45 62.73 11.24
1/5/2023 2:15:00 AM 7.41 45.338 0.257 7.46 57.81 11.24
1/5/2023 2:30:00 AM 7.4 45.32 0.243 7.46 78.39 11.25
1/5/2023 2:45:00 AM 7.39 45.302 0.252 7.44 56.55 11.24
1/5/2023 3:00:00 AM 7.38 45.284 0.254 7.46 68.57 11.22
1/5/2023 3:15:00 AM 7.38 45.284 0.254 7.36 55.84 11.22
1/5/2023 3:30:00 AM 7.37 45.266 0.245 7.38 62.06 11.23
1/5/2023 3:45:00 AM 7.36 45.248 0.254 7.45 55.21 11.24
1/5/2023 4:00:00 AM 7.35 45.23 0.256 7.47 55.94 11.25
1/5/2023 4:15:00 AM 7.34 45.212 0.244 7.46 55.16 11.24
1/5/2023 4:30:00 AM 7.34 45.212 0.237 7.46 51.95 11.24
1/5/2023 4:45:00 AM 7.33 45.194 0.258 7.46 70.89 11.23
1/5/2023 5:00:00 AM 7.32 45.176 0.258 7.41 53.32 11.26
1/5/2023 5:15:00 AM 7.3 45.14 0.258 7.46 58.68 11.26
1/5/2023 5:30:00 AM 7.29 45.122 0.258 7.45 55.75 11.26
1/5/2023 5:45:00 AM 7.28 45.104 0.258 7.46 55.09 11.26
1/5/2023 6:00:00 AM 7.27 45.086 0.259 7.47 110.9 11.26
1/5/2023 6:15:00 AM 7.25 45.05 0.259 7.47 97.11 11.26
1/5/2023 6:30:00 AM 7.24 45.032 0.26 7.44 56.45 11.25
1/5/2023 6:45:00 AM 7.23 45.014 0.259 7.45 158.4 11.26
1/5/2023 7:00:00 AM 7.21 44.978 0.259 7.44 72.69 11.26
1/5/2023 7:15:00 AM 7.2 44.96 0.259 7.45 50.43 11.27
1/5/2023 7:30:00 AM 7.18 44.924 0.257 7.41 79.19 11.26
1/5/2023 7:45:00 AM 7.17 44.906 0.259 7.4 79.25 11.26
1/5/2023 8:00:00 AM 7.16 44.888 0.259 7.39 68.44 11.27
1/5/2023 8:15:00 AM 7.14 44.852 0.259 7.39 47.24 11.28
1/5/2023 8:30:00 AM 7.14 44.852 0.259 7.39 152.1 11.28
1/5/2023 8:45:00 AM 7.13 44.834 0.259 7.41 49 11.28
1/5/2023 9:00:00 AM 7.13 44.834 0.259 7.44 49.29 11.3
1/5/2023 9:15:00 AM 7.14 44.852 0.259 7.33 53.32 11.31
1/5/2023 9:30:00 AM 7.15 44.87 0.259 7.36 49.62 11.31
1/5/2023 9:45:00 AM 7.17 44.906 0.259 7.46 48.32 11.34
1/5/2023 10:00:00 AM 7.19 44.942 0.259 7.45 74.63 11.34
1/5/2023 10:15:00 AM 7.21 44.978 0.259 7.45 57.51 11.37
1/5/2023 10:30:00 AM 7.24 45.032 0.259 7.46 52.57 11.38
1/5/2023 10:45:00 AM 7.27 45.086 0.26 7.46 59.83 11.37
1/5/2023 11:00:00 AM 7.31 45.158 0.259 7.48 56.64 11.39
1/5/2023 11:15:00 AM 7.35 45.23 0.26 7.48 41.8 11.39
1/5/2023 11:30:00 AM 7.4 45.32 0.26 7.4 40.82 11.42
1/5/2023 11:45:00 AM 7.44 45.392 0.26 7.48 80.67 11.42
1/5/2023 12:00:00 PM 7.49 45.482 0.26 7.49 76.28 11.43
1/5/2023 12:15:00 PM 7.56 45.608 0.26 7.49 88.76 11.44
1/5/2023 12:30:00 PM 7.63 45.734 0.26 7.5 77.81 11.43
1/5/2023 12:45:00 PM 7.71 45.878 0.26 7.52 78.05 11.44
1/5/2023 1:00:00 PM 7.78 46.004 0.26 7.53 132.3 11.42
1/5/2023 1:15:00 PM 7.84 46.112 0.26 7.54 128.6 11.44
1/5/2023 1:30:00 PM 7.85 46.13 0.26 7.53 89.03 11.43
1/5/2023 1:45:00 PM 7.87 46.166 0.26 7.54 77.42 11.43
1/5/2023 2:00:00 PM 7.91 46.238 0.26 7.54 71.48 11.42
1/5/2023 2:15:00 PM 7.96 46.328 0.26 7.54 79.89 11.4
1/5/2023 2:30:00 PM 8 46.4 0.26 7.54 71.37 11.42
1/5/2023 2:45:00 PM 8.01 46.418 0.26 7.55 69.06 11.42
1/5/2023 3:00:00 PM 7.99 46.382 0.26 7.56 70.49 11.4
1/5/2023 3:15:00 PM 7.96 46.328 0.26 7.56 83.3 11.38
1/5/2023 3:30:00 PM 7.97 46.346 0.26 7.56 76.84 11.39
1/5/2023 3:45:00 PM 7.97 46.346 0.26 7.57 105.7 11.36
1/5/2023 4:00:00 PM 7.96 46.328 0.26 7.55 69.2 11.36
1/5/2023 4:15:00 PM 7.95 46.31 0.26 7.56 74.86 11.37
1/5/2023 4:30:00 PM 7.93 46.274 0.261 7.56 261.7 11.35
1/5/2023 4:45:00 PM 7.92 46.256 0.261 7.57 68.22 11.33
1/5/2023 5:00:00 PM 7.91 46.238 0.261 7.55 72.16 11.32
1/5/2023 5:15:00 PM 7.91 46.238 0.261 7.57 81.25 11.3
1/5/2023 5:30:00 PM 7.91 46.238 0.261 7.58 131.4 11.3
1/5/2023 5:45:00 PM 7.92 46.256 0.262 7.56 124.5 11.28
1/5/2023 6:00:00 PM 7.94 46.292 0.262 7.57 224.4 11.29
1/5/2023 6:15:00 PM 7.95 46.31 0.262 7.58 155.7 11.28
1/5/2023 6:30:00 PM 7.96 46.328 0.262 7.58 92.2 11.27
1/5/2023 6:45:00 PM 7.98 46.364 0.263 7.57 123.6 11.25
1/5/2023 7:00:00 PM 7.99 46.382 0.263 7.58 177.2 11.27
1/5/2023 7:15:00 PM 7.99 46.382 0.263 7.59 413.1 11.24
1/5/2023 7:30:00 PM 7.99 46.382 0.263 7.59 201.9 11.26
1/5/2023 7:45:00 PM 7.99 46.382 0.258 7.6 348.2 11.28
1/5/2023 8:00:00 PM 7.99 46.382 0.261 7.6 198.2 11.28
1/5/2023 8:15:00 PM 7.98 46.364 0.263 7.58 201.1 11.28
1/5/2023 8:30:00 PM 7.98 46.364 0.263 7.53 359.9 11.27
1/5/2023 8:45:00 PM 7.97 46.346 0.265 7.47 433.8 11.26
1/5/2023 9:00:00 PM 7.96 46.328 0.262 7.53 446.9 11.27
1/5/2023 9:15:00 PM 7.94 46.292 0.264 7.49 181.8 11.26
1/5/2023 9:30:00 PM 7.93 46.274 0.265 7.56 89.23 11.27
1/5/2023 9:45:00 PM 7.92 46.256 0.265 7.57 103 11.26
1/5/2023 10:00:00 PM 7.91 46.238 0.265 7.58 300.8 11.25
1/5/2023 10:15:00 PM 7.9 46.22 0.265 7.58 262.9 11.26
1/5/2023 10:30:00 PM 7.9 46.22 0.266 7.58 306 11.25
1/5/2023 10:45:00 PM 7.89 46.202 0.266 7.6 305 11.24
1/5/2023 11:00:00 PM 7.89 46.202 0.266 7.59 181.8 11.24
1/5/2023 11:15:00 PM 7.88 46.184 0.266 7.59 223.8 11.24
1/5/2023 11:30:00 PM 7.87 46.166 0.267 7.59 279.5 11.24
1/5/2023 11:45:00 PM 7.86 46.148 0.266 7.58 336.4 11.22
1/6/2023 12:00:00 AM 7.84 46.112 0.266 7.58 172.4 11.22
1/6/2023 12:15:00 AM 7.82 46.076 0.265 7.58 100.9 11.2
1/6/2023 12:30:00 AM 7.8 46.04 0.267 7.59 293.5 11.17
1/6/2023 12:45:00 AM 7.78 46.004 0.267 7.55 279.5 11.2
1/6/2023 1:00:00 AM 7.77 45.986 0.269 7.45 387.3 11.2
1/6/2023 1:15:00 AM 7.75 45.95 0.266 7.47 100.2 11.19
1/6/2023 1:30:00 AM 7.74 45.932 0.265 7.57 91.17 11.17
1/6/2023 1:45:00 AM 7.73 45.914 0.266 7.56 223.5 11.17
1/6/2023 2:00:00 AM 7.72 45.896 0.259 7.57 188.5 11.16
1/6/2023 2:15:00 AM 7.71 45.878 0.263 7.56 105.9 11.17
1/6/2023 2:30:00 AM 7.69 45.842 0.264 7.58 97 11.16
1/6/2023 2:45:00 AM 7.68 45.824 0.27 7.48 225.6 11.17
1/6/2023 3:00:00 AM 7.66 45.788 0.251 7.58 93.14 11.18
1/6/2023 3:15:00 AM 7.64 45.752 0.248 7.57 129.2 11.17
1/6/2023 3:30:00 AM 7.63 45.734 0.248 7.58 389.4 11.17
1/6/2023 3:45:00 AM 7.61 45.698 0.252 7.58 191.9 11.17
1/6/2023 4:00:00 AM 7.59 45.662 0.252 7.56 132.9 11.18
1/6/2023 4:15:00 AM 7.57 45.626 0.251 7.5 93.14 11.17
1/6/2023 4:30:00 AM 7.56 45.608 0.247 7.57 178.1 11.18
1/6/2023 4:45:00 AM 7.54 45.572 0.245 7.57 188.1 11.18
1/6/2023 5:00:00 AM 7.52 45.536 0.244 7.53 256.8 11.19
1/6/2023 5:15:00 AM 7.5 45.5 0.24 7.56 102.1 11.2
1/6/2023 5:30:00 AM 7.48 45.464 0.246 7.57 97.38 11.19
1/6/2023 5:45:00 AM 7.47 45.446 0.246 7.57 120.8 11.2
1/6/2023 6:00:00 AM 7.45 45.41 0.246 7.48 90.53 11.21
1/6/2023 6:15:00 AM 7.43 45.374 0.272 7.56 221.8 11.21
1/6/2023 6:30:00 AM 7.41 45.338 0.272 7.52 292.4 11.21
1/6/2023 6:45:00 AM 7.4 45.32 0.272 7.57 99.98 11.21
1/6/2023 7:00:00 AM 7.38 45.284 0.27 7.57 137.7 11.21
1/6/2023 7:15:00 AM 7.37 45.266 0.272 7.56 112.7 11.21
1/6/2023 7:30:00 AM 7.35 45.23 0.273 7.56 118.7 11.22
1/6/2023 7:45:00 AM 7.33 45.194 0.273 7.47 194.9 11.23
1/6/2023 8:00:00 AM 7.32 45.176 0.273 7.5 91.8 11.24
1/6/2023 8:15:00 AM 7.31 45.158 0.273 7.47 107.8 11.22
1/6/2023 8:30:00 AM 7.31 45.158 0.273 7.59 163.9 11.23
1/6/2023 8:45:00 AM 7.3 45.14 0.274 7.58 94.22 11.26
1/6/2023 9:00:00 AM 7.3 45.14 0.274 7.57 428.7 11.28
1/6/2023 9:15:00 AM 7.31 45.158 0.274 7.57 121.3 11.29
1/6/2023 9:30:00 AM 7.32 45.176 0.274 7.47 106.7 11.32
1/6/2023 9:45:00 AM 7.33 45.194 0.275 7.51 313.4 11.3
1/6/2023 10:00:00 AM 7.32 45.176 0.275 7.57 120.6 11.34
1/6/2023 10:15:00 AM 7.31 45.158 0.275 7.58 168 11.36
1/6/2023 10:30:00 AM 7.31 45.158 0.275 7.58 127.9 11.37
1/6/2023 10:45:00 AM 7.31 45.158 0.275 7.59 124.3 11.38
1/6/2023 11:00:00 AM 7.32 45.176 0.275 7.59 185.6 11.4
1/6/2023 11:15:00 AM 7.35 45.23 0.275 7.6 121.3 11.41
1/6/2023 11:30:00 AM 7.37 45.266 0.275 7.59 135.6 11.42
1/6/2023 11:45:00 AM 7.4 45.32 0.275 7.61 153.7 11.43
1/6/2023 12:00:00 PM 7.43 45.374 0.275 7.61 110.3 11.43
1/6/2023 12:15:00 PM 7.44 45.392 0.275 7.54 407.4 11.43
1/6/2023 12:30:00 PM 7.44 45.392 0.275 7.61 116.9 11.43
1/6/2023 12:45:00 PM 7.45 45.41 0.276 7.6 134.8 11.42
1/6/2023 1:00:00 PM 7.46 45.428 0.276 7.61 154.4 11.42
1/6/2023 1:15:00 PM 7.55 45.59 0.276 7.55 295.7 11.41
1/6/2023 1:30:00 PM 7.56 45.608 0.276 7.62 184 11.41
1/6/2023 1:45:00 PM 7.56 45.608 0.276 7.63 119.5 11.44
1/6/2023 2:00:00 PM 7.54 45.572 0.276 7.62 127.4 11.44
1/6/2023 2:15:00 PM 7.5 45.5 0.276 7.62 124.5 11.44
1/6/2023 2:30:00 PM 7.47 45.446 0.276 7.62 166.3 11.43
1/6/2023 2:45:00 PM 7.44 45.392 0.276 7.61 120.5 11.42
1/6/2023 3:00:00 PM 7.41 45.338 0.276 7.56 155.9 11.43
1/6/2023 3:15:00 PM 7.4 45.32 0.276 7.61 124.9 11.42
1/6/2023 3:30:00 PM 7.38 45.284 0.276 7.64 178.8 11.41
1/6/2023 3:45:00 PM 7.37 45.266 0.277 7.63 144.2 11.43
1/6/2023 4:00:00 PM 7.35 45.23 0.277 7.62 263.3 11.44
1/6/2023 4:15:00 PM 7.33 45.194 0.277 7.54 146.2 11.43
1/6/2023 4:30:00 PM 7.32 45.176 0.277 7.63 179.2 11.42
1/6/2023 4:45:00 PM 7.31 45.158 0.277 7.64 246.9 11.43
1/6/2023 5:00:00 PM 7.31 45.158 0.277 7.64 259 11.4
1/6/2023 5:15:00 PM 7.31 45.158 0.277 7.64 278 11.42
1/6/2023 5:30:00 PM 7.31 45.158 0.278 7.64 252.4 11.42
1/6/2023 5:45:00 PM 7.3 45.14 0.278 7.58 138.9 11.42
1/6/2023 6:00:00 PM 7.28 45.104 0.278 7.64 326.4 11.43
1/6/2023 6:15:00 PM 7.26 45.068 0.278 7.65 179.3 11.43
1/6/2023 6:30:00 PM 7.25 45.05 0.278 7.64 181.5 11.44
1/6/2023 6:45:00 PM 7.23 45.014 0.278 7.64 176.5 11.44
1/6/2023 7:00:00 PM 7.22 44.996 0.279 7.65 268.9 11.46
1/6/2023 7:15:00 PM 7.2 44.96 0.279 7.66 169.9 11.46
1/6/2023 7:30:00 PM 7.17 44.906 0.279 7.64 136.9 11.46
1/6/2023 7:45:00 PM 7.16 44.888 0.279 7.57 140.8 11.49
1/6/2023 8:00:00 PM 7.14 44.852 0.279 7.64 264.5 11.5
1/6/2023 8:15:00 PM 7.12 44.816 0.279 7.65 121.4 11.51
1/6/2023 8:30:00 PM 7.1 44.78 0.279 7.65 146.3 11.5
1/6/2023 8:45:00 PM 7.09 44.762 0.279 7.65 150.6 11.51
1/6/2023 9:00:00 PM 7.06 44.708 0.279 7.65 9.63 11.52
1/6/2023 9:15:00 PM 7.04 44.672 0.28 7.64 10.09 11.53
1/6/2023 9:30:00 PM 7.02 44.636 0.28 7.64 41.84 11.52
1/6/2023 9:45:00 PM 7 44.6 0.28 7.65 11.72 11.53
1/6/2023 10:00:00 PM 6.97 44.546 0.28 7.61 12.96 11.55
1/6/2023 10:15:00 PM 6.95 44.51 0.28 7.56 10.82 11.54
1/6/2023 10:30:00 PM 6.93 44.474 0.28 7.65 7.8 11.55
1/6/2023 10:45:00 PM 6.9 44.42 0.28 7.65 9.05 11.55
1/6/2023 11:00:00 PM 6.89 44.402 0.281 7.65 13.4 11.56
1/6/2023 11:15:00 PM 6.87 44.366 0.281 7.63 14.08 11.56
1/6/2023 11:30:00 PM 6.85 44.33 0.281 7.64 9.45 11.55
1/6/2023 11:45:00 PM 6.83 44.294 0.281 7.55 184.5 11.53
1/7/2023 12:00:00 AM 6.81 44.258 0.281 7.64 13.33 11.56
1/7/2023 12:15:00 AM 6.79 44.222 0.281 7.63 35.49 11.56
1/7/2023 12:30:00 AM 6.77 44.186 0.281 7.6 12.17 11.57
1/7/2023 12:45:00 AM 6.76 44.168 0.281 7.64 14.02 11.55
1/7/2023 1:00:00 AM 6.75 44.15 0.282 7.62 24.55 11.55
1/7/2023 1:15:00 AM 6.73 44.114 0.282 7.64 53.3 11.55
1/7/2023 1:30:00 AM 6.72 44.096 0.281 7.54 11.98 11.55
1/7/2023 1:45:00 AM 6.7 44.06 0.283 7.57 52.41 11.56
1/7/2023 2:00:00 AM 6.69 44.042 0.282 7.63 14.08 11.55
1/7/2023 2:15:00 AM 6.67 44.006 0.282 7.63 9.09 11.55
1/7/2023 2:30:00 AM 6.65 43.97 0.282 7.62 15.02 11.54
1/7/2023 2:45:00 AM 6.64 43.952 0.282 7.62 15.36 11.55
1/7/2023 3:00:00 AM 6.62 43.916 0.282 7.53 9.19 11.54
1/7/2023 3:15:00 AM 6.6 43.88 0.283 7.55 13.49 11.55
1/7/2023 3:30:00 AM 6.58 43.844 0.283 7.57 42.12 11.55
1/7/2023 3:45:00 AM 6.55 43.79 0.283 7.56 146 11.55
1/7/2023 4:00:00 AM 6.53 43.754 0.283 7.63 18.54 11.56
1/7/2023 4:15:00 AM 6.5 43.7 0.283 7.62 33.25 11.56
1/7/2023 4:30:00 AM 6.48 43.664 0.284 7.62 24.51 11.55
1/7/2023 4:45:00 AM 6.46 43.628 0.284 7.53 24.41 11.55
1/7/2023 5:00:00 AM 6.44 43.592 0.284 7.53 13.68 11.56
1/7/2023 5:15:00 AM 6.43 43.574 0.284 7.6 14.05 11.56
1/7/2023 5:30:00 AM 6.41 43.538 0.285 7.61 364 11.56
1/7/2023 5:45:00 AM 6.4 43.52 0.285 7.6 479 11.57
1/7/2023 6:00:00 AM 6.38 43.484 0.285 7.59 10.6 11.58
1/7/2023 6:15:00 AM 6.38 43.484 0.28 7.59 321 11.57
1/7/2023 6:30:00 AM 6.37 43.466 0.285 7.48 281.4 11.58
1/7/2023 6:45:00 AM 6.35 43.43 0.285 7.48 434.7 11.57
1/7/2023 7:00:00 AM 6.34 43.412 0.28 7.57 299.5 11.6
1/7/2023 7:15:00 AM 6.32 43.376 0.286 7.57 279.2 11.6
1/7/2023 7:30:00 AM 6.31 43.358 0.286 7.59 20.62 11.61
1/7/2023 7:45:00 AM 6.29 43.322 0.286 7.6 7.98 11.62
1/7/2023 8:00:00 AM 6.28 43.304 0.286 7.5 31.89 11.62
1/7/2023 8:15:00 AM 6.28 43.304 0.286 7.53 81.75 11.63
1/7/2023 8:30:00 AM 6.27 43.286 0.286 7.6 350.2 11.64
1/7/2023 8:45:00 AM 6.27 43.286 0.286 7.61 11.96 11.66
1/7/2023 9:00:00 AM 6.27 43.286 0.287 7.61 170.1 11.67
1/7/2023 9:15:00 AM 6.27 43.286 0.287 7.5 88.49 11.71
1/7/2023 9:30:00 AM 6.27 43.286 0.287 7.54 9.04 11.73
1/7/2023 9:45:00 AM 6.28 43.304 0.287 7.62 14.32 11.77
1/7/2023 10:00:00 AM 6.3 43.34 0.287 7.61 39.54 11.79
1/7/2023 10:15:00 AM 6.32 43.376 0.287 7.62 24.59 11.82
1/7/2023 10:30:00 AM 6.34 43.412 0.287 7.53 12.16 11.84
1/7/2023 10:45:00 AM 6.35 43.43 0.288 7.54 8.34 11.85
1/7/2023 11:00:00 AM 6.36 43.448 0.288 7.56 11.02 11.88
1/7/2023 11:15:00 AM 6.35 43.43 0.288 7.52 20.04 11.88
1/7/2023 11:30:00 AM 6.36 43.448 0.288 7.53 9.55 11.89
1/7/2023 11:45:00 AM 6.38 43.484 0.288 7.51 40.93 11.9
1/7/2023 12:00:00 PM 6.4 43.52 0.288 7.51 15.63 11.91
1/7/2023 12:15:00 PM 6.42 43.556 0.288 7.51 14.07 11.92
1/7/2023 12:30:00 PM 6.46 43.628 0.288 7.52 14.73 11.93
1/7/2023 12:45:00 PM 6.48 43.664 0.288 7.54 25.87 11.92
1/7/2023 1:00:00 PM 6.49 43.682 0.288 7.52 9.06 11.92
1/7/2023 1:15:00 PM 6.48 43.664 0.289 7.51 8.3 11.91
1/7/2023 1:30:00 PM 6.49 43.682 0.289 7.54 8 11.92
1/7/2023 1:45:00 PM 6.49 43.682 0.289 7.52 11.31 11.93
1/7/2023 2:00:00 PM 6.47 43.646 0.289 7.55 49.34 11.92
1/7/2023 2:15:00 PM 6.56 43.808 0.289 7.58 129.4 11.92
1/7/2023 2:30:00 PM 6.58 43.844 0.289 7.54 28.68 11.93
1/7/2023 2:45:00 PM 6.59 43.862 0.289 7.63 55.79 11.94
1/7/2023 3:00:00 PM 6.57 43.826 0.29 7.64 11.69 11.94
1/7/2023 3:15:00 PM 6.56 43.808 0.29 7.65 9.39 11.95
1/7/2023 3:30:00 PM 6.53 43.754 0.29 7.63 21.92 11.95
1/7/2023 3:45:00 PM 6.5 43.7 0.29 7.64 11.11 11.94
1/7/2023 4:00:00 PM 6.48 43.664 0.291 7.55 362.5 11.92
1/7/2023 4:15:00 PM 6.46 43.628 0.291 7.64 17.19 11.94
1/7/2023 4:30:00 PM 6.44 43.592 0.291 7.62 28.98 11.92
1/7/2023 4:45:00 PM 6.43 43.574 0.291 7.62 9.65 11.89
1/7/2023 5:00:00 PM 6.41 43.538 0.291 7.64 15.36 11.89
1/7/2023 5:15:00 PM 6.39 43.502 0.291 7.62 17.95 11.88
1/7/2023 5:30:00 PM 6.38 43.484 0.291 7.53 122.4 11.86
1/7/2023 5:45:00 PM 6.37 43.466 0.291 7.56 16 11.86
1/7/2023 6:00:00 PM 6.36 43.448 0.291 7.55 108.6 11.85
1/7/2023 6:15:00 PM 6.35 43.43 0.291 7.56 12.36 11.83
1/7/2023 6:30:00 PM 6.35 43.43 0.291 7.55 95.78 11.84
1/7/2023 6:45:00 PM 6.34 43.412 0.288 7.55 128 11.84
1/7/2023 7:00:00 PM 6.32 43.376 0.291 7.55 84.57 11.86
1/7/2023 7:15:00 PM 6.31 43.358 0.291 7.57 10.93 11.87
1/7/2023 7:30:00 PM 6.3 43.34 0.289 7.59 117.8 11.88
1/7/2023 7:45:00 PM 6.28 43.304 0.289 7.68 16.64 11.88
1/7/2023 8:00:00 PM 6.27 43.286 0.258 7.62 366.8 11.88
1/7/2023 8:15:00 PM 6.24 43.232 0.29 7.57 268.5 11.92
1/7/2023 8:30:00 PM 6.22 43.196 0.283 7.67 100.3 11.92
1/7/2023 8:45:00 PM 6.19 43.142 0.254 7.68 114.1 11.94
1/7/2023 9:00:00 PM 6.16 43.088 0.29 7.66 77.31 11.93
1/7/2023 9:15:00 PM 6.12 43.016 0.265 7.67 21.97 11.95
1/7/2023 9:30:00 PM 6.09 42.962 0.253 7.66 247.4 11.94
1/7/2023 9:45:00 PM 6.05 42.89 0.293 7.68 15.96 11.97
1/7/2023 10:00:00 PM 6.02 42.836 0.29 7.65 27.92 11.98
1/7/2023 10:15:00 PM 5.99 42.782 0.293 7.55 290.7 11.99
1/7/2023 10:30:00 PM 5.96 42.728 0.293 7.57 40.91 11.97
1/7/2023 10:45:00 PM 5.95 42.71 0.293 7.58 26.59 12
1/7/2023 11:00:00 PM 5.93 42.674 0.293 7.59 89.22 12
1/7/2023 11:15:00 PM 5.91 42.638 0.293 7.58 173.3 12.01
1/7/2023 11:30:00 PM 5.89 42.602 0.293 7.58 349.3 12
1/7/2023 11:45:00 PM 5.87 42.566 0.294 7.59 259.9 11.99
1/8/2023 12:00:00 AM 5.87 42.566 0.294 7.59 262.5 11.99
1/8/2023 12:15:00 AM 5.87 42.566 0.294 7.6 74.94 11.99
1/8/2023 12:30:00 AM 5.88 42.584 0.294 7.59 26.23 11.99
1/8/2023 12:45:00 AM 5.89 42.602 0.294 7.57 291.7 11.99
1/8/2023 1:00:00 AM 5.89 42.602 0.294 7.58 119.5 11.96
1/8/2023 1:15:00 AM 5.89 42.602 0.295 7.56 176.2 11.97
1/8/2023 1:30:00 AM 5.89 42.602 0.295 7.58 249.4 11.97
1/8/2023 1:45:00 AM 5.88 42.584 0.295 7.56 345.7 11.95
1/8/2023 2:00:00 AM 5.87 42.566 0.295 7.58 303.2 11.94
1/8/2023 2:15:00 AM 5.87 42.566 0.295 7.58 81.9 11.95
1/8/2023 2:30:00 AM 5.86 42.548 0.295 7.58 186.1 11.94
1/8/2023 2:45:00 AM 5.85 42.53 0.296 7.59 219.1 11.93
1/8/2023 3:00:00 AM 5.84 42.512 0.295 7.6 43.72 11.94
1/8/2023 3:15:00 AM 5.83 42.494 0.295 7.6 195.1 11.92
1/8/2023 3:30:00 AM 5.83 42.494 0.294 7.58 23.74 11.91
1/8/2023 3:45:00 AM 5.83 42.494 0.291 7.57 66.11 11.91
1/8/2023 4:00:00 AM 5.82 42.476 0.288 7.57 167.6 11.91
1/8/2023 4:15:00 AM 5.82 42.476 0.283 7.56 179.8 11.9
1/8/2023 4:30:00 AM 5.8 42.44 0.282 7.57 16.64 11.89
1/8/2023 4:45:00 AM 5.79 42.422 0.285 7.56 264.4 11.88
1/8/2023 5:00:00 AM 5.76 42.368 0.296 7.56 170.3 11.89
1/8/2023 5:15:00 AM 5.73 42.314 0.297 7.57 333.8 11.87
1/8/2023 5:30:00 AM 5.7 42.26 0.297 7.55 218.7 11.87
1/8/2023 5:45:00 AM 5.67 42.206 0.297 7.56 343.5 11.88
1/8/2023 6:00:00 AM 5.64 42.152 0.297 7.56 140 11.88
1/8/2023 6:15:00 AM 5.61 42.098 0.298 7.55 362 11.89
1/8/2023 6:30:00 AM 5.58 42.044 0.274 7.55 253.8 11.89
1/8/2023 6:45:00 AM 5.55 41.99 0.297 7.55 30.73 11.89
1/8/2023 7:00:00 AM 5.52 41.936 0.291 7.56 308.5 11.89
1/8/2023 7:15:00 AM 5.49 41.882 0.298 7.56 300 11.9
1/8/2023 7:30:00 AM 5.46 41.828 0.298 7.56 333.9 11.9
1/8/2023 7:45:00 AM 5.43 41.774 0.298 7.55 285.3 11.9
1/8/2023 8:00:00 AM 5.41 41.738 0.298 7.55 389.1 11.93
1/8/2023 8:15:00 AM 5.38 41.684 0.299 7.55 296.6 11.95
1/8/2023 8:30:00 AM 5.37 41.666 0.299 7.56 188.1 11.98
1/8/2023 8:45:00 AM 5.35 41.63 0.299 7.56 242.7 11.99
1/8/2023 9:00:00 AM 5.36 41.648 0.299 7.55 121.5 12.02
1/8/2023 9:15:00 AM 5.37 41.666 0.299 7.55 221 12.05
1/8/2023 9:30:00 AM 5.37 41.666 0.299 7.54 88.33 12.06
1/8/2023 9:45:00 AM 5.39 41.702 0.3 7.55 244.4 12.1
1/8/2023 10:00:00 AM 5.39 41.702 0.3 7.56 96.24 12.11
1/8/2023 10:15:00 AM 5.41 41.738 0.3 7.54 230.7 12.13
1/8/2023 10:30:00 AM 5.43 41.774 0.3 7.49 236.9 12.16
1/8/2023 10:45:00 AM 5.46 41.828 0.3 7.53 353.7 12.19
1/8/2023 11:00:00 AM 5.51 41.918 0.3 7.54 107.4 12.21
1/8/2023 11:15:00 AM 5.54 41.972 0.3 7.56 153.4 12.24
1/8/2023 11:30:00 AM 5.59 42.062 0.3 7.57 270.1 12.25
1/8/2023 11:45:00 AM 5.63 42.134 0.301 7.57 179.9 12.26
1/8/2023 12:00:00 PM 5.67 42.206 0.301 7.58 402.9 12.26
1/8/2023 12:15:00 PM 5.71 42.278 0.301 7.59 333.7 12.28
1/8/2023 12:30:00 PM 5.76 42.368 0.301 7.59 298.3 12.28
1/8/2023 12:45:00 PM 5.8 42.44 0.301 7.6 304.4 12.29
1/8/2023 1:00:00 PM 5.81 42.458 0.301 7.63 379 12.3
1/8/2023 1:15:00 PM 5.82 42.476 0.301 7.59 327.7 12.28
1/8/2023 1:30:00 PM 5.82 42.476 0.301 7.58 318.6 12.31
1/8/2023 1:45:00 PM 5.81 42.458 0.302 7.61 337 12.3
1/8/2023 2:00:00 PM 5.8 42.44 0.302 7.59 187.9 12.29
1/8/2023 2:15:00 PM 5.8 42.44 0.302 7.6 315 12.28
1/8/2023 2:30:00 PM 5.77 42.386 0.302 7.59 375.5 12.29
1/8/2023 2:45:00 PM 5.76 42.368 0.302 7.59 289.6 12.27
1/8/2023 3:00:00 PM 5.75 42.35 0.302 7.59 374.4 12.27
1/8/2023 3:15:00 PM 5.74 42.332 0.302 7.61 358.1 12.28
1/8/2023 3:30:00 PM 5.71 42.278 0.302 7.61 246.1 12.28
1/8/2023 3:45:00 PM 5.69 42.242 0.303 7.6 338.9 12.26
1/8/2023 4:00:00 PM 5.65 42.17 0.303 7.62 78.67 12.26
1/8/2023 4:15:00 PM 5.63 42.134 0.303 7.61 27.07 12.25
1/8/2023 4:30:00 PM 5.6 42.08 0.303 7.56 25 12.23
1/8/2023 4:45:00 PM 5.57 42.026 0.303 7.55 371.4 12.21
1/8/2023 5:00:00 PM 5.54 41.972 0.304 7.57 59.84 12.21
1/8/2023 5:15:00 PM 5.51 41.918 0.304 7.53 146.5 12.18
1/8/2023 5:30:00 PM 5.49 41.882 0.304 7.54 1862 12.17
1/8/2023 5:45:00 PM 5.47 41.846 0.304 7.53 63.16 12.16
1/8/2023 6:00:00 PM 5.47 41.846 0.304 7.54 46.61 12.15
1/8/2023 6:15:00 PM 5.47 41.846 0.294 7.53 172.5 12.14
1/8/2023 6:30:00 PM 5.48 41.864 0.296 7.57 179.6 12.14
1/8/2023 6:45:00 PM 5.48 41.864 0.287 7.53 71.56 12.14
1/8/2023 7:00:00 PM 5.49 41.882 0.304 7.52 440.7 12.15
1/8/2023 7:15:00 PM 5.51 41.918 0.304 7.54 370.7 12.14
1/8/2023 7:30:00 PM 5.51 41.918 0.305 7.54 275.2 12.15
1/8/2023 7:45:00 PM 5.52 41.936 0.305 7.56 300.9 12.16
1/8/2023 8:00:00 PM 5.53 41.954 0.305 7.55 251.8 12.15
1/8/2023 8:15:00 PM 5.53 41.954 0.305 7.51 101.8 12.17
1/8/2023 8:30:00 PM 5.53 41.954 0.306 7.5 138.7 12.17
1/8/2023 8:45:00 PM 5.52 41.936 0.306 7.54 291.2 12.17
1/8/2023 9:00:00 PM 5.52 41.936 0.306 7.54 254.8 12.19
1/8/2023 9:15:00 PM 5.51 41.918 0.306 7.54 82.46 12.19
1/8/2023 9:30:00 PM 5.5 41.9 0.306 7.57 132.5 12.17
1/8/2023 9:45:00 PM 5.49 41.882 0.306 7.59 277.3 12.2
1/8/2023 10:00:00 PM 5.47 41.846 0.306 7.59 221.5 12.2
1/8/2023 10:15:00 PM 5.46 41.828 0.306 7.58 174.7 12.21
1/8/2023 10:30:00 PM 5.44 41.792 0.306 7.59 49 12.2
1/8/2023 10:45:00 PM 5.41 41.738 0.306 7.59 27.4 12.22
1/8/2023 11:00:00 PM 5.4 41.72 0.306 7.6 60.19 12.22
1/8/2023 11:15:00 PM 5.38 41.684 0.306 7.6 75.36 12.21
1/8/2023 11:30:00 PM 5.37 41.666 0.306 7.6 89.22 12.22
1/8/2023 11:45:00 PM 5.36 41.648 0.306 7.57 75.68 12.22
1/9/2023 12:00:00 AM 5.35 41.63 0.307 7.61 173.1 12.21
1/9/2023 12:15:00 AM 5.34 41.612 0.307 7.59 43.4 12.21
1/9/2023 12:30:00 AM 5.33 41.594 0.307 7.6 54.11 12.21
1/9/2023 12:45:00 AM 5.32 41.576 0.307 7.58 43.79 12.18
1/9/2023 1:00:00 AM 5.31 41.558 0.307 7.59 69.14 12.19
1/9/2023 1:15:00 AM 5.29 41.522 0.307 7.57 58.82 12.2
1/9/2023 1:30:00 AM 5.26 41.468 0.307 7.57 40.67 12.18
1/9/2023 1:45:00 AM 5.25 41.45 0.307 7.58 60.26 12.17
1/9/2023 2:00:00 AM 5.21 41.378 0.307 7.57 314.7 12.14
1/9/2023 2:15:00 AM 5.13 41.234 0.307 7.58 60.84 12.13
1/9/2023 2:30:00 AM 5.02 41.036 0.307 7.59 210.6 12.14
1/9/2023 2:45:00 AM 5.03 41.054 0.307 7.58 77.88 12.12
1/9/2023 3:00:00 AM 5.02 41.036 0.307 7.56 181.4 12.13
1/9/2023 3:15:00 AM 5.01 41.018 0.308 7.57 174.1 12.13
1/9/2023 3:30:00 AM 5.03 41.054 0.308 7.55 285.9 12.14
1/9/2023 3:45:00 AM 5.03 41.054 0.308 7.57 354.4 12.13
1/9/2023 4:00:00 AM 5.04 41.072 0.308 7.57 293.3 12.12
1/9/2023 4:15:00 AM 5.03 41.054 0.308 7.55 226.4 12.11
1/9/2023 4:30:00 AM 5.02 41.036 0.308 7.55 154.7 12.13
1/9/2023 4:45:00 AM 5.01 41.018 0.308 7.56 8.01 12.13
1/9/2023 5:00:00 AM 5 41 0.309 7.55 11.58 12.12
1/9/2023 5:15:00 AM 4.99 40.982 0.309 7.56 28.97 12.1
1/9/2023 5:30:00 AM 4.98 40.964 0.309 7.56 274.8 12.11
1/9/2023 5:45:00 AM 4.96 40.928 0.308 7.56 301.4 12.11
1/9/2023 6:00:00 AM 4.93 40.874 0.309 7.55 148.5 12.12
1/9/2023 6:15:00 AM 4.9 40.82 0.309 7.57 301.4 12.11
1/9/2023 6:30:00 AM 4.86 40.748 0.309 7.56 350.1 12.13
1/9/2023 6:45:00 AM 4.82 40.676 0.31 7.55 98.13 12.13
1/9/2023 7:00:00 AM 4.78 40.604 0.31 7.56 330.4 12.13
1/9/2023 7:15:00 AM 4.74 40.532 0.31 7.55 174.1 12.13
1/9/2023 7:30:00 AM 4.71 40.478 0.31 7.55 9.02 12.13
1/9/2023 7:45:00 AM 4.69 40.442 0.31 7.54 143.8 12.14
1/9/2023 8:00:00 AM 4.67 40.406 0.31 7.54 417.7 12.15
1/9/2023 8:15:00 AM 4.65 40.37 0.31 7.53 294.7 12.17
1/9/2023 8:30:00 AM 4.62 40.316 0.31 7.55 34.51 12.18
1/9/2023 8:45:00 AM 4.6 40.28 0.31 7.54 243.6 12.19
1/9/2023 9:00:00 AM 4.59 40.262 0.31 7.55 252 12.23
1/9/2023 9:15:00 AM 4.59 40.262 0.311 7.54 138.4 12.26
1/9/2023 9:30:00 AM 4.59 40.262 0.311 7.54 190.8 12.27
1/9/2023 9:45:00 AM 4.6 40.28 0.311 7.55 263.1 12.3
1/9/2023 10:00:00 AM 4.6 40.28 0.311 7.54 123.7 12.33
1/9/2023 10:15:00 AM 4.61 40.298 0.311 7.57 61.93 12.36
1/9/2023 10:30:00 AM 4.61 40.298 0.311 7.58 108.3 12.39
1/9/2023 10:45:00 AM 4.61 40.298 0.311 7.59 87.84 12.41
1/9/2023 11:00:00 AM 4.62 40.316 0.311 7.59 78.55 12.42
1/9/2023 11:15:00 AM 4.67 40.406 0.311 7.58 115.4 12.42
1/9/2023 11:30:00 AM 4.73 40.514 0.311 7.59 122.4 12.44
1/9/2023 11:45:00 AM 4.8 40.64 0.312 7.59 172.5 12.46
1/9/2023 12:00:00 PM 4.87 40.766 0.312 7.59 193.9 12.48
1/9/2023 12:15:00 PM 4.96 40.928 0.312 7.59 174.3 12.47
1/9/2023 12:30:00 PM 5.06 41.108 0.312 7.59 251.6 12.48
1/9/2023 12:45:00 PM 5.16 41.288 0.312 7.6 113.1 12.49
1/9/2023 1:00:00 PM 5.25 41.45 0.312 7.6 343.5 12.49
1/9/2023 1:15:00 PM 5.31 41.558 0.312 7.61 275.3 12.43
1/9/2023 1:30:00 PM 5.38 41.684 0.312 7.62 162.8 12.47
1/9/2023 1:45:00 PM 5.39 41.702 0.312 7.63 257.6 12.39
1/9/2023 2:00:00 PM 5.43 41.774 0.312 7.63 179.1 12.45
1/9/2023 2:15:00 PM 5.43 41.774 0.312 7.62 47.23 12.47
1/9/2023 2:30:00 PM 5.42 41.756 0.312 7.63 21.43 12.48
1/9/2023 2:45:00 PM 5.39 41.702 0.312 7.62 136.4 12.48
1/9/2023 3:00:00 PM 5.37 41.666 0.312 7.61 47.8 12.47
1/9/2023 3:15:00 PM 5.29 41.522 0.312 7.65 187.5 12.48
1/9/2023 3:30:00 PM 5.24 41.432 0.313 7.64 207.1 12.47
1/9/2023 3:45:00 PM 5.15 41.27 0.313 7.72 103.4 12.46
1/9/2023 4:00:00 PM 5.08 41.144 0.313 7.72 122.6 12.44
1/9/2023 4:15:00 PM 5.02 41.036 0.313 7.71 325.2 12.43
1/9/2023 4:30:00 PM 4.96 40.928 0.313 7.68 140.9 12.41
1/9/2023 4:45:00 PM 4.91 40.838 0.313 7.54 218.2 12.41
1/9/2023 5:00:00 PM 4.86 40.748 0.313 7.59 121.5 12.39
1/9/2023 5:15:00 PM 4.83 40.694 0.314 7.6 310.5 12.36
1/9/2023 5:30:00 PM 4.81 40.658 0.261 7.6 274.4 12.36
1/9/2023 5:45:00 PM 4.79 40.622 0.298 7.61 40.74 12.34
1/9/2023 6:00:00 PM 4.77 40.586 0.309 7.6 141.9 12.34
1/9/2023 6:15:00 PM 4.76 40.568 0.312 7.6 169.8 12.33
1/9/2023 6:30:00 PM 4.75 40.55 0.311 7.61 210.1 12.31
1/9/2023 6:45:00 PM 4.74 40.532 0.311 7.61 110.2 12.31
1/9/2023 7:00:00 PM 4.75 40.55 0.312 7.62 143.1 12.34
1/9/2023 7:15:00 PM 4.75 40.55 0.312 7.6 277.6 12.33
1/9/2023 7:30:00 PM 4.76 40.568 0.313 7.58 109 12.34
1/9/2023 7:45:00 PM 4.77 40.586 0.312 7.56 222.1 12.34
1/9/2023 8:00:00 PM 4.77 40.586 0.313 7.55 135.3 12.37
1/9/2023 8:15:00 PM 4.77 40.586 0.314 7.59 143 12.36
1/9/2023 8:30:00 PM 4.77 40.586 0.312 7.6 40.83 12.37
1/9/2023 8:45:00 PM 4.76 40.568 0.31 7.61 42.34 12.39
1/9/2023 9:00:00 PM 4.75 40.55 0.316 7.62 26.36 12.38
1/9/2023 9:15:00 PM 4.74 40.532 0.312 7.62 58.95 12.39
1/9/2023 9:30:00 PM 4.73 40.514 0.315 7.62 116.2 12.4
1/9/2023 9:45:00 PM 4.71 40.478 0.315 7.63 80.66 12.41
1/9/2023 10:00:00 PM 4.7 40.46 0.316 7.64 70.38 12.4
1/9/2023 10:15:00 PM 4.69 40.442 0.316 7.65 56.63 12.41
1/9/2023 10:30:00 PM 4.67 40.406 0.314 7.64 49.72 12.42
1/9/2023 10:45:00 PM 4.64 40.352 0.316 7.64 60.75 12.42
1/9/2023 11:00:00 PM 4.61 40.298 0.316 7.63 82.11 12.43
1/9/2023 11:15:00 PM 4.59 40.262 0.316 7.63 135.8 12.45
1/9/2023 11:30:00 PM 4.56 40.208 0.316 7.64 23.3 12.44
1/9/2023 11:45:00 PM 4.53 40.154 0.316 7.63 26.54 12.45
1/10/2023 12:00:00 AM 4.51 40.118 0.317 7.63 29.76 12.45
1/10/2023 12:15:00 AM 4.48 40.064 0.317 7.62 33 12.45
1/10/2023 12:30:00 AM 4.45 40.01 0.317 7.63 28.5 12.45
1/10/2023 12:45:00 AM 4.42 39.956 0.317 7.64 23.56 12.46
1/10/2023 1:00:00 AM 4.41 39.938 0.317 7.63 103.2 12.44
1/10/2023 1:15:00 AM 4.38 39.884 0.316 7.62 168.3 12.43
1/10/2023 1:30:00 AM 4.34 39.812 0.312 7.62 158.7 12.44
1/10/2023 1:45:00 AM 4.31 39.758 0.308 7.62 27.79 12.46
1/10/2023 2:00:00 AM 4.28 39.704 0.317 7.57 86.02 12.46
1/10/2023 2:15:00 AM 4.26 39.668 0.317 7.53 165.2 12.46
1/10/2023 2:30:00 AM 4.24 39.632 0.317 7.61 47.18 12.45
1/10/2023 2:45:00 AM 4.22 39.596 0.294 7.59 30.86 12.45
1/10/2023 3:00:00 AM 4.21 39.578 0.318 7.58 39.31 12.45
1/10/2023 3:15:00 AM 4.19 39.542 0.317 7.56 26.71 12.46
1/10/2023 3:30:00 AM 4.17 39.506 0.318 7.58 59.36 12.47
1/10/2023 3:45:00 AM 4.16 39.488 0.318 7.59 95.33 12.46
1/10/2023 4:00:00 AM 4.13 39.434 0.318 7.59 56.67 12.47
1/10/2023 4:15:00 AM 4.11 39.398 0.318 7.58 30.15 12.45
1/10/2023 4:30:00 AM 4.08 39.344 0.318 7.59 36.01 12.45
1/10/2023 4:45:00 AM 4.04 39.272 0.318 7.58 19.83 12.48
1/10/2023 5:00:00 AM 4.01 39.218 0.318 7.57 26.65 12.49
1/10/2023 5:15:00 AM 3.99 39.182 0.318 7.56 48.68 12.49
1/10/2023 5:30:00 AM 3.96 39.128 0.319 7.57 30.2 12.49
1/10/2023 5:45:00 AM 3.93 39.074 0.319 7.57 52.08 12.48
1/10/2023 6:00:00 AM 3.9 39.02 0.319 7.56 162.9 12.49
1/10/2023 6:15:00 AM 3.87 38.966 0.32 7.54 31.06 12.5
1/10/2023 6:30:00 AM 3.83 38.894 0.32 7.54 51.86 12.5
1/10/2023 6:45:00 AM 3.8 38.84 0.32 7.54 26.26 12.51
1/10/2023 7:00:00 AM 3.76 38.768 0.32 7.54 28.15 12.52
1/10/2023 7:15:00 AM 3.74 38.732 0.32 7.55 27.97 12.5
1/10/2023 7:30:00 AM 3.7 38.66 0.321 7.52 52.13 12.53
1/10/2023 7:45:00 AM 3.67 38.606 0.321 7.53 27.18 12.53
1/10/2023 8:00:00 AM 3.64 38.552 0.321 7.55 29.49 12.54
1/10/2023 8:15:00 AM 3.63 38.534 0.321 7.48 31.85 12.55
1/10/2023 8:30:00 AM 3.61 38.498 0.321 7.54 140.3 12.56
1/10/2023 8:45:00 AM 3.61 38.498 0.322 7.54 43.41 12.59
1/10/2023 9:00:00 AM 3.62 38.516 0.322 7.5 30.19 12.61
1/10/2023 9:15:00 AM 3.63 38.534 0.322 7.5 66.57 12.64
1/10/2023 9:30:00 AM 3.64 38.552 0.322 7.52 31.91 12.67
1/10/2023 9:45:00 AM 3.68 38.624 0.322 7.52 40.19 12.7
1/10/2023 10:00:00 AM 3.71 38.678 0.322 7.53 35.64 12.74
1/10/2023 10:15:00 AM 3.73 38.714 0.322 7.53 35.05 12.76
1/10/2023 10:30:00 AM 3.76 38.768 0.322 7.54 57.48 12.77
1/10/2023 10:45:00 AM 3.78 38.804 0.322 7.55 221.6 12.79
1/10/2023 11:00:00 AM 3.81 38.858 0.322 7.55 24.56 12.78
1/10/2023 11:15:00 AM 3.84 38.912 0.322 7.56 100.9 12.82
1/10/2023 11:30:00 AM 3.87 38.966 0.322 7.55 49.08 12.82
1/10/2023 11:45:00 AM 3.93 39.074 0.322 7.57 101.9 12.83
1/10/2023 12:00:00 PM 3.98 39.164 0.322 7.59 92.76 12.83
1/10/2023 12:15:00 PM 4.05 39.29 0.322 7.59 40.41 12.85
1/10/2023 12:30:00 PM 4.14 39.452 0.322 7.58 90.08 12.85
1/10/2023 12:45:00 PM 4.17 39.506 0.322 7.56 23.67 12.82
1/10/2023 1:00:00 PM 4.22 39.596 0.322 7.56 49.59 12.85
1/10/2023 1:15:00 PM 4.28 39.704 0.322 7.57 42.84 12.85
1/10/2023 1:30:00 PM 4.31 39.758 0.322 7.59 43.13 12.83
1/10/2023 1:45:00 PM 4.4 39.92 0.322 7.59 38.82 12.84
1/10/2023 2:00:00 PM 4.4 39.92 0.322 7.59 40.47 12.84
1/10/2023 2:15:00 PM 4.41 39.938 0.322 7.6 33.58 12.83
1/10/2023 2:30:00 PM 4.42 39.956 0.322 7.59 48.46 12.83
1/10/2023 2:45:00 PM 4.36 39.848 0.322 7.61 51.88 12.82
1/10/2023 3:00:00 PM 4.33 39.794 0.322 7.6 34.45 12.79
1/10/2023 3:15:00 PM 4.28 39.704 0.322 7.59 83.93 12.8
1/10/2023 3:30:00 PM 4.26 39.668 0.323 7.59 74.19 12.77
1/10/2023 3:45:00 PM 4.24 39.632 0.322 7.58 67.61 12.76
1/10/2023 4:00:00 PM 4.22 39.596 0.323 7.58 60.31 12.73
1/10/2023 4:15:00 PM 4.21 39.578 0.323 7.58 85.74 12.73
1/10/2023 4:30:00 PM 4.19 39.542 0.323 7.58 95.42 12.72
1/10/2023 4:45:00 PM 4.19 39.542 0.323 7.57 53.51 12.7
1/10/2023 5:00:00 PM 4.18 39.524 0.323 7.58 50.25 12.69
1/10/2023 5:15:00 PM 4.17 39.506 0.323 7.58 70.5 12.66
1/10/2023 5:30:00 PM 4.17 39.506 0.323 7.58 39.58 12.65
1/10/2023 5:45:00 PM 4.17 39.506 0.304 7.57 52.02 12.63
1/10/2023 6:00:00 PM 4.18 39.524 0.321 7.58 36.57 12.61
1/10/2023 6:15:00 PM 4.18 39.524 0.314 7.57 44.74 12.58
1/10/2023 6:30:00 PM 4.19 39.542 0.295 7.58 46.02 12.59
1/10/2023 6:45:00 PM 4.21 39.578 0.323 7.58 50.29 12.59
1/10/2023 7:00:00 PM 4.23 39.614 0.324 7.57 77.45 12.58
1/10/2023 7:15:00 PM 4.24 39.632 0.324 7.54 95.47 12.59
1/10/2023 7:30:00 PM 4.27 39.686 0.324 7.56 72.73 12.59
1/10/2023 7:45:00 PM 4.3 39.74 0.275 7.57 50.7 12.6
1/10/2023 8:00:00 PM 4.33 39.794 0.318 7.58 110.2 12.58
1/10/2023 8:15:00 PM 4.35 39.83 0.304 7.59 87.32 12.59
1/10/2023 8:30:00 PM 4.37 39.866 0.308 7.59 48.77 12.56
1/10/2023 8:45:00 PM 4.4 39.92 0.322 7.58 73.07 12.58
1/10/2023 9:00:00 PM 4.4 39.92 0.323 7.59 117.6 12.59
1/10/2023 9:15:00 PM 4.41 39.938 0.324 7.6 61.11 12.58
1/10/2023 9:30:00 PM 4.41 39.938 0.274 7.61 48.63 12.6
1/10/2023 9:45:00 PM 4.41 39.938 0.278 7.61 82.22 12.57
1/10/2023 10:00:00 PM 4.4 39.92 0.315 7.61 84.34 12.58
1/10/2023 10:15:00 PM 4.39 39.902 0.324 7.62 66.5 12.59
1/10/2023 10:30:00 PM 4.38 39.884 0.324 7.62 116.6 12.6
1/10/2023 10:45:00 PM 4.35 39.83 0.325 7.61 70.73 12.6
1/10/2023 11:00:00 PM 4.33 39.794 0.325 7.6 74.92 12.6
1/10/2023 11:15:00 PM 4.31 39.758 0.325 7.61 49.52 12.61
1/10/2023 11:30:00 PM 4.29 39.722 0.325 7.61 57.21 12.62
1/10/2023 11:45:00 PM 4.27 39.686 0.325 7.58 54.93 12.61
1/11/2023 12:00:00 AM 4.26 39.668 0.325 7.59 99.26 12.61
1/11/2023 12:15:00 AM 4.24 39.632 0.325 7.54 126 12.6
1/11/2023 12:30:00 AM 4.23 39.614 0.325 7.58 91.19 12.61
1/11/2023 12:45:00 AM 4.22 39.596 0.325 7.58 57.39 12.63
1/11/2023 1:00:00 AM 4.2 39.56 0.325 7.58 60.87 12.61
1/11/2023 1:15:00 AM 4.18 39.524 0.325 7.6 74.99 12.61
1/11/2023 1:30:00 AM 4.17 39.506 0.325 7.59 140.5 12.6
1/11/2023 1:45:00 AM 4.16 39.488 0.325 7.58 82.45 12.6
1/11/2023 2:00:00 AM 4.14 39.452 0.325 7.6 74.6 12.58
1/11/2023 2:15:00 AM 4.12 39.416 0.326 7.59 79.24 12.56
1/11/2023 2:30:00 AM 4.1 39.38 0.326 7.59 111.6 12.58
1/11/2023 2:45:00 AM 4.1 39.38 0.326 7.59 79.76 12.57
1/11/2023 3:00:00 AM 4.08 39.344 0.326 7.6 105.5 12.56
1/11/2023 3:15:00 AM 4.06 39.308 0.326 7.59 81.22 12.56
1/11/2023 3:30:00 AM 4.04 39.272 0.326 7.58 169.9 12.58
1/11/2023 3:45:00 AM 4.01 39.218 0.326 7.58 150.6 12.57
1/11/2023 4:00:00 AM 3.99 39.182 0.326 7.58 113.3 12.57
1/11/2023 4:15:00 AM 3.95 39.11 0.327 7.58 103.8 12.58
1/11/2023 4:30:00 AM 3.93 39.074 0.327 7.58 168 12.57
1/11/2023 4:45:00 AM 3.9 39.02 0.327 7.58 275.3 12.57
1/11/2023 5:00:00 AM 3.88 38.984 0.322 7.56 103.6 12.56
1/11/2023 5:15:00 AM 3.84 38.912 0.327 7.56 118.3 12.55
1/11/2023 5:30:00 AM 3.82 38.876 0.327 7.57 123.8 12.55
1/11/2023 5:45:00 AM 3.79 38.822 0.327 7.56 170.2 12.56
1/11/2023 6:00:00 AM 3.76 38.768 0.327 7.55 105.8 12.58
1/11/2023 6:15:00 AM 3.73 38.714 0.328 7.56 190.2 12.56
1/11/2023 6:30:00 AM 3.7 38.66 0.328 7.56 174.1 12.57
1/11/2023 6:45:00 AM 3.67 38.606 0.328 7.55 111.5 12.56
1/11/2023 7:00:00 AM 3.64 38.552 0.328 7.55 140 12.57
1/11/2023 7:15:00 AM 3.6 38.48 0.328 7.55 172.1 12.59
1/11/2023 7:30:00 AM 3.58 38.444 0.328 7.55 137.8 12.58
1/11/2023 7:45:00 AM 3.56 38.408 0.328 7.55 84.66 12.58
1/11/2023 8:00:00 AM 3.53 38.354 0.328 7.55 151.8 12.59
1/11/2023 8:15:00 AM 3.52 38.336 0.329 7.55 164.8 12.59
1/11/2023 8:30:00 AM 3.51 38.318 0.329 7.54 59.29 12.64
1/11/2023 8:45:00 AM 3.52 38.336 0.329 7.54 75.28 12.66
1/11/2023 9:00:00 AM 3.53 38.354 0.329 7.54 82.44 12.67
1/11/2023 9:15:00 AM 3.54 38.372 0.329 7.54 101.2 12.72
1/11/2023 9:30:00 AM 3.57 38.426 0.329 7.52 73.79 12.76
1/11/2023 9:45:00 AM 3.59 38.462 0.329 7.53 102.4 12.77
1/11/2023 10:00:00 AM 3.62 38.516 0.329 7.53 86.22 12.81
1/11/2023 10:15:00 AM 3.65 38.57 0.329 7.55 81.36 12.83
1/11/2023 10:30:00 AM 3.69 38.642 0.329 7.54 140.6 12.84
1/11/2023 10:45:00 AM 3.73 38.714 0.329 7.55 124.3 12.88
1/11/2023 11:00:00 AM 3.78 38.804 0.329 7.55 79.75 12.89
1/11/2023 11:15:00 AM 3.83 38.894 0.329 7.55 71.45 12.89
1/11/2023 11:30:00 AM 3.87 38.966 0.329 7.57 71.01 12.91
1/11/2023 11:45:00 AM 3.93 39.074 0.329 7.57 86.14 12.92
1/11/2023 12:00:00 PM 4 39.2 0.33 7.59 76.44 12.92
1/11/2023 12:15:00 PM 4.04 39.272 0.33 7.59 78.59 12.92
1/11/2023 12:30:00 PM 4.07 39.326 0.33 7.59 73.91 12.94
1/11/2023 12:45:00 PM 4.08 39.344 0.33 7.58 77.9 12.93
1/11/2023 1:00:00 PM 4.08 39.344 0.331 7.6 75.73 12.94
1/11/2023 1:15:00 PM 4.07 39.326 0.331 7.6 89.91 12.93
1/11/2023 1:30:00 PM 4.04 39.272 0.331 7.6 71.16 12.93
1/11/2023 1:45:00 PM 4.03 39.254 0.331 7.6 84.14 12.92
1/11/2023 2:00:00 PM 4 39.2 0.332 7.6 56 12.92
1/11/2023 2:15:00 PM 4.01 39.218 0.332 7.6 90.08 12.91
1/11/2023 2:30:00 PM 4.02 39.236 0.332 7.6 71.62 12.9
1/11/2023 2:45:00 PM 4.04 39.272 0.333 7.61 100.6 12.9
1/11/2023 3:00:00 PM 4.04 39.272 0.333 7.61 70.4 12.88
1/11/2023 3:15:00 PM 4.03 39.254 0.333 7.59 133.7 12.88
1/11/2023 3:30:00 PM 4.03 39.254 0.333 7.6 78.17 12.89
1/11/2023 3:45:00 PM 4.04 39.272 0.334 7.61 75.48 12.88
1/11/2023 4:00:00 PM 4 39.2 0.334 7.58 89.55 12.87
1/11/2023 4:15:00 PM 3.97 39.146 0.334 7.6 78.83 12.85
1/11/2023 4:30:00 PM 3.95 39.11 0.334 7.61 89.6 12.83
1/11/2023 4:45:00 PM 3.93 39.074 0.335 7.58 77.62 12.81
1/11/2023 5:00:00 PM 3.92 39.056 0.335 7.54 76.67 12.78
1/11/2023 5:15:00 PM 3.9 39.02 0.335 7.58 60.32 12.77
1/11/2023 5:30:00 PM 3.9 39.02 0.335 7.59 103.1 12.75
1/11/2023 5:45:00 PM 3.9 39.02 0.335 7.6 65.56 12.73
1/11/2023 6:00:00 PM 3.91 39.038 0.335 7.6 71.38 12.72
1/11/2023 6:15:00 PM 3.92 39.056 0.335 7.6 120.1 12.7
1/11/2023 6:30:00 PM 3.93 39.074 0.336 7.61 92.47 12.7
1/11/2023 6:45:00 PM 3.95 39.11 0.336 7.6 177.8 12.7
1/11/2023 7:00:00 PM 3.96 39.128 0.336 7.61 67.42 12.69
1/11/2023 7:15:00 PM 3.98 39.164 0.336 7.59 75.01 12.69
1/11/2023 7:30:00 PM 4 39.2 0.336 7.6 77.91 12.69
1/11/2023 7:45:00 PM 4.02 39.236 0.336 7.61 162.1 12.7
1/11/2023 8:00:00 PM 4.04 39.272 0.336 7.61 85.41 12.69
1/11/2023 8:15:00 PM 4.07 39.326 0.336 7.6 72.46 12.67
1/11/2023 8:30:00 PM 4.09 39.362 0.299 7.6 81.18 12.7
1/11/2023 8:45:00 PM 4.11 39.398 0.336 7.62 83.68 12.7
1/11/2023 9:00:00 PM 4.12 39.416 0.336 7.62 98.24 12.71
1/11/2023 9:15:00 PM 4.14 39.452 0.335 7.62 80.7 12.71
1/11/2023 9:30:00 PM 4.16 39.488 0.321 7.62 78.84 12.7
1/11/2023 9:45:00 PM 4.18 39.524 0.328 7.61 83.72 12.71
1/11/2023 10:00:00 PM 4.2 39.56 0.327 7.63 90 12.69
1/11/2023 10:15:00 PM 4.22 39.596 0.332 7.64 66.52 12.7
1/11/2023 10:30:00 PM 4.24 39.632 0.333 7.63 85.3 12.7
1/11/2023 10:45:00 PM 4.26 39.668 0.333 7.63 115.8 12.69
1/11/2023 11:00:00 PM 4.28 39.704 0.33 7.66 123.2 12.7
1/11/2023 11:15:00 PM 4.29 39.722 0.283 7.65 90.05 12.7
1/11/2023 11:30:00 PM 4.3 39.74 0.311 7.65 69.93 12.68
1/11/2023 11:45:00 PM 4.31 39.758 0.333 7.65 143.1 12.67
1/12/2023 12:00:00 AM 4.32 39.776 0.336 7.65 105.3 12.67
1/12/2023 12:15:00 AM 4.33 39.794 0.336 7.63 67.86 12.68
1/12/2023 12:30:00 AM 4.33 39.794 0.336 7.62 80.07 12.64
1/12/2023 12:45:00 AM 4.34 39.812 0.336 7.62 145.4 12.64
1/12/2023 1:00:00 AM 4.34 39.812 0.335 7.61 85.86 12.65
1/12/2023 1:15:00 AM 4.34 39.812 0.335 7.58 86.69 12.64
1/12/2023 1:30:00 AM 4.34 39.812 0.335 7.57 103.2 12.63
1/12/2023 1:45:00 AM 4.34 39.812 0.335 7.57 108.9 12.63
1/12/2023 2:00:00 AM 4.33 39.794 0.335 7.58 151.4 12.62
1/12/2023 2:15:00 AM 4.32 39.776 0.335 7.59 93.46 12.62
1/12/2023 2:30:00 AM 4.32 39.776 0.335 7.59 105.8 12.59
1/12/2023 2:45:00 AM 4.32 39.776 0.335 7.6 137.9 12.59
1/12/2023 3:00:00 AM 4.31 39.758 0.334 7.58 63.71 12.58
1/12/2023 3:15:00 AM 4.31 39.758 0.335 7.59 69.86 12.56
1/12/2023 3:30:00 AM 4.31 39.758 0.335 7.58 83.79 12.57
1/12/2023 3:45:00 AM 4.31 39.758 0.335 7.6 115.7 12.56
1/12/2023 4:00:00 AM 4.31 39.758 0.335 7.59 100 12.54
1/12/2023 4:15:00 AM 4.31 39.758 0.335 7.58 93.26 12.54
1/12/2023 4:30:00 AM 4.31 39.758 0.335 7.6 143.1 12.52
1/12/2023 4:45:00 AM 4.31 39.758 0.335 7.6 90.25 12.52
1/12/2023 5:00:00 AM 4.31 39.758 0.335 7.6 99.83 12.51
1/12/2023 5:15:00 AM 4.31 39.758 0.335 7.57 53.3 12.49
1/12/2023 5:30:00 AM 4.3 39.74 0.335 7.57 93.92 12.51
1/12/2023 5:45:00 AM 4.3 39.74 0.335 7.58 83.52 12.47
1/12/2023 6:00:00 AM 4.3 39.74 0.335 7.57 71.4 12.48
1/12/2023 6:15:00 AM 4.29 39.722 0.335 7.56 90.08 12.49
1/12/2023 6:30:00 AM 4.29 39.722 0.335 7.57 67.73 12.47
1/12/2023 6:45:00 AM 4.29 39.722 0.335 7.57 111.3 12.46
1/12/2023 7:00:00 AM 4.28 39.704 0.335 7.56 79.67 12.47
1/12/2023 7:15:00 AM 4.28 39.704 0.335 7.57 247.3 12.45
1/12/2023 7:30:00 AM 4.28 39.704 0.335 7.57 150.6 12.43
1/12/2023 7:45:00 AM 4.28 39.704 0.335 7.57 95.09 12.42
1/12/2023 8:00:00 AM 4.28 39.704 0.335 7.56 224.8 12.42
1/12/2023 8:15:00 AM 4.28 39.704 0.335 7.55 105.6 12.42
1/12/2023 8:30:00 AM 4.28 39.704 0.335 7.56 42.65 12.43
1/12/2023 8:45:00 AM 4.29 39.722 0.335 7.57 79.82 12.43
1/12/2023 9:00:00 AM 4.29 39.722 0.335 7.55 169.1 12.42
1/12/2023 9:15:00 AM 4.3 39.74 0.335 7.57 62.95 12.44
1/12/2023 9:30:00 AM 4.31 39.758 0.335 7.57 99.5 12.45
1/12/2023 9:45:00 AM 4.32 39.776 0.335 7.56 78.8 12.46
1/12/2023 10:00:00 AM 4.34 39.812 0.335 7.58 45.81 12.47
1/12/2023 10:15:00 AM 4.35 39.83 0.335 7.57 51.08 12.48
1/12/2023 10:30:00 AM 4.36 39.848 0.335 7.56 55.12 12.49
1/12/2023 10:45:00 AM 4.37 39.866 0.335 7.56 58.39 12.51
1/12/2023 11:00:00 AM 4.39 39.902 0.335 7.57 103 12.51
1/12/2023 11:15:00 AM 4.41 39.938 0.335 7.57 106.9 12.53
1/12/2023 11:30:00 AM 4.42 39.956 0.335 7.58 37.59 12.54
1/12/2023 11:45:00 AM 4.44 39.992 0.335 7.58 55.77 12.55
1/12/2023 12:00:00 PM 4.44 39.992 0.335 7.57 197.1 12.55
1/12/2023 12:15:00 PM 4.46 40.028 0.335 7.57 60.98 12.54
1/12/2023 12:30:00 PM 4.46 40.028 0.335 7.52 189.3 12.53
1/12/2023 12:45:00 PM 4.47 40.046 0.335 7.58 67.33 12.54
1/12/2023 1:00:00 PM 4.47 40.046 0.335 7.59 76.07 12.52
1/12/2023 1:15:00 PM 4.48 40.064 0.335 7.57 79.53 12.51
1/12/2023 1:30:00 PM 4.49 40.082 0.335 7.57 52.23 12.51
1/12/2023 1:45:00 PM 4.5 40.1 0.335 7.59 39.96 12.5
1/12/2023 2:00:00 PM 4.5 40.1 0.335 7.63 118.1 12.5
1/12/2023 2:15:00 PM 4.51 40.118 0.335 7.64 228.4 12.48
1/12/2023 2:30:00 PM 4.51 40.118 0.335 7.64 139.8 12.47
1/12/2023 2:45:00 PM 4.51 40.118 0.335 7.66 42.39 12.44
1/12/2023 3:00:00 PM 4.51 40.118 0.334 7.61 72.9 12.42
1/12/2023 3:15:00 PM 4.51 40.118 0.334 7.62 58.45 12.37
1/12/2023 3:30:00 PM 4.52 40.136 0.334 7.58 35.43 12.38
1/12/2023 3:45:00 PM 4.52 40.136 0.334 7.58 42.17 12.34
1/12/2023 4:00:00 PM 4.53 40.154 0.334 7.57 66.18 12.33
1/12/2023 4:15:00 PM 4.53 40.154 0.334 7.58 166 12.32
1/12/2023 4:30:00 PM 4.54 40.172 0.335 7.55 24.04 12.3
1/12/2023 4:45:00 PM 4.55 40.19 0.335 7.53 55.98 12.29
1/12/2023 5:00:00 PM 4.56 40.208 0.335 7.56 76.23 12.28
1/12/2023 5:15:00 PM 4.56 40.208 0.333 7.56 108.1 12.27
1/12/2023 5:30:00 PM 4.57 40.226 0.336 7.56 119 12.25
1/12/2023 5:45:00 PM 4.58 40.244 0.336 7.55 151.7 12.24
1/12/2023 6:00:00 PM 4.59 40.262 0.336 7.58 68.57 12.24
1/12/2023 6:15:00 PM 4.6 40.28 0.336 7.56 40.16 12.22
1/12/2023 6:30:00 PM 4.61 40.298 0.336 7.59 56.51 12.22
1/12/2023 6:45:00 PM 4.63 40.334 0.336 7.56 110.8 12.22
1/12/2023 7:00:00 PM 4.64 40.352 0.336 7.57 67.62 12.2
1/12/2023 7:15:00 PM 4.65 40.37 0.336 7.56 132.8 12.2
1/12/2023 7:30:00 PM 4.67 40.406 0.335 7.59 175.5 12.21
1/12/2023 7:45:00 PM 4.69 40.442 0.336 7.58 60.21 12.19
1/12/2023 8:00:00 PM 4.71 40.478 0.334 7.57 80.54 12.2
1/12/2023 8:15:00 PM 4.72 40.496 0.331 7.6 228.9 12.21
1/12/2023 8:30:00 PM 4.74 40.532 0.336 7.57 134.6 12.21
1/12/2023 8:45:00 PM 4.75 40.55 0.335 7.56 100.3 12.19
1/12/2023 9:00:00 PM 4.77 40.586 0.334 7.59 274.8 12.2
1/12/2023 9:15:00 PM 4.79 40.622 0.329 7.58 158.8 12.17
1/12/2023 9:30:00 PM 4.8 40.64 0.334 7.55 307.9 12.2
1/12/2023 9:45:00 PM 4.82 40.676 0.333 7.56 159.4 12.19
1/12/2023 10:00:00 PM 4.84 40.712 0.328 7.56 183 12.18
1/12/2023 10:15:00 PM 4.86 40.748 0.336 7.57 190 12.18
1/12/2023 10:30:00 PM 4.87 40.766 0.336 7.57 257.3 12.15
1/12/2023 10:45:00 PM 4.89 40.802 0.336 7.57 114 12.16
1/12/2023 11:00:00 PM 4.91 40.838 0.336 7.57 36.65 12.14
1/12/2023 11:15:00 PM 4.92 40.856 0.336 7.58 86.04 12.14
1/12/2023 11:30:00 PM 4.93 40.874 0.336 7.57 471.2 12.11
1/12/2023 11:45:00 PM 4.95 40.91 0.335 7.57 88.72 12.11
1/13/2023 12:00:00 AM 4.97 40.946 0.335 7.58 52.36 12.1
1/13/2023 12:15:00 AM 4.98 40.964 0.335 7.57 65.32 12.09
1/13/2023 12:30:00 AM 5 41 0.335 7.5 178.6 12.07
1/13/2023 12:45:00 AM 5.01 41.018 0.335 7.54 144.4 12.06
1/13/2023 1:00:00 AM 5.03 41.054 0.335 7.52 180.8 12.05
1/13/2023 1:15:00 AM 5.04 41.072 0.335 7.51 217.9 12.02
1/13/2023 1:30:00 AM 5.05 41.09 0.334 7.57 165.4 12.02
1/13/2023 1:45:00 AM 5.06 41.108 0.335 7.59 301.9 12.02
1/13/2023 2:00:00 AM 5.08 41.144 0.335 7.56 210.8 11.98
1/13/2023 2:15:00 AM 5.09 41.162 0.333 7.57 258.7 11.98
1/13/2023 2:30:00 AM 5.1 41.18 0.335 7.58 279.7 11.97
1/13/2023 2:45:00 AM 5.11 41.198 0.335 7.58 438.6 11.96
1/13/2023 3:00:00 AM 5.12 41.216 0.335 7.58 112 11.94
1/13/2023 3:15:00 AM 5.13 41.234 0.334 7.59 170.8 11.94
1/13/2023 3:30:00 AM 5.14 41.252 0.335 7.57 281.5 11.93
1/13/2023 3:45:00 AM 5.16 41.288 0.333 7.58 206.7 11.91
1/13/2023 4:00:00 AM 5.16 41.288 0.33 7.58 238.6 11.89
1/13/2023 4:15:00 AM 5.17 41.306 0.278 7.59 187.3 11.91
1/13/2023 4:30:00 AM 5.18 41.324 0.332 7.59 142.7 11.88
1/13/2023 4:45:00 AM 5.18 41.324 0.335 7.6 100 11.87
1/13/2023 5:00:00 AM 5.19 41.342 0.335 7.58 379.8 11.87
1/13/2023 5:15:00 AM 5.2 41.36 0.334 7.59 105.6 11.87
1/13/2023 5:30:00 AM 5.21 41.378 0.334 7.59 114.7 11.86
1/13/2023 5:45:00 AM 5.23 41.414 0.334 7.56 244.7 11.85
1/13/2023 6:00:00 AM 5.24 41.432 0.334 7.59 185.3 11.84
1/13/2023 6:15:00 AM 5.25 41.45 0.334 7.57 180.3 11.84
1/13/2023 6:30:00 AM 5.25 41.45 0.334 7.57 261.6 11.84
1/13/2023 6:45:00 AM 5.25 41.45 0.334 7.55 86.19 11.84
1/13/2023 7:00:00 AM 5.24 41.432 0.334 7.52 284.4 11.82
1/13/2023 7:15:00 AM 5.24 41.432 0.334 7.56 118.1 11.82
1/13/2023 7:30:00 AM 5.22 41.396 0.334 7.56 211.2 11.82
1/13/2023 7:45:00 AM 5.21 41.378 0.334 7.56 112.7 11.83
1/13/2023 8:00:00 AM 5.2 41.36 0.334 7.55 108.3 11.81
1/13/2023 8:15:00 AM 5.19 41.342 0.334 7.55 289.2 11.82
1/13/2023 8:30:00 AM 5.19 41.342 0.334 7.55 251.8 11.83
1/13/2023 8:45:00 AM 5.2 41.36 0.334 7.55 85.66 11.85
1/13/2023 9:00:00 AM 5.21 41.378 0.334 7.54 228.7 11.86
1/13/2023 9:15:00 AM 5.22 41.396 0.334 7.57 174.6 11.88
1/13/2023 9:30:00 AM 5.25 41.45 0.334 7.55 225.3 11.91
1/13/2023 9:45:00 AM 5.28 41.504 0.334 7.57 171.8 11.93
1/13/2023 10:00:00 AM 5.31 41.558 0.334 7.57 475.6 11.96
1/13/2023 10:15:00 AM 5.37 41.666 0.334 7.57 322.9 11.96
1/13/2023 10:30:00 AM 5.42 41.756 0.334 7.58 314.9 12.02
1/13/2023 10:45:00 AM 5.46 41.828 0.334 7.58 293.1 12.02
1/13/2023 11:00:00 AM 5.48 41.864 0.334 7.57 460.6 12.05
1/13/2023 11:15:00 AM 5.5 41.9 0.334 7.6 185.9 12.06
1/13/2023 11:30:00 AM 5.54 41.972 0.333 7.58 285.6 12.07
1/13/2023 11:45:00 AM 5.59 42.062 0.333 7.59 253.4 12.07
1/13/2023 12:00:00 PM 5.63 42.134 0.332 7.59 399.9 12.07
1/13/2023 12:15:00 PM 5.65 42.17 0.332 7.68 350.1 12.09
1/13/2023 12:30:00 PM 5.66 42.188 0.332 7.69 366.9 12.08
1/13/2023 12:45:00 PM 5.69 42.242 0.331 7.62 333 12.09
1/13/2023 1:00:00 PM 5.7 42.26 0.331 7.72 314.2 12.08
1/13/2023 1:15:00 PM 5.7 42.26 0.331 7.73 269.1 12.07
1/13/2023 1:30:00 PM 5.71 42.278 0.331 7.61 416.3 12.07
1/13/2023 1:45:00 PM 5.71 42.278 0.33 7.63 457.8 12.06
1/13/2023 2:00:00 PM 5.71 42.278 0.33 7.74 213.5 12.06
1/13/2023 2:15:00 PM 5.7 42.26 0.329 7.75 499.6 12.05
1/13/2023 2:30:00 PM 5.7 42.26 0.329 7.74 281.8 12.05
1/13/2023 2:45:00 PM 5.69 42.242 0.329 7.73 297.9 12.02
1/13/2023 3:00:00 PM 5.68 42.224 0.329 7.66 696.2 12.02
1/13/2023 3:15:00 PM 5.67 42.206 0.329 7.75 271.5 12
1/13/2023 3:30:00 PM 5.66 42.188 0.329 7.74 67.25 11.99
1/13/2023 3:45:00 PM 5.66 42.188 0.329 7.74 87.6 11.97
1/13/2023 4:00:00 PM 5.65 42.17 0.329 7.6 447.8 11.97
1/13/2023 4:15:00 PM 5.65 42.17 0.329 7.6 702.2 11.95
1/13/2023 4:30:00 PM 5.65 42.17 0.329 7.6 674 11.93
1/13/2023 4:45:00 PM 5.65 42.17 0.329 7.6 286.6 11.93
1/13/2023 5:00:00 PM 5.64 42.152 0.328 7.61 702.9 11.89
1/13/2023 5:15:00 PM 5.65 42.17 0.328 7.64 497.9 11.88
1/13/2023 5:30:00 PM 5.65 42.17 0.328 7.6 335.4 11.89
1/13/2023 5:45:00 PM 5.66 42.188 0.328 7.69 538.4 11.87
1/13/2023 6:00:00 PM 5.66 42.188 0.328 7.74 416.9 11.89
1/13/2023 6:15:00 PM 5.66 42.188 0.328 7.66 344.1 11.88
1/13/2023 6:30:00 PM 5.66 42.188 0.328 7.61 223.5 11.88
1/13/2023 6:45:00 PM 5.66 42.188 0.328 7.65 294.8 11.89
1/13/2023 7:00:00 PM 5.66 42.188 0.327 7.62 313.3 11.9
1/13/2023 7:15:00 PM 5.66 42.188 0.327 7.59 285.5 11.91
1/13/2023 7:30:00 PM 5.65 42.17 0.327 7.58 240.1 11.92
1/13/2023 7:45:00 PM 5.64 42.152 0.327 7.73 238.7 11.89
1/13/2023 8:00:00 PM 5.64 42.152 0.326 7.71 227.3 11.92
1/13/2023 8:15:00 PM 5.62 42.116 0.324 7.67 338.8 11.93
1/13/2023 8:30:00 PM 5.61 42.098 0.326 7.72 249.5 11.92
1/13/2023 8:45:00 PM 5.61 42.098 0.32 7.63 319.9 11.93
1/13/2023 9:00:00 PM 5.6 42.08 0.313 7.58 322.9 11.94
1/13/2023 9:15:00 PM 5.59 42.062 0.321 7.6 329.6 11.94
1/13/2023 9:30:00 PM 5.58 42.044 0.322 7.6 287.8 11.95
1/13/2023 9:45:00 PM 5.57 42.026 0.325 7.61 307.2 11.96
1/13/2023 10:00:00 PM 5.55 41.99 0.324 7.62 288.5 11.95
1/13/2023 10:15:00 PM 5.54 41.972 0.324 7.63 269.9 11.95
1/13/2023 10:30:00 PM 5.53 41.954 0.323 7.64 320.4 11.95
1/13/2023 10:45:00 PM 5.51 41.918 0.323 7.62 365 11.96
1/13/2023 11:00:00 PM 5.49 41.882 0.324 7.74 223.7 11.94
1/13/2023 11:15:00 PM 5.47 41.846 0.324 7.73 281.7 11.95
1/13/2023 11:30:00 PM 5.45 41.81 0.324 7.72 296.5 11.95
1/13/2023 11:45:00 PM 5.43 41.774 0.323 7.6 276 11.96
1/14/2023 12:00:00 AM 5.4 41.72 0.323 7.64 217.1 11.96
1/14/2023 12:15:00 AM 5.39 41.702 0.323 7.74 365.9 11.94
1/14/2023 12:30:00 AM 5.37 41.666 0.323 7.61 308.7 11.94
1/14/2023 12:45:00 AM 5.35 41.63 0.323 7.59 359.6 11.93
1/14/2023 1:00:00 AM 5.34 41.612 0.323 7.6 389.7 11.93
1/14/2023 1:15:00 AM 5.33 41.594 0.317 7.61 521.7 11.93
1/14/2023 1:30:00 AM 5.31 41.558 0.309 7.7 524.5 11.92
1/14/2023 1:45:00 AM 5.3 41.54 0.308 7.71 489.5 11.93
1/14/2023 2:00:00 AM 5.28 41.504 0.322 7.6 427.3 11.92
1/14/2023 2:15:00 AM 5.26 41.468 0.322 7.71 526.8 11.92
1/14/2023 2:30:00 AM 5.24 41.432 0.322 7.62 539.4 11.92
1/14/2023 2:45:00 AM 5.22 41.396 0.322 7.59 490.3 11.92
1/14/2023 3:00:00 AM 5.2 41.36 0.322 7.59 368.5 11.93
1/14/2023 3:15:00 AM 5.18 41.324 0.322 7.59 372.4 11.91
1/14/2023 3:30:00 AM 5.17 41.306 0.321 7.58 357.3 11.92
1/14/2023 3:45:00 AM 5.16 41.288 0.322 7.59 438.2 11.92
1/14/2023 4:00:00 AM 5.14 41.252 0.321 7.56 366.6 11.92
1/14/2023 4:15:00 AM 5.13 41.234 0.321 7.57 478.8 11.9
1/14/2023 4:30:00 AM 5.11 41.198 0.321 7.58 328.7 11.91
1/14/2023 4:45:00 AM 5.09 41.162 0.32 7.56 484.8 11.91
1/14/2023 5:00:00 AM 5.06 41.108 0.32 7.58 300.5 11.92
1/14/2023 5:15:00 AM 5.05 41.09 0.32 7.58 529 11.92
1/14/2023 5:30:00 AM 5.03 41.054 0.319 7.57 532.8 11.93
1/14/2023 5:45:00 AM 5.01 41.018 0.319 7.57 1014 11.93
1/14/2023 6:00:00 AM 4.99 40.982 0.319 7.58 393.5 11.93
1/14/2023 6:15:00 AM 4.97 40.946 0.319 7.56 285 11.92
1/14/2023 6:30:00 AM 4.96 40.928 0.319 7.57 372.5 11.94
1/14/2023 6:45:00 AM 4.94 40.892 0.319 7.57 435.1 11.94
1/14/2023 7:00:00 AM 4.92 40.856 0.319 7.57 373.9 11.94
1/14/2023 7:15:00 AM 4.91 40.838 0.319 7.57 477.5 11.94
1/14/2023 7:30:00 AM 4.89 40.802 0.319 7.57 637.2 11.94
1/14/2023 7:45:00 AM 4.86 40.748 0.319 7.56 435 11.95
1/14/2023 8:00:00 AM 4.84 40.712 0.319 7.55 429.3 11.96
1/14/2023 8:15:00 AM 4.81 40.658 0.319 7.54 266.1 11.96
1/14/2023 8:30:00 AM 4.8 40.64 0.319 7.48 242.5 11.96
1/14/2023 8:45:00 AM 4.78 40.604 0.319 7.49 299.5 12
1/14/2023 9:00:00 AM 4.76 40.568 0.319 7.5 263.1 12.02
1/14/2023 9:15:00 AM 4.74 40.532 0.319 7.51 197 12.04
1/14/2023 9:30:00 AM 4.73 40.514 0.319 7.52 126.5 12.07
1/14/2023 9:45:00 AM 4.73 40.514 0.319 7.53 186.6 12.09
1/14/2023 10:00:00 AM 4.73 40.514 0.319 7.51 113.4 12.12
1/14/2023 10:15:00 AM 4.72 40.496 0.319 7.53 243.4 12.14
1/14/2023 10:30:00 AM 4.72 40.496 0.319 7.47 201.1 12.16
1/14/2023 10:45:00 AM 4.71 40.478 0.319 7.33 176.7 12.16
1/14/2023 11:00:00 AM 4.7 40.46 0.319 7.33 88.27 12.2
1/14/2023 11:15:00 AM 4.69 40.442 0.318 7.39 212.7 12.22
1/14/2023 11:30:00 AM 4.68 40.424 0.318 7.51 122.5 12.22
1/14/2023 11:45:00 AM 4.67 40.406 0.318 7.53 179.4 12.25
1/14/2023 12:00:00 PM 4.67 40.406 0.318 7.52 163.5 12.26
1/14/2023 12:15:00 PM 4.67 40.406 0.318 7.54 170.5 12.3
1/14/2023 12:30:00 PM 4.68 40.424 0.318 7.54 175.2 12.31
1/14/2023 12:45:00 PM 4.7 40.46 0.318 7.52 249.4 12.34
1/14/2023 1:00:00 PM 4.76 40.568 0.318 7.45 157 12.35
1/14/2023 1:15:00 PM 4.83 40.694 0.317 7.41 182.2 12.36
1/14/2023 1:30:00 PM 4.85 40.73 0.317 7.47 142.2 12.38
1/14/2023 1:45:00 PM 4.85 40.73 0.317 7.53 164.5 12.39
1/14/2023 2:00:00 PM 4.81 40.658 0.317 7.52 161.2 12.39
1/14/2023 2:15:00 PM 4.78 40.604 0.317 7.54 212.9 12.39
1/14/2023 2:30:00 PM 4.74 40.532 0.317 7.55 213.7 12.41
1/14/2023 2:45:00 PM 4.73 40.514 0.317 7.55 179.4 12.4
1/14/2023 3:00:00 PM 4.73 40.514 0.317 7.56 185.5 12.41
1/14/2023 3:15:00 PM 4.74 40.532 0.316 7.55 261.6 12.42
1/14/2023 3:30:00 PM 4.72 40.496 0.316 7.56 212.2 12.43
1/14/2023 3:45:00 PM 4.67 40.406 0.316 7.6 162.2 12.43
1/14/2023 4:00:00 PM 4.62 40.316 0.316 7.57 206 12.4
1/14/2023 4:15:00 PM 4.57 40.226 0.316 7.57 171.5 12.43
1/14/2023 4:30:00 PM 4.53 40.154 0.316 7.6 310.2 12.41
1/14/2023 4:45:00 PM 4.49 40.082 0.316 7.56 342.1 12.41
1/14/2023 5:00:00 PM 4.46 40.028 0.316 7.58 155.3 12.4
1/14/2023 5:15:00 PM 4.43 39.974 0.317 7.55 133.2 12.38
1/14/2023 5:30:00 PM 4.4 39.92 0.316 7.58 302.4 12.37
1/14/2023 5:45:00 PM 4.38 39.884 0.317 7.57 159.8 12.36
1/14/2023 6:00:00 PM 4.36 39.848 0.304 7.52 239.8 12.35
1/14/2023 6:15:00 PM 4.34 39.812 0.318 7.54 252.2 12.34
1/14/2023 6:30:00 PM 4.32 39.776 0.318 7.49 224.9 12.34
1/14/2023 6:45:00 PM 4.3 39.74 0.318 7.55 260.9 12.36
1/14/2023 7:00:00 PM 4.29 39.722 0.318 7.55 209.3 12.36
1/14/2023 7:15:00 PM 4.28 39.704 0.318 7.57 373.9 12.39
1/14/2023 7:30:00 PM 4.27 39.686 0.318 7.56 244.5 12.4
1/14/2023 7:45:00 PM 4.27 39.686 0.318 7.55 333.6 12.4
1/14/2023 8:00:00 PM 4.25 39.65 0.318 7.56 306 12.42
1/14/2023 8:15:00 PM 4.25 39.65 0.318 7.55 298.6 12.42
1/14/2023 8:30:00 PM 4.25 39.65 0.318 7.56 241.9 12.43
1/14/2023 8:45:00 PM 4.26 39.668 0.318 7.56 281.6 12.45
1/14/2023 9:00:00 PM 4.24 39.632 0.318 7.56 248 12.45
1/14/2023 9:15:00 PM 4.21 39.578 0.318 7.57 206.9 12.47
1/14/2023 9:30:00 PM 4.19 39.542 0.318 7.57 273.8 12.47
1/14/2023 9:45:00 PM 4.15 39.47 0.318 7.55 299.6 12.48
1/14/2023 10:00:00 PM 4.1 39.38 0.318 7.54 293.3 12.5
1/14/2023 10:15:00 PM 4.06 39.308 0.318 7.56 212.5 12.52
1/14/2023 10:30:00 PM 4.01 39.218 0.318 7.55 218.8 12.54
1/14/2023 10:45:00 PM 3.97 39.146 0.318 7.55 245.6 12.55
1/14/2023 11:00:00 PM 3.93 39.074 0.318 7.57 274.3 12.56
1/14/2023 11:15:00 PM 3.89 39.002 0.318 7.55 303.4 12.56
1/14/2023 11:30:00 PM 3.86 38.948 0.317 7.56 286.9 12.58
1/14/2023 11:45:00 PM 3.84 38.912 0.317 7.54 291.3 12.59
1/15/2023 12:00:00 AM 3.83 38.894 0.317 7.56 275.4 12.6
1/15/2023 12:15:00 AM 3.83 38.894 0.316 7.54 288.7 12.61
1/15/2023 12:30:00 AM 3.84 38.912 0.316 7.54 237.8 12.61
1/15/2023 12:45:00 AM 3.84 38.912 0.316 7.55 295.5 12.62
1/15/2023 1:00:00 AM 3.83 38.894 0.316 7.53 163.1 12.61
1/15/2023 1:15:00 AM 3.82 38.876 0.316 7.54 211.9 12.63
1/15/2023 1:30:00 AM 3.8 38.84 0.316 7.53 207.7 12.61
1/15/2023 1:45:00 AM 3.77 38.786 0.315 7.53 146.9 12.63
1/15/2023 2:00:00 AM 3.74 38.732 0.315 7.53 284.2 12.63
1/15/2023 2:15:00 AM 3.7 38.66 0.315 7.52 309 12.64
1/15/2023 2:30:00 AM 3.68 38.624 0.315 7.54 297.4 12.63
1/15/2023 2:45:00 AM 3.64 38.552 0.315 7.52 323.6 12.63
1/15/2023 3:00:00 AM 3.6 38.48 0.315 7.51 317.5 12.62
1/15/2023 3:15:00 AM 3.56 38.408 0.315 7.5 284.2 12.65
1/15/2023 3:30:00 AM 3.53 38.354 0.315 7.5 291.5 12.64
1/15/2023 3:45:00 AM 3.49 38.282 0.315 7.49 236.5 12.66
1/15/2023 4:00:00 AM 3.46 38.228 0.315 7.46 276.5 12.66
1/15/2023 4:15:00 AM 3.43 38.174 0.315 7.47 246.1 12.65
1/15/2023 4:30:00 AM 3.4 38.12 0.314 7.4 294.8 12.65
1/15/2023 4:45:00 AM 3.36 38.048 0.314 7.44 309.2 12.67
1/15/2023 5:00:00 AM 3.33 37.994 0.313 7.44 277.2 12.68
1/15/2023 5:15:00 AM 3.28 37.904 0.312 7.46 280.6 12.69
1/15/2023 5:30:00 AM 3.24 37.832 0.309 7.46 234.6 12.7
1/15/2023 5:45:00 AM 3.2 37.76 0.311 7.45 306.9 12.71
1/15/2023 6:00:00 AM 3.16 37.688 0.312 7.45 311 12.72
1/15/2023 6:15:00 AM 3.14 37.652 0.312 7.45 248.6 12.7
1/15/2023 6:30:00 AM 3.1 37.58 0.312 7.45 259.6 12.72
1/15/2023 6:45:00 AM 3.08 37.544 0.309 7.42 234 12.73
1/15/2023 7:00:00 AM 3.04 37.472 0.303 7.42 305.6 12.74
1/15/2023 7:15:00 AM 3.02 37.436 0.309 7.42 275.4 12.76
1/15/2023 7:30:00 AM 2.99 37.382 0.307 7.42 199 12.75
1/15/2023 7:45:00 AM 2.97 37.346 0.308 7.42 399.3 12.77
1/15/2023 8:00:00 AM 2.94 37.292 0.307 7.41 241.5 12.77
1/15/2023 8:15:00 AM 2.92 37.256 0.307 7.4 231.4 12.8
1/15/2023 8:30:00 AM 2.9 37.22 0.304 7.4 308.3 12.81
1/15/2023 8:45:00 AM 2.88 37.184 0.306 7.41 175.8 12.81
1/15/2023 9:00:00 AM 2.87 37.166 0.305 7.42 437.9 12.86
1/15/2023 9:15:00 AM 2.85 37.13 0.304 7.42 284 12.9
1/15/2023 9:30:00 AM 2.84 37.112 0.302 7.39 319.8 12.93
1/15/2023 9:45:00 AM 2.83 37.094 0.302 7.39 193.3 12.95
1/15/2023 10:00:00 AM 2.82 37.076 0.302 7.41 255 13
1/15/2023 10:15:00 AM 2.82 37.076 0.302 7.41 479.3 13.02
1/15/2023 10:30:00 AM 2.84 37.112 0.301 7.44 388 13.04
1/15/2023 10:45:00 AM 2.87 37.166 0.302 7.42 283.7 13.07
1/15/2023 11:00:00 AM 2.92 37.256 0.301 7.38 494.3 13.08
1/15/2023 11:15:00 AM 2.97 37.346 0.302 7.4 323 13.11
1/15/2023 11:30:00 AM 3.03 37.454 0.301 7.41 163.4 13.13
1/15/2023 11:45:00 AM 3.1 37.58 0.3 7.42 540.5 13.14
1/15/2023 12:00:00 PM 3.18 37.724 0.299 7.42 283.1 13.16
1/15/2023 12:15:00 PM 3.27 37.886 0.298 7.4 103.8 13.16
1/15/2023 12:30:00 PM 3.35 38.03 0.299 7.33 204.2 13.18
1/15/2023 12:45:00 PM 3.43 38.174 0.299 7.38 136.7 13.17
1/15/2023 1:00:00 PM 3.51 38.318 0.294 7.41 161.2 13.18
1/15/2023 1:15:00 PM 3.59 38.462 0.292 7.43 333.1 13.18
1/15/2023 1:30:00 PM 3.64 38.552 0.29 7.45 182.8 13.18
1/15/2023 1:45:00 PM 3.68 38.624 0.289 7.45 92.62 13.18
1/15/2023 2:00:00 PM 3.7 38.66 0.288 7.46 179 13.18
1/15/2023 2:15:00 PM 3.71 38.678 0.289 7.46 115.5 13.18
1/15/2023 2:30:00 PM 3.72 38.696 0.299 7.46 114.5 13.17
1/15/2023 2:45:00 PM 3.69 38.642 0.275 7.47 153.1 13.17
1/15/2023 3:00:00 PM 3.64 38.552 0.273 7.48 102.4 13.19
1/15/2023 3:15:00 PM 3.6 38.48 0.271 7.47 101.9 13.18
1/15/2023 3:30:00 PM 3.54 38.372 0.27 7.48 123.3 13.18
1/15/2023 3:45:00 PM 3.43 38.174 0.269 7.49 116.7 13.18
1/15/2023 4:00:00 PM 3.35 38.03 0.269 7.46 118.8 13.18
1/15/2023 4:15:00 PM 3.3 37.94 0.269 7.48 68.42 13.17
1/15/2023 4:30:00 PM 3.23 37.814 0.267 7.44 76.11 13.16
1/15/2023 4:45:00 PM 3.18 37.724 0.268 7.45 48.22 13.14
1/15/2023 5:00:00 PM 3.12 37.616 0.268 7.4 301.3 13.16
1/15/2023 5:15:00 PM 3.08 37.544 0.267 7.38 73.69 13.14
1/15/2023 5:30:00 PM 3.05 37.49 0.27 7.4 147 13.11
1/15/2023 5:45:00 PM 3.03 37.454 0.265 7.37 119.4 13.1
1/15/2023 6:00:00 PM 3 37.4 0.266 7.37 240.8 13.09
1/15/2023 6:15:00 PM 2.99 37.382 0.267 7.34 282.9 13.1
1/15/2023 6:30:00 PM 2.99 37.382 0.266 7.37 126 13.1
1/15/2023 6:45:00 PM 2.98 37.364 0.269 7.39 228.9 13.09
1/15/2023 7:00:00 PM 2.99 37.382 0.268 7.39 116.8 13.09
1/15/2023 7:15:00 PM 2.99 37.382 0.268 7.37 61.95 13.08
1/15/2023 7:30:00 PM 3 37.4 0.268 7.39 79.24 13.09
1/15/2023 7:45:00 PM 2.99 37.382 0.269 7.41 111.1 13.09
1/15/2023 8:00:00 PM 2.99 37.382 0.269 7.42 62.59 13.09
1/15/2023 8:15:00 PM 2.99 37.382 0.268 7.41 109.6 13.11
1/15/2023 8:30:00 PM 3 37.4 0.268 7.44 125.1 13.09
1/15/2023 8:45:00 PM 3.01 37.418 0.27 7.37 67.36 13.1
1/15/2023 9:00:00 PM 3.01 37.418 0.272 7.39 67.36 13.1
1/15/2023 9:15:00 PM 3.01 37.418 0.273 7.41 43.33 13.12
1/15/2023 9:30:00 PM 3.01 37.418 0.272 7.4 84.09 13.12
1/15/2023 9:45:00 PM 3 37.4 0.269 7.43 91.91 13.14
1/15/2023 10:00:00 PM 3.01 37.418 0.268 7.46 71.74 13.12
1/15/2023 10:15:00 PM 2.99 37.382 0.267 7.43 109.9 13.14
1/15/2023 10:30:00 PM 2.98 37.364 0.267 7.45 131.7 13.13
1/15/2023 10:45:00 PM 2.97 37.346 0.267 7.48 163.9 13.13
1/15/2023 11:00:00 PM 2.96 37.328 0.269 7.47 69.27 13.15
1/15/2023 11:15:00 PM 2.93 37.274 0.269 7.49 71.57 13.14
1/15/2023 11:30:00 PM 2.92 37.256 0.272 7.46 73.01 13.15
1/15/2023 11:45:00 PM 2.9 37.22 0.272 7.5 68.41 13.14
1/16/2023 12:00:00 AM 2.86 37.148 0.269 7.48 73.46 13.17
1/16/2023 12:15:00 AM 2.84 37.112 0.27 7.48 88.76 13.16
1/16/2023 12:30:00 AM 2.81 37.058 0.275 7.48 76.09 13.17
1/16/2023 12:45:00 AM 2.79 37.022 0.273 7.48 100.6 13.17
1/16/2023 1:00:00 AM 2.76 36.968 0.271 7.49 84.16 13.18
1/16/2023 1:15:00 AM 2.72 36.896 0.269 7.47 71.86 13.18
1/16/2023 1:30:00 AM 2.7 36.86 0.27 7.49 101.8 13.17
1/16/2023 1:45:00 AM 2.67 36.806 0.267 7.48 80.93 13.19
1/16/2023 2:00:00 AM 2.64 36.752 0.272 7.48 109.9 13.18
1/16/2023 2:15:00 AM 2.61 36.698 0.275 7.48 134.1 13.18
1/16/2023 2:30:00 AM 2.58 36.644 0.269 7.49 124.4 13.18
1/16/2023 2:45:00 AM 2.56 36.608 0.27 7.49 139 13.18
1/16/2023 3:00:00 AM 2.53 36.554 0.27 7.46 131.5 13.17
1/16/2023 3:15:00 AM 2.5 36.5 0.27 7.49 108.9 13.18
1/16/2023 3:30:00 AM 2.48 36.464 0.268 7.48 100.1 13.19
1/16/2023 3:45:00 AM 2.45 36.41 0.268 7.48 117 13.18
1/16/2023 4:00:00 AM 2.43 36.374 0.27 7.47 108.4 13.19
1/16/2023 4:15:00 AM 2.4 36.32 0.271 7.47 114.3 13.18
1/16/2023 4:30:00 AM 2.38 36.284 0.268 7.46 103.1 13.19
1/16/2023 4:45:00 AM 2.35 36.23 0.27 7.45 114.3 13.19
1/16/2023 5:00:00 AM 2.32 36.176 0.271 7.44 142.8 13.18
1/16/2023 5:15:00 AM 2.29 36.122 0.269 7.44 100 13.19
1/16/2023 5:30:00 AM 2.27 36.086 0.27 7.45 167.4 13.19
1/16/2023 5:45:00 AM 2.25 36.05 0.269 7.45 107.1 13.2
1/16/2023 6:00:00 AM 2.22 35.996 0.269 7.44 96.41 13.21
1/16/2023 6:15:00 AM 2.19 35.942 0.272 7.43 153.9 13.2
1/16/2023 6:30:00 AM 2.16 35.888 0.275 7.44 100.3 13.2
1/16/2023 6:45:00 AM 2.14 35.852 0.287 7.45 110.6 13.21
1/16/2023 7:00:00 AM 2.11 35.798 0.292 7.43 344.3 13.21
1/16/2023 7:15:00 AM 2.08 35.744 0.292 7.42 325.8 13.21
1/16/2023 7:30:00 AM 2.06 35.708 0.294 7.4 495.4 13.21
1/16/2023 7:45:00 AM 2.04 35.672 0.295 7.4 200.9 13.22